Darstellungsparameter: Aktuell verwendete Einstellungen:
Skalierung der Graphiken ... ?
xyx+y,   Skalierungsfaktor:      Skalierung: Modus: x, Faktor: 1
Darstellungszeitraum ... ?
Vom - - bis: - -   Zeitraum: 27.04.2007 - 26.04.2017
Min/Max/Avg-Anzeige ... ?
Zeige MMA aktuell
Zeige MMA Monat
Zeige MMA alles
Zeige --A aktuell
Zeige --A Monat
Zeige --A alles
Keine MMA-Anzeige
MMA:
Keine MMA-Graphiken
MMA-Basis: 27.04.2007 - 26.04.2017
Quicknavigation für Darstellung... ?
Tage:      1T, 2T, 3T, 5T -1T -2T -3T -5T +1T +2T +3T +5T
Wochen: 1W, 2W, 3W -1W -2W -3W +1W +2W +3W
Monate: 1M, 3M, 6M -1M -3M -6M +1M +3M +6M
Jahre:    1J, 3J, 5J, 10J -1J -3J -5J -10J +1J +3J +5J +10J
Nutze für die Darstellung ... ?
Originaldaten oder Mittelwerte auf ...
Stundenbasis Tagesbasis Wochenbasis
Monatsbasis Jahresbasis      Datenbasis: Original-Daten
Darstellen als:
Statistik (Auto) Statistik J:M      Darstellung:
Zur Graphik,    zurück zur Übersicht aller Sensoren.
 
Tabellarische Datenbersicht: ?
 
Sensor: Nr:Datum:Temp:Feuchte:Taupunkt:
Aussen-T/F 1 27-04-2007 00:11:01 16.4 C 44 % 4.13 C
2 27-04-2007 00:23:02 16.3 C 45 % 4.36 C
3 27-04-2007 00:35:01 16 C 45 % 4.09 C
4 27-04-2007 00:47:01 16 C 46 % 4.4 C
5 27-04-2007 00:59:01 15.7 C 47 % 4.43 C
6 27-04-2007 01:11:02 15.4 C 49 % 4.75 C
7 27-04-2007 01:23:02 15 C 50 % 4.67 C
8 27-04-2007 01:35:02 14.8 C 52 % 5.05 C
9 27-04-2007 01:47:01 14.5 C 52 % 4.77 C
10 27-04-2007 01:59:01 14.2 C 53 % 4.77 C
11 27-04-2007 02:11:01 14.2 C 54 % 5.04 C
12 27-04-2007 02:23:02 14.1 C 54 % 4.94 C
13 27-04-2007 02:35:02 14.1 C 54 % 4.94 C
14 27-04-2007 02:48:16 13.8 C 56 % 5.19 C
15 27-04-2007 03:00:16 13.5 C 57 % 5.16 C
16 27-04-2007 03:12:16 13.5 C 57 % 5.16 C
17 27-04-2007 03:24:16 13.3 C 58 % 5.22 C
18 27-04-2007 03:36:02 13 C 59 % 5.19 C
19 27-04-2007 03:48:02 12.9 C 61 % 5.57 C
20 27-04-2007 04:00:03 12.8 C 61 % 5.48 C
21 27-04-2007 04:12:02 12.5 C 62 % 5.43 C
22 27-04-2007 04:24:02 12.3 C 63 % 5.47 C
23 27-04-2007 04:36:02 12.1 C 64 % 5.51 C
24 27-04-2007 04:48:02 11.9 C 65 % 5.54 C
25 27-04-2007 05:00:03 11.9 C 65 % 5.54 C
Sensor: Nr:Datum:Temp:Feuchte:Taupunkt:
Aussen-T/F 26 27-04-2007 05:12:02 11.6 C 66 % 5.47 C
27 27-04-2007 05:24:02 11.5 C 67 % 5.59 C
28 27-04-2007 05:36:02 11.3 C 67 % 5.4 C
29 27-04-2007 05:48:02 11.2 C 67 % 5.31 C
30 27-04-2007 06:00:02 11 C 68 % 5.33 C
31 27-04-2007 06:12:01 10.8 C 69 % 5.35 C
32 27-04-2007 06:24:01 10.8 C 69 % 5.35 C
33 27-04-2007 06:36:02 10.6 C 70 % 5.36 C
34 27-04-2007 06:48:02 10.5 C 72 % 5.67 C
35 27-04-2007 07:00:02 10.5 C 72 % 5.67 C
36 27-04-2007 07:12:03 10.6 C 72 % 5.77 C
37 27-04-2007 07:24:02 10.7 C 72 % 5.87 C
38 27-04-2007 07:36:02 10.7 C 72 % 5.87 C
39 27-04-2007 07:48:02 10.9 C 72 % 6.06 C
40 27-04-2007 08:00:02 11 C 71 % 5.95 C
41 27-04-2007 08:12:02 11.3 C 71 % 6.24 C
42 27-04-2007 08:24:02 11.7 C 71 % 6.62 C
43 27-04-2007 08:36:02 11.9 C 70 % 6.61 C
44 27-04-2007 08:48:01 12.1 C 68 % 6.38 C
45 27-04-2007 09:00:01 12.4 C 67 % 6.45 C
46 27-04-2007 09:12:02 13 C 66 % 6.8 C
47 27-04-2007 09:24:02 13.8 C 63 % 6.89 C
48 27-04-2007 09:36:01 14.5 C 60 % 6.84 C
49 27-04-2007 09:48:02 15.2 C 58 % 7 C
50 27-04-2007 10:00:02 15.9 C 56 % 7.14 C
Sensor: Nr:Datum:Temp:Feuchte:Taupunkt:
Aussen-T/F 51 27-04-2007 10:12:01 16.6 C 55 % 7.53 C
52 27-04-2007 10:24:02 17.4 C 53 % 7.73 C
53 27-04-2007 10:36:02 18.1 C 52 % 8.1 C
54 27-04-2007 10:48:02 18.9 C 50 % 8.26 C
55 27-04-2007 11:00:02 19.5 C 48 % 8.21 C
56 27-04-2007 11:12:02 20.2 C 46 % 8.22 C
57 27-04-2007 11:24:02 21 C 44 % 8.29 C
58 27-04-2007 11:36:02 21.8 C 42 % 8.33 C
59 27-04-2007 11:48:01 22.5 C 40 % 8.24 C
60 27-04-2007 12:00:01 23.1 C 36 % 7.23 C
61 27-04-2007 12:12:02 23.8 C 35 % 7.43 C
62 27-04-2007 12:24:02 24.5 C 32 % 6.74 C
63 27-04-2007 12:36:01 25.1 C 29 % 5.83 C
64 27-04-2007 12:48:02 25.6 C 25 % 4.13 C
65 27-04-2007 13:00:03 26.3 C 25 % 4.72 C
66 27-04-2007 13:12:02 27.2 C 22 % 3.65 C
67 27-04-2007 13:24:02 27.5 C 20 % 2.56 C
68 27-04-2007 13:36:02 28.3 C 20 % 3.21 C
69 27-04-2007 13:48:03 28.4 C 20 % 3.29 C
70 27-04-2007 14:00:03 28.6 C 20 % 3.46 C
71 27-04-2007 14:12:02 28.2 C 20 % 3.13 C
72 27-04-2007 14:24:03 28.9 C 20 % 3.7 C
73 27-04-2007 14:36:02 29.5 C 20 % 4.2 C
74 27-04-2007 14:48:03 29.5 C 20 % 4.2 C
75 27-04-2007 15:00:03 29.1 C 20 % 3.87 C
Sensor: Nr:Datum:Temp:Feuchte:Taupunkt:
Aussen-T/F 76 27-04-2007 15:12:02 30 C 20 % 4.61 C
77 27-04-2007 15:24:02 30.3 C 20 % 4.85 C
78 27-04-2007 15:36:03 30.5 C 20 % 5.01 C
79 27-04-2007 15:48:02 30.4 C 20 % 4.93 C
80 27-04-2007 16:00:02 30.9 C 20 % 5.34 C
81 27-04-2007 16:12:02 30.7 C 20 % 5.18 C
82 27-04-2007 16:24:02 31.6 C 20 % 5.91 C
83 27-04-2007 16:36:02 31.5 C 20 % 5.83 C
84 27-04-2007 16:48:02 31.7 C 20 % 6 C
85 27-04-2007 17:00:03 32 C 20 % 6.24 C
86 27-04-2007 17:12:02 31.4 C 20 % 5.75 C
87 27-04-2007 17:24:03 30.9 C 20 % 5.34 C
88 27-04-2007 17:36:02 31.4 C 20 % 5.75 C
89 27-04-2007 17:48:02 31.4 C 20 % 5.75 C
90 27-04-2007 18:00:03 31.7 C 20 % 6 C
91 27-04-2007 18:12:02 31.7 C 20 % 6 C
92 27-04-2007 18:24:02 31.6 C 20 % 5.91 C
93 27-04-2007 18:36:02 31.5 C 20 % 5.83 C
94 27-04-2007 18:48:03 31.4 C 20 % 5.75 C
95 27-04-2007 19:00:03 31 C 20 % 5.42 C
96 27-04-2007 19:12:02 30.9 C 20 % 5.34 C
97 27-04-2007 19:24:02 30.6 C 20 % 5.1 C
98 27-04-2007 19:36:03 30 C 20 % 4.61 C
99 27-04-2007 19:48:02 29.1 C 20 % 3.87 C
100 27-04-2007 20:00:02 27.8 C 20 % 2.8 C
Sensor: Nr:Datum:Temp:Feuchte:Taupunkt:
Aussen-T/F 101 27-04-2007 20:12:02 26.4 C 20 % 1.65 C
102 27-04-2007 20:24:02 25.3 C 21 % 1.43 C
103 27-04-2007 20:36:02 24.4 C 22 % 1.33 C
104 27-04-2007 20:48:02 23.9 C 24 % 2.12 C
105 27-04-2007 21:00:02 23.5 C 25 % 2.36 C
106 27-04-2007 21:12:03 22.9 C 26 % 2.4 C
107 27-04-2007 21:24:02 22.4 C 28 % 3.01 C
108 27-04-2007 21:36:02 21.9 C 28 % 2.59 C
109 27-04-2007 21:48:02 21.5 C 30 % 3.21 C
110 27-04-2007 22:00:02 21.1 C 30 % 2.87 C
111 27-04-2007 22:12:01 20.8 C 32 % 3.52 C
112 27-04-2007 22:24:02 20.4 C 34 % 4.03 C
113 27-04-2007 22:36:02 20 C 34 % 3.68 C
114 27-04-2007 22:48:03 19.8 C 36 % 4.31 C
115 27-04-2007 23:00:03 19.5 C 37 % 4.44 C
116 27-04-2007 23:12:02 19.1 C 38 % 4.46 C
117 27-04-2007 23:24:02 18.4 C 41 % 4.92 C
118 27-04-2007 23:36:02 18.3 C 41 % 4.83 C
119 27-04-2007 23:48:02 18.2 C 42 % 5.09 C
120 28-04-2007 00:00:02 17.9 C 43 % 5.16 C
121 28-04-2007 00:12:03 17.6 C 44 % 5.22 C
122 28-04-2007 00:24:02 17.1 C 47 % 5.71 C
123 28-04-2007 00:36:02 17 C 47 % 5.62 C
124 28-04-2007 00:48:02 16.7 C 48 % 5.65 C
125 28-04-2007 01:00:02 16.4 C 49 % 5.67 C
Sensor: Nr:Datum:Temp:Feuchte:Taupunkt:
Aussen-T/F 126 28-04-2007 01:12:02 16.3 C 50 % 5.87 C
127 28-04-2007 01:24:02 16.1 C 50 % 5.69 C
128 28-04-2007 01:36:02 16 C 51 % 5.88 C
129 28-04-2007 01:48:03 15.6 C 53 % 6.06 C
130 28-04-2007 02:00:03 15.4 C 53 % 5.88 C
131 28-04-2007 02:12:03 15.2 C 54 % 5.96 C
132 28-04-2007 02:24:02 14.9 C 55 % 5.95 C
133 28-04-2007 02:36:03 14.7 C 57 % 6.28 C
134 28-04-2007 02:49:04 14.5 C 59 % 6.59 C
135 28-04-2007 03:01:04 14.2 C 59 % 6.31 C
136 28-04-2007 03:13:04 14 C 60 % 6.37 C
137 28-04-2007 03:25:04 13.8 C 61 % 6.42 C
138 28-04-2007 03:37:03 13.7 C 61 % 6.32 C
139 28-04-2007 03:49:03 13.5 C 62 % 6.37 C
140 28-04-2007 04:01:02 13.5 C 62 % 6.37 C
141 28-04-2007 04:13:02 13.4 C 63 % 6.51 C
142 28-04-2007 04:25:03 13 C 63 % 6.13 C
143 28-04-2007 04:37:03 13 C 64 % 6.36 C
144 28-04-2007 04:49:01 12.8 C 66 % 6.61 C
145 28-04-2007 05:01:02 12.7 C 65 % 6.3 C
146 28-04-2007 05:13:02 12.6 C 66 % 6.42 C
147 28-04-2007 05:25:02 12.3 C 67 % 6.36 C
148 28-04-2007 05:37:02 12.1 C 68 % 6.38 C
149 28-04-2007 05:49:02 12 C 69 % 6.5 C
150 28-04-2007 06:01:02 11.8 C 70 % 6.51 C
Sensor: Nr:Datum:Temp:Feuchte:Taupunkt:
Aussen-T/F 151 28-04-2007 06:13:02 11.7 C 70 % 6.42 C
152 28-04-2007 06:25:02 11.5 C 71 % 6.43 C
153 28-04-2007 06:37:02 11.2 C 73 % 6.55 C
154 28-04-2007 06:49:02 11.2 C 74 % 6.74 C
155 28-04-2007 07:01:01 11.3 C 74 % 6.84 C
156 28-04-2007 07:13:01 11.3 C 74 % 6.84 C
157 28-04-2007 07:25:02 11.3 C 74 % 6.84 C
158 28-04-2007 07:37:02 11.4 C 74 % 6.94 C
159 28-04-2007 07:49:02 11.8 C 74 % 7.32 C
160 28-04-2007 08:01:02 12.2 C 72 % 7.31 C
161 28-04-2007 08:13:02 12.2 C 69 % 6.69 C
162 28-04-2007 08:25:02 12.5 C 69 % 6.97 C
163 28-04-2007 08:37:02 12.9 C 69 % 7.36 C
164 28-04-2007 08:49:01 13.3 C 67 % 7.31 C
165 28-04-2007 09:01:02 13.5 C 65 % 7.06 C
166 28-04-2007 09:13:02 14.1 C 63 % 7.17 C
167 28-04-2007 09:25:02 14.5 C 62 % 7.32 C
168 28-04-2007 09:37:01 15.1 C 59 % 7.16 C
169 28-04-2007 09:49:02 15.7 C 58 % 7.47 C
170 28-04-2007 10:01:01 16.4 C 56 % 7.61 C
171 28-04-2007 10:13:01 17.3 C 54 % 7.91 C
172 28-04-2007 10:25:02 18 C 51 % 7.72 C
173 28-04-2007 10:37:02 18.7 C 50 % 8.08 C
174 28-04-2007 10:49:02 19.1 C 48 % 7.84 C
175 28-04-2007 11:01:02 20.2 C 47 % 8.54 C
Sensor: Nr:Datum:Temp:Feuchte:Taupunkt:
Aussen-T/F 176 28-04-2007 11:13:03 20.8 C 44 % 8.11 C
177 28-04-2007 11:25:02 21.6 C 43 % 8.49 C
178 28-04-2007 11:37:02 22.4 C 40 % 8.15 C
179 28-04-2007 11:49:02 22.8 C 37 % 7.36 C
180 28-04-2007 12:01:02 23.6 C 36 % 7.67 C
181 28-04-2007 12:13:02 24 C 35 % 7.61 C
182 28-04-2007 12:25:02 24.5 C 35 % 8.05 C
183 28-04-2007 12:37:02 25.2 C 32 % 7.34 C
184 28-04-2007 12:49:02 25.9 C 30 % 7.01 C
185 28-04-2007 13:01:02 26.7 C 27 % 6.16 C
186 28-04-2007 13:13:02 27.7 C 25 % 5.9 C
187 28-04-2007 13:25:02 28.6 C 20 % 3.46 C
188 28-04-2007 13:37:02 29.1 C 20 % 3.87 C
189 28-04-2007 13:49:01 29.1 C 20 % 3.87 C
190 28-04-2007 14:01:02 29.3 C 20 % 4.03 C
191 28-04-2007 14:13:02 29.8 C 20 % 4.44 C
192 28-04-2007 14:25:02 30 C 20 % 4.61 C
193 28-04-2007 14:37:01 29.9 C 20 % 4.52 C
194 28-04-2007 14:49:02 29.8 C 20 % 4.44 C
195 28-04-2007 15:01:01 29.7 C 20 % 4.36 C
196 28-04-2007 15:13:01 30.4 C 20 % 4.93 C
197 28-04-2007 15:25:01 31.2 C 20 % 5.59 C
198 28-04-2007 15:37:02 31.6 C 20 % 5.91 C
199 28-04-2007 15:49:02 31.8 C 20 % 6.08 C
200 28-04-2007 16:01:02 31.4 C 20 % 5.75 C
Sensor: Nr:Datum:Temp:Feuchte:Taupunkt:
Aussen-T/F 201 28-04-2007 16:13:02 31.4 C 20 % 5.75 C
202 28-04-2007 16:25:02 31.5 C 20 % 5.83 C
203 28-04-2007 16:37:02 31.6 C 20 % 5.91 C
204 28-04-2007 16:49:02 32 C 20 % 6.24 C
205 28-04-2007 17:01:02 31.9 C 20 % 6.16 C
206 28-04-2007 17:13:02 31.9 C 20 % 6.16 C
207 28-04-2007 17:25:03 31.2 C 20 % 5.59 C
208 28-04-2007 17:37:03 31.4 C 20 % 5.75 C
209 28-04-2007 17:49:02 31.7 C 20 % 6 C
210 28-04-2007 18:01:02 30.9 C 20 % 5.34 C
211 28-04-2007 18:13:02 31.2 C 20 % 5.59 C
212 28-04-2007 18:25:03 31.4 C 20 % 5.75 C
213 28-04-2007 18:37:02 30.6 C 20 % 5.1 C
214 28-04-2007 18:49:01 30.4 C 20 % 4.93 C
215 28-04-2007 19:01:02 30.5 C 20 % 5.01 C
216 28-04-2007 19:13:02 30.1 C 20 % 4.69 C
217 28-04-2007 19:25:02 29.5 C 20 % 4.2 C
218 28-04-2007 19:37:01 29.9 C 20 % 4.52 C
219 28-04-2007 19:49:02 29.3 C 20 % 4.03 C
220 28-04-2007 20:01:01 28.2 C 20 % 3.13 C
221 28-04-2007 20:13:01 27.4 C 20 % 2.47 C
222 28-04-2007 20:25:02 25.6 C 25 % 4.13 C
223 28-04-2007 20:37:02 24.4 C 25 % 3.12 C
224 28-04-2007 20:49:03 23.7 C 24 % 1.95 C
225 28-04-2007 21:01:02 23.4 C 25 % 2.27 C
Sensor: Nr:Datum:Temp:Feuchte:Taupunkt:
Aussen-T/F 226 28-04-2007 21:13:02 22.9 C 26 % 2.4 C
227 28-04-2007 21:25:02 22.4 C 27 % 2.5 C
228 28-04-2007 21:37:03 22.1 C 30 % 3.73 C
229 28-04-2007 21:49:02 21.7 C 30 % 3.39 C
230 28-04-2007 22:01:03 21.2 C 31 % 3.42 C
231 28-04-2007 22:13:03 20.8 C 33 % 3.95 C
232 28-04-2007 22:25:02 20.4 C 35 % 4.44 C
233 28-04-2007 22:37:02 20.1 C 35 % 4.18 C
234 28-04-2007 22:49:02 19.8 C 37 % 4.7 C
235 28-04-2007 23:01:01 19.5 C 38 % 4.82 C
236 28-04-2007 23:13:01 18.7 C 40 % 4.84 C
237 28-04-2007 23:25:01 18.4 C 42 % 5.27 C
238 28-04-2007 23:37:02 18.3 C 43 % 5.52 C
239 28-04-2007 23:49:02 18 C 43 % 5.25 C
240 29-04-2007 00:01:03 17.9 C 45 % 5.81 C
241 29-04-2007 00:13:03 17.7 C 46 % 5.95 C
242 29-04-2007 00:25:03 17.4 C 46 % 5.67 C
243 29-04-2007 00:37:03 17.2 C 46 % 5.49 C
244 29-04-2007 00:49:03 16.9 C 47 % 5.53 C
245 29-04-2007 01:01:03 16.7 C 47 % 5.34 C
246 29-04-2007 01:13:03 16.3 C 48 % 5.28 C
247 29-04-2007 01:25:03 16.1 C 50 % 5.69 C
248 29-04-2007 01:37:03 16 C 50 % 5.59 C
249 29-04-2007 01:49:02 15.7 C 51 % 5.6 C
250 29-04-2007 02:01:02 15.6 C 52 % 5.79 C
Sensor: Nr:Datum:Temp:Feuchte:Taupunkt:
Aussen-T/F 251 29-04-2007 02:13:02 15.3 C 53 % 5.79 C
252 29-04-2007 02:25:02 15.2 C 54 % 5.96 C
253 29-04-2007 02:37:02 15 C 55 % 6.04 C
254 29-04-2007 02:50:04 14.4 C 58 % 6.25 C
255 29-04-2007 03:02:04 14.4 C 59 % 6.5 C
256 29-04-2007 03:14:04 14 C 60 % 6.37 C
257 29-04-2007 03:26:04 13.9 C 61 % 6.51 C
258 29-04-2007 03:38:02 13.8 C 61 % 6.42 C
259 29-04-2007 03:50:02 13.8 C 60 % 6.18 C
260 29-04-2007 04:02:02 13.7 C 61 % 6.32 C
261 29-04-2007 04:14:02 13.5 C 61 % 6.14 C
262 29-04-2007 04:26:03 13.4 C 62 % 6.28 C
263 29-04-2007 04:38:02 13.3 C 62 % 6.18 C
264 29-04-2007 04:50:02 13.1 C 62 % 5.99 C
265 29-04-2007 05:02:02 13 C 63 % 6.13 C
266 29-04-2007 05:14:02 12.6 C 65 % 6.2 C
267 29-04-2007 05:26:02 12.5 C 66 % 6.33 C
268 29-04-2007 05:38:02 12.4 C 67 % 6.45 C
269 29-04-2007 05:50:02 12.4 C 67 % 6.45 C
270 29-04-2007 06:02:03 12.1 C 66 % 5.95 C
271 29-04-2007 06:14:03 12 C 68 % 6.29 C
272 29-04-2007 06:26:03 12 C 67 % 6.07 C
273 29-04-2007 06:38:02 11.9 C 69 % 6.4 C
274 29-04-2007 06:50:02 11.9 C 69 % 6.4 C
275 29-04-2007 07:02:01 11.9 C 70 % 6.61 C
Sensor: Nr:Datum:Temp:Feuchte:Taupunkt:
Aussen-T/F 276 29-04-2007 07:14:01 11.8 C 71 % 6.72 C
277 29-04-2007 07:26:01 12 C 70 % 6.71 C
278 29-04-2007 07:38:02 12.1 C 71 % 7.01 C
279 29-04-2007 07:50:03 12.1 C 71 % 7.01 C
280 29-04-2007 08:02:02 12.3 C 71 % 7.2 C
281 29-04-2007 08:14:02 12.6 C 70 % 7.28 C
282 29-04-2007 08:26:02 13 C 68 % 7.24 C
283 29-04-2007 08:38:02 13.5 C 66 % 7.28 C
284 29-04-2007 08:50:02 13.8 C 65 % 7.34 C
285 29-04-2007 09:02:01 14.2 C 64 % 7.5 C
286 29-04-2007 09:14:01 14.9 C 63 % 7.93 C
287 29-04-2007 09:26:02 15.4 C 61 % 7.93 C
288 29-04-2007 09:38:02 16 C 59 % 8 C
289 29-04-2007 09:50:02 16.8 C 58 % 8.5 C
290 29-04-2007 10:02:02 17.4 C 56 % 8.54 C
291 29-04-2007 10:14:02 18.3 C 54 % 8.84 C
292 29-04-2007 10:26:02 19 C 48 % 7.75 C
293 29-04-2007 10:38:02 19.6 C 46 % 7.67 C
294 29-04-2007 10:50:01 20 C 43 % 7.05 C
295 29-04-2007 11:02:02 20.5 C 43 % 7.5 C
296 29-04-2007 11:14:02 21.2 C 40 % 7.08 C
297 29-04-2007 11:26:02 21.2 C 40 % 7.08 C
298 29-04-2007 11:38:01 21.6 C 41 % 7.79 C
299 29-04-2007 11:50:02 22.4 C 37 % 7.01 C
300 29-04-2007 12:02:01 22.6 C 37 % 7.18 C
Sensor: Nr:Datum:Temp:Feuchte:Taupunkt:
Aussen-T/F 301 29-04-2007 12:14:01 23 C 35 % 6.73 C
302 29-04-2007 12:26:02 23.4 C 35 % 7.08 C
303 29-04-2007 12:38:02 24.2 C 32 % 6.48 C
304 29-04-2007 12:50:02 24.4 C 32 % 6.65 C
305 29-04-2007 13:02:02 24.9 C 31 % 6.62 C
306 29-04-2007 13:14:02 25.6 C 30 % 6.75 C
307 29-04-2007 13:26:02 26.4 C 28 % 6.43 C
308 29-04-2007 13:38:02 26.3 C 27 % 5.82 C
309 29-04-2007 13:50:02 26.6 C 28 % 6.61 C
310 29-04-2007 14:02:02 26.7 C 28 % 6.69 C
311 29-04-2007 14:14:02 26.6 C 27 % 6.08 C
312 29-04-2007 14:26:02 27.4 C 26 % 6.21 C
313 29-04-2007 14:38:01 28 C 25 % 6.15 C
314 29-04-2007 14:50:02 28.2 C 25 % 6.32 C
315 29-04-2007 15:02:02 29.1 C 25 % 7.08 C
316 29-04-2007 15:14:02 29 C 22 % 5.15 C
317 29-04-2007 15:26:02 28.9 C 23 % 5.7 C
318 29-04-2007 15:38:02 29.3 C 22 % 5.39 C
319 29-04-2007 15:50:01 29.5 C 22 % 5.56 C
320 29-04-2007 16:02:02 29.4 C 20 % 4.11 C
321 29-04-2007 16:14:02 29.2 C 20 % 3.95 C
322 29-04-2007 16:26:01 29.1 C 20 % 3.87 C
323 29-04-2007 16:38:01 29 C 20 % 3.79 C
324 29-04-2007 16:50:01 28.8 C 20 % 3.62 C
325 29-04-2007 17:02:01 28.9 C 20 % 3.7 C
Sensor: Nr:Datum:Temp:Feuchte:Taupunkt:
Aussen-T/F 326 29-04-2007 17:14:01 29 C 20 % 3.79 C
327 29-04-2007 17:26:02 28.9 C 20 % 3.7 C
328 29-04-2007 17:38:01 28.6 C 20 % 3.46 C
329 29-04-2007 17:50:02 28.4 C 20 % 3.29 C
330 29-04-2007 18:02:02 27.9 C 20 % 2.88 C
331 29-04-2007 18:14:02 27.9 C 20 % 2.88 C
332 29-04-2007 18:26:02 27.7 C 20 % 2.72 C
333 29-04-2007 18:38:01 27.3 C 20 % 2.39 C
334 29-04-2007 18:50:02 27.1 C 20 % 2.23 C
335 29-04-2007 19:02:02 26.8 C 21 % 2.67 C
336 29-04-2007 19:14:03 26 C 20 % 1.32 C
337 29-04-2007 19:26:02 25.6 C 21 % 1.67 C
338 29-04-2007 19:38:02 25.2 C 21 % 1.34 C
339 29-04-2007 19:50:02 24.4 C 21 % 0.68 C
340 29-04-2007 20:02:02 23.4 C 22 % 0.49 C
341 29-04-2007 20:14:02 22.4 C 23 % 0.27 C
342 29-04-2007 20:26:02 21.8 C 25 % 0.92 C
343 29-04-2007 20:38:02 21.1 C 25 % 0.33 C
344 29-04-2007 20:50:02 20.7 C 27 % 1.05 C
345 29-04-2007 21:02:02 20 C 28 % 0.96 C
346 29-04-2007 21:14:02 19.5 C 30 % 1.48 C
347 29-04-2007 21:26:02 19 C 30 % 1.05 C
348 29-04-2007 21:38:02 18.7 C 31 % 1.25 C
349 29-04-2007 21:50:01 18.5 C 30 % 0.62 C
350 29-04-2007 22:02:02 18.3 C 29 % -0.02 C
Sensor: Nr:Datum:Temp:Feuchte:Taupunkt:
Aussen-T/F 351 29-04-2007 22:14:02 18.1 C 29 % -0.19 C
352 29-04-2007 22:26:01 17.9 C 30 % 0.1 C
353 29-04-2007 22:38:02 17.7 C 31 % 0.38 C
354 29-04-2007 22:50:02 17.5 C 30 % -0.25 C
355 29-04-2007 23:02:01 17.4 C 30 % -0.33 C
356 29-04-2007 23:14:01 17.1 C 29 % -1.05 C
357 29-04-2007 23:26:02 16.8 C 30 % -0.85 C
358 29-04-2007 23:38:02 16.6 C 31 % -0.58 C
359 29-04-2007 23:50:02 16.2 C 30 % -1.37 C
360 30-04-2007 00:02:02 16 C 30 % -1.54 C
361 30-04-2007 00:14:02 15.8 C 30 % -1.72 C
362 30-04-2007 00:26:03 15.4 C 29 % -2.52 C
363 30-04-2007 00:38:02 15 C 30 % -2.41 C
364 30-04-2007 00:50:02 14.7 C 31 % -2.23 C
365 30-04-2007 01:02:02 14.4 C 30 % -2.93 C
366 30-04-2007 01:14:02 14.2 C 30 % -3.1 C
367 30-04-2007 01:26:02 13.8 C 30 % -3.45 C
368 30-04-2007 01:38:02 13.9 C 31 % -2.93 C
369 30-04-2007 01:50:02 13.5 C 31 % -3.27 C
370 30-04-2007 02:02:03 13.1 C 31 % -3.62 C
371 30-04-2007 02:14:03 12.8 C 34 % -2.65 C
372 30-04-2007 02:26:02 12.6 C 33 % -3.23 C
373 30-04-2007 02:38:02 12.6 C 32 % -3.64 C
374 30-04-2007 02:51:04 12.4 C 33 % -3.4 C
375 30-04-2007 03:03:04 12.1 C 34 % -3.27 C
Sensor: Nr:Datum:Temp:Feuchte:Taupunkt:
Aussen-T/F 376 30-04-2007 03:15:03 11.6 C 36 % -2.94 C
377 30-04-2007 03:27:03 11.5 C 36 % -3.03 C
378 30-04-2007 03:39:02 11.2 C 37 % -2.93 C
379 30-04-2007 03:51:02 11 C 38 % -2.75 C
380 30-04-2007 04:03:02 10.8 C 39 % -2.58 C
381 30-04-2007 04:15:02 10.5 C 40 % -2.51 C
382 30-04-2007 04:27:02 10.3 C 41 % -2.36 C
383 30-04-2007 04:39:02 10.3 C 40 % -2.69 C
384 30-04-2007 04:51:02 10.1 C 41 % -2.54 C
385 30-04-2007 05:03:02 10 C 42 % -2.3 C
386 30-04-2007 05:15:02 9.8 C 42 % -2.48 C
387 30-04-2007 05:27:02 9.4 C 44 % -2.22 C
388 30-04-2007 05:39:02 9.2 C 44 % -2.4 C
389 30-04-2007 05:51:02 9.2 C 45 % -2.1 C
390 30-04-2007 06:03:02 9 C 46 % -1.98 C
391 30-04-2007 06:15:02 8.9 C 47 % -1.78 C
392 30-04-2007 06:27:03 8.8 C 47 % -1.87 C
393 30-04-2007 06:39:01 8.6 C 48 % -1.77 C
394 30-04-2007 06:51:02 8.7 C 49 % -1.4 C
395 30-04-2007 07:03:02 8.6 C 50 % -1.22 C
396 30-04-2007 07:15:02 8.7 C 50 % -1.13 C
397 30-04-2007 07:27:02 8.7 C 51 % -0.86 C
398 30-04-2007 07:39:02 8.9 C 51 % -0.67 C
399 30-04-2007 07:51:02 9.1 C 49 % -1.03 C
400 30-04-2007 08:03:02 9.3 C 48 % -1.13 C
Sensor: Nr:Datum:Temp:Feuchte:Taupunkt:
Aussen-T/F 401 30-04-2007 08:15:02 9.5 C 48 % -0.95 C
402 30-04-2007 08:27:02 10.1 C 42 % -2.21 C
403 30-04-2007 08:39:02 10.4 C 43 % -1.62 C
404 30-04-2007 08:51:02 10.8 C 42 % -1.58 C
405 30-04-2007 09:03:03 11.2 C 40 % -1.88 C
406 30-04-2007 09:15:02 11.7 C 39 % -1.78 C
407 30-04-2007 09:27:02 12.2 C 37 % -2.04 C
408 30-04-2007 09:39:02 12.7 C 36 % -1.97 C
409 30-04-2007 09:51:02 13 C 35 % -2.08 C
410 30-04-2007 10:03:01 13.5 C 34 % -2.03 C
411 30-04-2007 10:15:01 14 C 32 % -2.41 C
412 30-04-2007 10:27:01 14.3 C 31 % -2.58 C
413 30-04-2007 10:39:02 14.7 C 31 % -2.23 C
414 30-04-2007 10:51:02 15.1 C 30 % -2.32 C
415 30-04-2007 11:03:03 15.6 C 28 % -2.82 C
416 30-04-2007 11:15:02 16.1 C 26 % -3.38 C
417 30-04-2007 11:27:02 16.5 C 26 % -3.04 C
418 30-04-2007 11:39:02 17 C 25 % -3.14 C
419 30-04-2007 11:51:01 17.4 C 23 % -3.92 C
420 30-04-2007 12:03:02 17.9 C 21 % -4.71 C
421 30-04-2007 12:15:01 18.5 C 20 % -4.85 C
422 30-04-2007 12:27:02 18.6 C 20 % -4.77 C
423 30-04-2007 12:39:01 19.2 C 20 % -4.27 C
424 30-04-2007 12:51:02 19.4 C 20 % -4.11 C
425 30-04-2007 13:03:01 20.2 C 20 % -3.45 C
Sensor: Nr:Datum:Temp:Feuchte:Taupunkt:
Aussen-T/F 426 30-04-2007 13:15:01 20.8 C 20 % -2.95 C
427 30-04-2007 13:27:01 21.4 C 20 % -2.46 C
428 30-04-2007 13:39:02 21.7 C 20 % -2.21 C
429 30-04-2007 13:51:02 21.9 C 20 % -2.05 C
430 30-04-2007 14:03:01 21.9 C 20 % -2.05 C
431 30-04-2007 14:15:01 22.4 C 20 % -1.64 C
432 30-04-2007 14:27:01 22.9 C 20 % -1.22 C
433 30-04-2007 14:39:02 23.3 C 20 % -0.9 C
434 30-04-2007 14:51:03 23.7 C 20 % -0.57 C
435 30-04-2007 15:03:02 24 C 20 % -0.32 C
436 30-04-2007 15:15:02 24.6 C 20 % 0.17 C
437 30-04-2007 15:27:02 24.9 C 20 % 0.42 C
438 30-04-2007 15:39:02 25.6 C 20 % 1 C
439 30-04-2007 15:51:03 26 C 20 % 1.32 C
440 30-04-2007 16:03:03 26.2 C 20 % 1.49 C
441 30-04-2007 16:15:02 26.3 C 20 % 1.57 C
442 30-04-2007 16:27:02 26.8 C 20 % 1.98 C
443 30-04-2007 16:39:02 26.7 C 20 % 1.9 C
444 30-04-2007 16:51:03 26.8 C 20 % 1.98 C
445 30-04-2007 17:03:02 27.4 C 20 % 2.47 C
446 30-04-2007 17:15:02 27.1 C 20 % 2.23 C
447 30-04-2007 17:27:02 26.9 C 20 % 2.06 C
448 30-04-2007 17:39:03 27.2 C 20 % 2.31 C
449 30-04-2007 17:51:02 27.2 C 20 % 2.31 C
450 30-04-2007 18:03:03 26.7 C 20 % 1.9 C
Sensor: Nr:Datum:Temp:Feuchte:Taupunkt:
Aussen-T/F 451 30-04-2007 18:15:02 26.9 C 20 % 2.06 C
452 30-04-2007 18:27:02 26 C 20 % 1.32 C
453 30-04-2007 18:39:02 26 C 20 % 1.32 C
454 30-04-2007 18:51:02 25.8 C 20 % 1.16 C
455 30-04-2007 19:03:01 25.7 C 20 % 1.08 C
456 30-04-2007 19:15:01 24.8 C 20 % 0.34 C
457 30-04-2007 19:27:01 24.5 C 20 % 0.09 C
458 30-04-2007 19:39:02 23.7 C 20 % -0.57 C
459 30-04-2007 19:51:02 22.8 C 20 % -1.31 C
460 30-04-2007 20:03:02 22.4 C 20 % -1.64 C
461 30-04-2007 20:15:01 21 C 20 % -2.79 C
462 30-04-2007 20:27:01 20 C 20 % -3.61 C
463 30-04-2007 20:39:02 19.3 C 20 % -4.19 C
464 30-04-2007 20:51:01 18.5 C 20 % -4.85 C
465 30-04-2007 21:03:02 17.7 C 20 % -5.51 C
466 30-04-2007 21:15:02 17.4 C 20 % -5.76 C
467 30-04-2007 21:27:03 17 C 20 % -6.09 C
468 30-04-2007 21:39:01 16.5 C 21 % -5.87 C
469 30-04-2007 21:51:02 16.2 C 22 % -5.51 C
470 30-04-2007 22:03:01 15.8 C 24 % -4.7 C
471 30-04-2007 22:15:02 15.6 C 25 % -4.33 C
472 30-04-2007 22:27:02 15.2 C 26 % -4.15 C
473 30-04-2007 22:39:02 14.9 C 28 % -3.42 C
474 30-04-2007 22:51:02 14.8 C 29 % -3.04 C
475 30-04-2007 23:03:02 14.6 C 30 % -2.76 C
Sensor: Nr:Datum:Temp:Feuchte:Taupunkt:
Aussen-T/F 476 30-04-2007 23:15:02 14.4 C 31 % -2.49 C
477 30-04-2007 23:27:02 14.3 C 31 % -2.58 C
478 30-04-2007 23:39:02 14.3 C 31 % -2.58 C
479 30-04-2007 23:51:02 14.1 C 31 % -2.75 C
480 01-05-2007 00:03:02 14 C 32 % -2.41 C
481 01-05-2007 00:15:03 13.8 C 33 % -2.17 C
482 01-05-2007 00:27:03 13.5 C 34 % -2.03 C
483 01-05-2007 00:39:02 13.1 C 35 % -1.99 C
484 01-05-2007 00:51:03 12.9 C 36 % -1.79 C
485 01-05-2007 01:03:04 12.8 C 36 % -1.88 C
486 01-05-2007 01:15:03 12.7 C 36 % -1.97 C
487 01-05-2007 01:27:03 12.7 C 35 % -2.35 C
488 01-05-2007 01:39:03 12.5 C 36 % -2.14 C
489 01-05-2007 01:51:02 12.2 C 37 % -2.04 C
490 01-05-2007 02:03:02 12 C 38 % -1.86 C
491 01-05-2007 02:15:03 11.9 C 40 % -1.25 C
492 01-05-2007 02:27:03 11.8 C 40 % -1.34 C
493 01-05-2007 02:39:02 11.4 C 41 % -1.37 C
494 01-05-2007 02:52:04 11.3 C 42 % -1.13 C
495 01-05-2007 03:04:04 11 C 43 % -1.08 C
496 01-05-2007 03:16:04 10.8 C 44 % -0.95 C
497 01-05-2007 03:28:04 10.5 C 46 % -0.61 C
498 01-05-2007 03:40:02 10.3 C 46 % -0.8 C
499 01-05-2007 03:52:02 10.2 C 47 % -0.59 C
500 01-05-2007 04:04:03 10.2 C 46 % -0.89 C
Sensor: Nr:Datum:Temp:Feuchte:Taupunkt:
Aussen-T/F 501 01-05-2007 04:16:02 9.9 C 48 % -0.58 C
502 01-05-2007 04:28:02 10 C 48 % -0.49 C
503 01-05-2007 04:40:02 9.7 C 50 % -0.21 C
504 01-05-2007 04:52:03 9.5 C 50 % -0.39 C
505 01-05-2007 05:04:02 9.3 C 51 % -0.3 C
506 01-05-2007 05:16:03 9.2 C 52 % -0.13 C
507 01-05-2007 05:28:03 9 C 53 % -0.05 C
508 01-05-2007 05:40:02 8.8 C 55 % 0.27 C
509 01-05-2007 05:52:03 8.6 C 55 % 0.08 C
510 01-05-2007 06:04:03 8.4 C 57 % 0.39 C
511 01-05-2007 06:16:02 8.2 C 57 % 0.2 C
512 01-05-2007 06:28:02 8 C 58 % 0.25 C
513 01-05-2007 06:40:02 8.1 C 60 % 0.82 C
514 01-05-2007 06:52:02 8.1 C 61 % 1.05 C
515 01-05-2007 07:04:02 8.4 C 60 % 1.1 C
516 01-05-2007 07:16:02 8.6 C 59 % 1.05 C
517 01-05-2007 07:28:02 8.9 C 59 % 1.34 C
518 01-05-2007 07:40:02 9 C 58 % 1.19 C
519 01-05-2007 07:52:01 9.2 C 58 % 1.38 C
520 01-05-2007 08:04:02 9.5 C 58 % 1.66 C
521 01-05-2007 08:16:02 9.8 C 60 % 2.42 C
522 01-05-2007 08:28:02 10.3 C 56 % 1.92 C
523 01-05-2007 08:40:02 10.8 C 52 % 1.35 C
524 01-05-2007 08:52:02 11.3 C 50 % 1.27 C
525 01-05-2007 09:04:02 11.9 C 47 % 0.96 C
Sensor: Nr:Datum:Temp:Feuchte:Taupunkt:
Aussen-T/F 526 01-05-2007 09:16:02 12.4 C 45 % 0.81 C
527 01-05-2007 09:28:02 12.9 C 44 % 0.96 C
528 01-05-2007 09:40:02 13.3 C 42 % 0.68 C
529 01-05-2007 09:52:02 14 C 40 % 0.63 C
530 01-05-2007 10:04:02 14.7 C 39 % 0.91 C
531 01-05-2007 10:16:01 15.2 C 37 % 0.62 C
532 01-05-2007 10:28:01 15.7 C 36 % 0.69 C
533 01-05-2007 10:40:02 16.2 C 34 % 0.34 C
534 01-05-2007 10:52:41 16.9 C 32 % 0.12 C
535 01-05-2007 11:04:02 17.2 C 30 % -0.51 C
536 01-05-2007 11:16:01 17.2 C 30 % -0.51 C
537 01-05-2007 11:28:01 17.9 C 30 % 0.1 C
538 01-05-2007 11:40:02 18.1 C 29 % -0.19 C
539 01-05-2007 11:52:03 18.7 C 29 % 0.32 C
540 01-05-2007 12:04:02 19.1 C 27 % -0.31 C
541 01-05-2007 12:16:02 19.5 C 27 % 0.03 C
542 01-05-2007 12:28:02 19.4 C 27 % -0.06 C
543 01-05-2007 12:40:03 20.2 C 25 % -0.43 C
544 01-05-2007 12:52:03 20.5 C 20 % -3.2 C
545 01-05-2007 13:04:02 21.5 C 22 % -1.09 C
546 01-05-2007 13:16:03 22.1 C 20 % -1.88 C
547 01-05-2007 13:28:03 22.6 C 20 % -1.47 C
548 01-05-2007 13:40:03 22.6 C 20 % -1.47 C
549 01-05-2007 13:52:02 22.9 C 20 % -1.22 C
550 01-05-2007 14:04:02 22.9 C 20 % -1.22 C
Sensor: Nr:Datum:Temp:Feuchte:Taupunkt:
Aussen-T/F 551 01-05-2007 14:16:03 23.3 C 20 % -0.9 C
552 01-05-2007 14:28:03 23.6 C 20 % -0.65 C
553 01-05-2007 14:40:02 23.6 C 20 % -0.65 C
554 01-05-2007 14:52:01 23.5 C 20 % -0.73 C
555 01-05-2007 15:04:02 23.9 C 20 % -0.4 C
556 01-05-2007 15:16:02 24.8 C 20 % 0.34 C
557 01-05-2007 15:28:02 25.1 C 20 % 0.59 C
558 01-05-2007 15:40:01 25.4 C 20 % 0.83 C
559 01-05-2007 15:52:02 25 C 20 % 0.5 C
560 01-05-2007 16:04:01 25.4 C 20 % 0.83 C
561 01-05-2007 16:16:02 26 C 20 % 1.32 C
562 01-05-2007 16:28:02 25.6 C 20 % 1 C
563 01-05-2007 16:40:02 25.8 C 20 % 1.16 C
564 01-05-2007 16:52:02 25.7 C 20 % 1.08 C
565 01-05-2007 17:04:02 25.4 C 20 % 0.83 C
566 01-05-2007 17:16:02 25.8 C 20 % 1.16 C
567 01-05-2007 17:28:02 25 C 20 % 0.5 C
568 01-05-2007 17:40:02 25.3 C 20 % 0.75 C
569 01-05-2007 17:52:03 25.1 C 20 % 0.59 C
570 01-05-2007 18:04:02 25.7 C 20 % 1.08 C
571 01-05-2007 18:16:03 25.3 C 20 % 0.75 C
572 01-05-2007 18:28:03 25.2 C 20 % 0.67 C
573 01-05-2007 18:40:03 25.1 C 20 % 0.59 C
574 01-05-2007 18:52:02 25.2 C 20 % 0.67 C
575 01-05-2007 19:04:02 24.5 C 20 % 0.09 C
Sensor: Nr:Datum:Temp:Feuchte:Taupunkt:
Aussen-T/F 576 01-05-2007 19:16:02 24 C 20 % -0.32 C
577 01-05-2007 19:28:02 23.2 C 20 % -0.98 C
578 01-05-2007 19:40:02 22.2 C 20 % -1.8 C
579 01-05-2007 19:52:01 22 C 20 % -1.97 C
580 01-05-2007 20:04:02 21.1 C 20 % -2.71 C
581 01-05-2007 20:16:02 20.7 C 20 % -3.04 C
582 01-05-2007 20:28:02 19.6 C 20 % -3.94 C
583 01-05-2007 20:40:02 18.7 C 20 % -4.69 C
584 01-05-2007 20:52:02 17.8 C 20 % -5.43 C
585 01-05-2007 21:04:02 17.4 C 20 % -5.76 C
586 01-05-2007 21:16:02 17 C 20 % -6.09 C
587 01-05-2007 21:28:02 16.5 C 20 % -6.5 C
588 01-05-2007 21:40:02 16.1 C 20 % -6.84 C
589 01-05-2007 21:52:03 15.5 C 21 % -6.7 C
590 01-05-2007 22:04:02 15.4 C 22 % -6.18 C
591 01-05-2007 22:16:02 15.1 C 25 % -4.76 C
592 01-05-2007 22:28:02 14.9 C 26 % -4.41 C
593 01-05-2007 22:40:03 14.8 C 26 % -4.49 C
594 01-05-2007 22:52:02 14.4 C 26 % -4.83 C
595 01-05-2007 23:04:03 14.2 C 27 % -4.51 C
596 01-05-2007 23:16:02 13.9 C 28 % -4.28 C
597 01-05-2007 23:28:02 13.6 C 28 % -4.54 C
598 01-05-2007 23:40:02 13.3 C 29 % -4.33 C
599 01-05-2007 23:52:02 13 C 29 % -4.59 C
600 02-05-2007 00:04:01 12.5 C 30 % -4.58 C
Sensor: Nr:Datum:Temp:Feuchte:Taupunkt:
Aussen-T/F 601 02-05-2007 00:16:02 12.4 C 30 % -4.67 C
602 02-05-2007 00:28:02 12.4 C 30 % -4.67 C
603 02-05-2007 00:40:01 12.1 C 30 % -4.93 C
604 02-05-2007 00:52:03 11.9 C 31 % -4.67 C
605 02-05-2007 01:04:02 11.8 C 31 % -4.76 C
606 02-05-2007 01:16:03 11.5 C 31 % -5.02 C
607 02-05-2007 01:28:03 11.4 C 31 % -5.1 C
608 02-05-2007 01:40:03 11.2 C 32 % -4.86 C
609 02-05-2007 01:52:02 10.9 C 33 % -4.72 C
610 02-05-2007 02:04:02 10.5 C 35 % -4.29 C
611 02-05-2007 02:16:02 10.3 C 35 % -4.47 C
612 02-05-2007 02:28:02 10 C 37 % -4 C
613 02-05-2007 02:40:02 10 C 37 % -4 C
614 02-05-2007 02:53:03 9.6 C 38 % -4 C
615 02-05-2007 03:05:03 9.3 C 38 % -4.27 C
616 02-05-2007 03:17:04 9.1 C 39 % -4.1 C
617 02-05-2007 03:29:04 8.9 C 40 % -3.95 C
618 02-05-2007 03:41:02 8.8 C 39 % -4.37 C
619 02-05-2007 03:53:02 8.6 C 40 % -4.22 C
620 02-05-2007 04:05:01 8.5 C 39 % -4.64 C
621 02-05-2007 04:17:02 8.4 C 40 % -4.4 C
622 02-05-2007 04:29:02 8.2 C 40 % -4.57 C
623 02-05-2007 04:41:02 8 C 40 % -4.75 C
624 02-05-2007 04:53:02 7.7 C 42 % -4.38 C
625 02-05-2007 05:05:02 7.7 C 42 % -4.38 C
Sensor: Nr:Datum:Temp:Feuchte:Taupunkt:
Aussen-T/F 626 02-05-2007 05:17:03 7.6 C 42 % -4.47 C
627 02-05-2007 05:29:03 7.4 C 42 % -4.65 C
628 02-05-2007 05:41:02 7.1 C 42 % -4.92 C
629 02-05-2007 05:53:02 7.1 C 41 % -5.24 C
630 02-05-2007 06:05:02 7.2 C 38 % -6.14 C
631 02-05-2007 06:17:02 7.3 C 38 % -6.05 C
632 02-05-2007 06:29:02 7.1 C 39 % -5.89 C
633 02-05-2007 06:41:02 7 C 40 % -5.65 C
634 02-05-2007 06:53:03 7 C 41 % -5.33 C
635 02-05-2007 07:05:02 7 C 41 % -5.33 C
636 02-05-2007 07:17:02 7.1 C 42 % -4.92 C
637 02-05-2007 07:29:02 7.3 C 42 % -4.74 C
638 02-05-2007 07:41:02 7.5 C 41 % -4.88 C
639 02-05-2007 07:53:02 7.8 C 42 % -4.29 C
640 02-05-2007 08:05:01 7.8 C 42 % -4.29 C
641 02-05-2007 08:17:01 8.1 C 41 % -4.34 C
642 02-05-2007 08:29:01 8.5 C 41 % -3.98 C
643 02-05-2007 08:41:02 9.3 C 35 % -5.35 C
644 02-05-2007 08:53:02 9.7 C 31 % -6.59 C
645 02-05-2007 09:05:02 10.2 C 30 % -6.58 C
646 02-05-2007 09:17:02 10.8 C 29 % -6.5 C
647 02-05-2007 09:29:02 11.3 C 27 % -6.99 C
648 02-05-2007 09:41:02 11.8 C 26 % -7.05 C
649 02-05-2007 09:53:02 12.3 C 24 % -7.66 C
650 02-05-2007 10:05:02 12.8 C 21 % -8.95 C
Sensor: Nr:Datum:Temp:Feuchte:Taupunkt:
Aussen-T/F 651 02-05-2007 10:17:02 13.3 C 20 % -9.15 C
652 02-05-2007 10:29:02 13.6 C 20 % -8.91 C
653 02-05-2007 10:41:02 14.1 C 20 % -8.49 C
654 02-05-2007 10:53:03 14.5 C 20 % -8.16 C
655 02-05-2007 11:05:02 14.9 C 20 % -7.83 C
656 02-05-2007 11:17:02 15.7 C 20 % -7.17 C
657 02-05-2007 11:29:02 16.3 C 20 % -6.67 C
658 02-05-2007 11:41:02 16.7 C 20 % -6.34 C
659 02-05-2007 11:53:01 17.1 C 20 % -6.01 C
660 02-05-2007 12:05:02 17.5 C 20 % -5.68 C
661 02-05-2007 12:17:02 17.8 C 20 % -5.43 C
662 02-05-2007 12:29:02 18.2 C 20 % -5.1 C
663 02-05-2007 12:41:02 18.6 C 20 % -4.77 C
664 02-05-2007 12:53:02 19.1 C 20 % -4.36 C
665 02-05-2007 13:05:03 19.7 C 20 % -3.86 C
666 02-05-2007 13:17:02 20.3 C 20 % -3.37 C
667 02-05-2007 13:29:02 20.8 C 20 % -2.95 C
668 02-05-2007 13:41:02 21.2 C 20 % -2.62 C
669 02-05-2007 13:53:02 20.9 C 20 % -2.87 C
670 02-05-2007 14:05:01 21.2 C 20 % -2.62 C
671 02-05-2007 14:17:02 21.8 C 20 % -2.13 C
672 02-05-2007 14:29:02 22.5 C 20 % -1.55 C
673 02-05-2007 14:41:02 23 C 20 % -1.14 C
674 02-05-2007 14:53:02 23.6 C 20 % -0.65 C
675 02-05-2007 15:05:02 24.4 C 20 % 0.01 C
Sensor: Nr:Datum:Temp:Feuchte:Taupunkt:
Aussen-T/F 676 02-05-2007 15:17:02 24.7 C 20 % 0.26 C
677 02-05-2007 15:29:02 25.1 C 20 % 0.59 C
678 02-05-2007 15:41:02 24.9 C 20 % 0.42 C
679 02-05-2007 15:53:02 25.5 C 20 % 0.91 C
680 02-05-2007 16:05:02 25.7 C 20 % 1.08 C
681 02-05-2007 16:17:02 26.1 C 20 % 1.41 C
682 02-05-2007 16:29:02 26.5 C 20 % 1.74 C
683 02-05-2007 16:41:02 26.5 C 20 % 1.74 C
684 02-05-2007 16:53:03 26.5 C 20 % 1.74 C
685 02-05-2007 17:05:02 27 C 20 % 2.15 C
686 02-05-2007 17:17:02 26.9 C 20 % 2.06 C
687 02-05-2007 17:29:02 27.5 C 20 % 2.56 C
688 02-05-2007 17:41:03 27.4 C 20 % 2.47 C
689 02-05-2007 17:53:02 27.6 C 20 % 2.64 C
690 02-05-2007 18:05:02 27.5 C 20 % 2.56 C
691 02-05-2007 18:17:02 26.6 C 20 % 1.82 C
692 02-05-2007 18:29:02 26.9 C 20 % 2.06 C
693 02-05-2007 18:41:03 27 C 20 % 2.15 C
694 02-05-2007 18:53:02 27.3 C 20 % 2.39 C
695 02-05-2007 19:05:02 26.8 C 20 % 1.98 C
696 02-05-2007 19:17:01 25.9 C 20 % 1.24 C
697 02-05-2007 19:29:01 26.2 C 20 % 1.49 C
698 02-05-2007 19:41:02 25.9 C 20 % 1.24 C
699 02-05-2007 19:53:02 25.1 C 20 % 0.59 C
700 02-05-2007 20:05:02 23.7 C 20 % -0.57 C
Sensor: Nr:Datum:Temp:Feuchte:Taupunkt:
Aussen-T/F 701 02-05-2007 20:17:02 22.5 C 20 % -1.55 C
702 02-05-2007 20:29:02 21.3 C 20 % -2.54 C
703 02-05-2007 20:41:03 20.6 C 20 % -3.12 C
704 02-05-2007 20:53:02 19.7 C 20 % -3.86 C
705 02-05-2007 21:05:03 19 C 21 % -3.79 C
706 02-05-2007 21:17:02 18.3 C 22 % -3.76 C
707 02-05-2007 21:29:02 18.1 C 23 % -3.33 C
708 02-05-2007 21:41:02 17.5 C 25 % -2.72 C
709 02-05-2007 21:53:02 17.3 C 25 % -2.89 C
710 02-05-2007 22:05:01 17 C 25 % -3.14 C
711 02-05-2007 22:17:01 16.7 C 26 % -2.87 C
712 02-05-2007 22:29:01 16.2 C 27 % -2.79 C
713 02-05-2007 22:41:02 15.9 C 29 % -2.09 C
714 02-05-2007 22:53:02 15.7 C 30 % -1.8 C
715 02-05-2007 23:05:02 15.5 C 30 % -1.98 C
716 02-05-2007 23:17:02 15.4 C 30 % -2.06 C
717 02-05-2007 23:29:03 15.1 C 30 % -2.32 C
718 02-05-2007 23:41:02 15 C 31 % -1.97 C
719 02-05-2007 23:53:02 14.8 C 32 % -1.71 C
720 03-05-2007 00:05:02 14.5 C 32 % -1.98 C
721 03-05-2007 00:17:03 14.5 C 32 % -1.98 C
722 03-05-2007 00:29:03 14.6 C 32 % -1.89 C
723 03-05-2007 00:41:02 14.5 C 32 % -1.98 C
724 03-05-2007 00:53:02 14.5 C 32 % -1.98 C
725 03-05-2007 01:05:02 14.2 C 33 % -1.82 C
Sensor: Nr:Datum:Temp:Feuchte:Taupunkt:
Aussen-T/F 726 03-05-2007 01:17:03 14.1 C 33 % -1.91 C
727 03-05-2007 01:29:03 14 C 35 % -1.2 C
728 03-05-2007 01:41:02 13.7 C 36 % -1.08 C
729 03-05-2007 01:53:02 13.4 C 36 % -1.35 C
730 03-05-2007 02:05:02 13.2 C 37 % -1.15 C
731 03-05-2007 02:17:02 12.8 C 39 % -0.79 C
732 03-05-2007 02:29:02 12.5 C 40 % -0.71 C
733 03-05-2007 02:41:02 12.3 C 40 % -0.89 C
734 03-05-2007 02:54:04 12.1 C 41 % -0.74 C
735 03-05-2007 03:06:04 11.7 C 43 % -0.45 C
736 03-05-2007 03:18:04 11.5 C 43 % -0.63 C
737 03-05-2007 03:30:04 11.3 C 44 % -0.49 C
738 03-05-2007 03:42:03 11 C 45 % -0.46 C
739 03-05-2007 03:54:03 10.7 C 46 % -0.43 C
740 03-05-2007 04:06:03 10.5 C 48 % -0.03 C
741 03-05-2007 04:18:02 10.1 C 50 % 0.16 C
742 03-05-2007 04:30:02 9.8 C 51 % 0.16 C
743 03-05-2007 04:42:02 9.6 C 51 % -0.03 C
744 03-05-2007 04:54:02 9.4 C 52 % 0.06 C
745 03-05-2007 05:06:02 9.1 C 56 % 0.8 C
746 03-05-2007 05:18:02 8.8 C 55 % 0.27 C
747 03-05-2007 05:30:02 8.6 C 58 % 0.82 C
748 03-05-2007 05:42:02 8.4 C 60 % 1.1 C
749 03-05-2007 05:54:02 8.2 C 60 % 0.91 C
750 03-05-2007 06:06:01 8.1 C 60 % 0.82 C
Sensor: Nr:Datum:Temp:Feuchte:Taupunkt:
Aussen-T/F 751 03-05-2007 06:18:01 7.9 C 62 % 1.08 C
752 03-05-2007 06:30:01 7.8 C 62 % 0.99 C
753 03-05-2007 06:42:02 7.7 C 63 % 1.11 C
754 03-05-2007 06:54:02 7.8 C 62 % 0.99 C
755 03-05-2007 07:06:02 7.7 C 63 % 1.11 C
756 03-05-2007 07:18:02 7.9 C 65 % 1.74 C
757 03-05-2007 07:30:02 7.9 C 65 % 1.74 C
758 03-05-2007 07:42:02 8.1 C 65 % 1.93 C
759 03-05-2007 07:54:01 8.2 C 64 % 1.81 C
760 03-05-2007 08:06:02 8.5 C 65 % 2.31 C
761 03-05-2007 08:18:02 8.7 C 64 % 2.28 C
762 03-05-2007 08:30:02 9 C 62 % 2.12 C
763 03-05-2007 08:42:01 9.4 C 61 % 2.27 C
764 03-05-2007 08:54:02 9.7 C 61 % 2.55 C
765 03-05-2007 09:06:01 10.2 C 59 % 2.56 C
766 03-05-2007 09:18:02 11 C 58 % 3.07 C
767 03-05-2007 09:30:02 11.7 C 57 % 3.48 C
768 03-05-2007 09:42:02 12.5 C 53 % 3.19 C
769 03-05-2007 09:54:02 13.2 C 51 % 3.3 C
770 03-05-2007 10:06:02 13.8 C 46 % 2.4 C
771 03-05-2007 10:18:02 14.8 C 41 % 1.69 C
772 03-05-2007 10:30:02 15.4 C 41 % 2.23 C
773 03-05-2007 10:42:02 16.2 C 35 % 0.74 C
774 03-05-2007 10:54:01 16.9 C 32 % 0.12 C
775 03-05-2007 11:06:02 17.4 C 30 % -0.33 C
Sensor: Nr:Datum:Temp:Feuchte:Taupunkt:
Aussen-T/F 776 03-05-2007 11:18:02 18.1 C 27 % -1.17 C
777 03-05-2007 11:30:02 18.3 C 20 % -5.02 C
778 03-05-2007 11:42:01 18.7 C 20 % -4.69 C
779 03-05-2007 11:54:01 19.4 C 20 % -4.11 C
780 03-05-2007 12:06:02 19.5 C 20 % -4.03 C
781 03-05-2007 12:18:02 20 C 20 % -3.61 C
782 03-05-2007 12:30:02 20.3 C 20 % -3.37 C
783 03-05-2007 12:42:02 20.6 C 20 % -3.12 C
784 03-05-2007 12:54:02 21.1 C 20 % -2.71 C
785 03-05-2007 13:06:02 21.6 C 20 % -2.3 C
786 03-05-2007 13:18:02 22.9 C 20 % -1.22 C
787 03-05-2007 13:30:02 23.1 C 20 % -1.06 C
788 03-05-2007 13:42:02 22.6 C 20 % -1.47 C
789 03-05-2007 13:54:03 22.4 C 20 % -1.64 C
790 03-05-2007 14:06:02 23 C 20 % -1.14 C
791 03-05-2007 14:18:02 23.6 C 20 % -0.65 C
792 03-05-2007 14:30:02 24.1 C 20 % -0.24 C
793 03-05-2007 14:42:02 24.3 C 20 % -0.07 C
794 03-05-2007 14:54:02 25.2 C 20 % 0.67 C
795 03-05-2007 15:06:02 24.5 C 20 % 0.09 C
796 03-05-2007 15:18:02 24.7 C 20 % 0.26 C
797 03-05-2007 15:30:02 26 C 20 % 1.32 C
798 03-05-2007 15:42:02 26.3 C 20 % 1.57 C
799 03-05-2007 15:54:01 26.5 C 20 % 1.74 C
800 03-05-2007 16:06:02 27 C 20 % 2.15 C
Sensor: Nr:Datum:Temp:Feuchte:Taupunkt:
Aussen-T/F 801 03-05-2007 16:18:02 26.1 C 20 % 1.41 C
802 03-05-2007 16:30:02 26.8 C 20 % 1.98 C
803 03-05-2007 16:42:01 27.5 C 20 % 2.56 C
804 03-05-2007 16:54:02 28 C 20 % 2.97 C
805 03-05-2007 17:06:02 27.6 C 20 % 2.64 C
806 03-05-2007 17:18:02 28.3 C 20 % 3.21 C
807 03-05-2007 17:30:02 28.4 C 20 % 3.29 C
808 03-05-2007 17:42:02 29 C 20 % 3.79 C
809 03-05-2007 17:54:02 29.4 C 20 % 4.11 C
810 03-05-2007 18:06:02 28.4 C 20 % 3.29 C
811 03-05-2007 18:18:02 28.1 C 20 % 3.05 C
812 03-05-2007 18:30:02 28.4 C 20 % 3.29 C
813 03-05-2007 18:42:02 28.5 C 20 % 3.38 C
814 03-05-2007 18:54:02 28.5 C 20 % 3.38 C
815 03-05-2007 19:06:02 26.2 C 20 % 1.49 C
816 03-05-2007 19:18:02 24.9 C 20 % 0.42 C
817 03-05-2007 19:30:02 24.1 C 20 % -0.24 C
818 03-05-2007 19:42:02 23.6 C 20 % -0.65 C
819 03-05-2007 19:54:02 23 C 20 % -1.14 C
820 03-05-2007 20:06:02 22.5 C 20 % -1.55 C
821 03-05-2007 20:18:02 22 C 20 % -1.97 C
822 03-05-2007 20:30:02 21.7 C 21 % -1.55 C
823 03-05-2007 20:42:03 21.1 C 22 % -1.42 C
824 03-05-2007 20:54:02 20.4 C 24 % -0.82 C
825 03-05-2007 21:06:02 19.9 C 25 % -0.69 C
Sensor: Nr:Datum:Temp:Feuchte:Taupunkt:
Aussen-T/F 826 03-05-2007 21:18:02 19.4 C 25 % -1.11 C
827 03-05-2007 21:30:02 19.3 C 25 % -1.19 C
828 03-05-2007 21:42:02 19 C 26 % -0.92 C
829 03-05-2007 21:54:02 18.6 C 27 % -0.74 C
830 03-05-2007 22:06:03 18.1 C 28 % -0.67 C
831 03-05-2007 22:18:02 17.7 C 30 % -0.07 C
832 03-05-2007 22:30:02 17.4 C 30 % -0.33 C
833 03-05-2007 22:42:02 17.3 C 31 % 0.03 C
834 03-05-2007 22:54:03 17 C 31 % -0.23 C
835 03-05-2007 23:06:02 16.6 C 33 % 0.28 C
836 03-05-2007 23:18:02 16.4 C 33 % 0.11 C
837 03-05-2007 23:30:02 16.3 C 35 % 0.83 C
838 03-05-2007 23:42:03 16.2 C 35 % 0.74 C
839 03-05-2007 23:54:02 16 C 35 % 0.56 C
840 04-05-2007 00:06:02 16 C 37 % 1.33 C
841 04-05-2007 00:18:02 15.8 C 38 % 1.53 C
842 04-05-2007 00:30:02 15.6 C 39 % 1.71 C
843 04-05-2007 00:42:02 15.2 C 41 % 2.05 C
844 04-05-2007 00:54:03 14.5 C 43 % 2.09 C
845 04-05-2007 01:06:03 14.6 C 41 % 1.51 C
846 04-05-2007 01:18:02 14.5 C 41 % 1.42 C
847 04-05-2007 01:30:02 14.5 C 41 % 1.42 C
848 04-05-2007 01:42:02 14.4 C 41 % 1.33 C
849 04-05-2007 01:54:02 14.2 C 42 % 1.49 C
850 04-05-2007 02:06:03 14 C 43 % 1.63 C
Sensor: Nr:Datum:Temp:Feuchte:Taupunkt:
Aussen-T/F 851 04-05-2007 02:18:03 13.6 C 45 % 1.91 C
852 04-05-2007 02:30:03 13.5 C 44 % 1.5 C
853 04-05-2007 02:42:03 13.4 C 44 % 1.41 C
854 04-05-2007 02:54:01 13.1 C 45 % 1.45 C
855 04-05-2007 03:06:01 12.9 C 47 % 1.87 C
856 04-05-2007 03:18:02 12.3 C 52 % 2.74 C
857 04-05-2007 03:30:02 11.9 C 55 % 3.16 C
858 04-05-2007 03:42:02 11.8 C 54 % 2.81 C
859 04-05-2007 03:54:02 11.6 C 54 % 2.62 C
860 04-05-2007 04:06:01 11.5 C 54 % 2.53 C
861 04-05-2007 04:18:02 11.3 C 55 % 2.6 C
862 04-05-2007 04:30:02 11.3 C 55 % 2.6 C
863 04-05-2007 04:42:02 11.5 C 55 % 2.79 C
864 04-05-2007 04:54:02 11.7 C 55 % 2.97 C
865 04-05-2007 05:06:02 11.5 C 56 % 3.04 C
866 04-05-2007 05:18:02 11.2 C 56 % 2.76 C
867 04-05-2007 05:30:02 11 C 58 % 3.07 C
868 04-05-2007 05:42:02 10.9 C 59 % 3.21 C
869 04-05-2007 05:54:01 10.9 C 59 % 3.21 C
870 04-05-2007 06:06:01 11 C 58 % 3.07 C
871 04-05-2007 06:18:02 11 C 59 % 3.31 C
872 04-05-2007 06:30:02 11.3 C 58 % 3.35 C
873 04-05-2007 06:42:01 11.1 C 60 % 3.64 C
874 04-05-2007 06:54:02 11.5 C 59 % 3.78 C
875 04-05-2007 07:06:01 11.7 C 60 % 4.2 C
Sensor: Nr:Datum:Temp:Feuchte:Taupunkt:
Aussen-T/F 876 04-05-2007 07:18:01 11.9 C 59 % 4.15 C
877 04-05-2007 07:30:01 11.9 C 59 % 4.15 C
878 04-05-2007 07:42:02 12.2 C 58 % 4.19 C
879 04-05-2007 07:54:01 12.6 C 57 % 4.32 C
880 04-05-2007 08:06:02 12.4 C 57 % 4.13 C
881 04-05-2007 08:18:01 12.8 C 56 % 4.25 C
882 04-05-2007 08:30:02 13 C 55 % 4.18 C
883 04-05-2007 08:42:01 13 C 56 % 4.44 C
884 04-05-2007 08:54:01 13.1 C 59 % 5.28 C
885 04-05-2007 09:06:01 13.3 C 59 % 5.47 C
886 04-05-2007 09:18:02 13.9 C 57 % 5.53 C
887 04-05-2007 09:30:02 14.4 C 53 % 4.95 C
888 04-05-2007 09:42:01 15.2 C 46 % 3.67 C
889 04-05-2007 09:54:02 15.7 C 43 % 3.17 C
890 04-05-2007 10:06:01 16.3 C 40 % 2.69 C
891 04-05-2007 10:18:01 16.8 C 40 % 3.14 C
892 04-05-2007 10:30:01 17.4 C 38 % 2.95 C
893 04-05-2007 10:42:02 18 C 37 % 3.11 C
894 04-05-2007 10:54:01 18.1 C 37 % 3.2 C
895 04-05-2007 11:06:02 19 C 35 % 3.21 C
896 04-05-2007 11:18:01 18.9 C 35 % 3.12 C
897 04-05-2007 11:30:01 19.5 C 34 % 3.24 C
898 04-05-2007 11:42:01 20.1 C 32 % 2.91 C
899 04-05-2007 11:54:01 20.4 C 31 % 2.72 C
900 04-05-2007 12:06:01 20.9 C 30 % 2.69 C
Sensor: Nr:Datum:Temp:Feuchte:Taupunkt:
Aussen-T/F 901 04-05-2007 12:18:02 21.3 C 29 % 2.56 C
902 04-05-2007 12:30:02 22.4 C 26 % 1.97 C
903 04-05-2007 12:42:01 23 C 21 % -0.48 C
904 04-05-2007 12:54:02 24.1 C 20 % -0.24 C
905 04-05-2007 13:06:01 24.5 C 20 % 0.09 C
906 04-05-2007 13:18:01 25.4 C 20 % 0.83 C
907 04-05-2007 13:30:01 25.6 C 20 % 1 C
908 04-05-2007 13:42:02 25.6 C 20 % 1 C
909 04-05-2007 13:54:01 25.7 C 20 % 1.08 C
910 04-05-2007 14:06:02 25.7 C 20 % 1.08 C
911 04-05-2007 14:18:01 25.9 C 20 % 1.24 C
912 04-05-2007 14:30:01 26.1 C 20 % 1.41 C
913 04-05-2007 14:42:01 26.5 C 20 % 1.74 C
914 04-05-2007 14:54:01 26.9 C 20 % 2.06 C
915 04-05-2007 15:06:01 27.2 C 20 % 2.31 C
916 04-05-2007 15:18:02 26.5 C 20 % 1.74 C
917 04-05-2007 15:30:02 26.4 C 20 % 1.65 C
918 04-05-2007 15:42:02 27.7 C 20 % 2.72 C
919 04-05-2007 15:54:02 27.4 C 20 % 2.47 C
920 04-05-2007 16:06:02 26.6 C 20 % 1.82 C
921 04-05-2007 16:18:01 26.2 C 20 % 1.49 C
922 04-05-2007 16:30:01 26.5 C 20 % 1.74 C
923 04-05-2007 16:42:02 27.3 C 20 % 2.39 C
924 04-05-2007 16:54:01 28.5 C 20 % 3.38 C
925 04-05-2007 17:06:02 28.2 C 20 % 3.13 C
Sensor: Nr:Datum:Temp:Feuchte:Taupunkt:
Aussen-T/F 926 04-05-2007 17:18:01 27.7 C 20 % 2.72 C
927 04-05-2007 17:30:02 27.3 C 20 % 2.39 C
928 04-05-2007 17:42:01 28.2 C 20 % 3.13 C
929 04-05-2007 17:54:01 28.7 C 20 % 3.54 C
930 04-05-2007 18:06:01 28.8 C 20 % 3.62 C
931 04-05-2007 18:18:02 28.8 C 20 % 3.62 C
932 04-05-2007 18:30:02 29.1 C 20 % 3.87 C
933 04-05-2007 18:42:01 27.1 C 20 % 2.23 C
934 04-05-2007 18:54:02 26.4 C 20 % 1.65 C
935 04-05-2007 19:06:03 25.8 C 20 % 1.16 C
936 04-05-2007 19:18:01 25 C 20 % 0.5 C
937 04-05-2007 19:30:01 24.8 C 20 % 0.34 C
938 04-05-2007 19:42:01 24.1 C 20 % -0.24 C
939 04-05-2007 19:54:02 23.3 C 20 % -0.9 C
940 04-05-2007 20:06:01 19.2 C 25 % -1.28 C
941 04-05-2007 20:18:01 18.2 C 51 % 7.91 C
942 04-05-2007 20:30:01 18.4 C 50 % 7.8 C
943 04-05-2007 20:42:02 18.7 C 44 % 6.21 C
944 04-05-2007 20:54:01 19 C 40 % 5.11 C
945 04-05-2007 21:06:02 19.2 C 37 % 4.17 C
946 04-05-2007 21:18:01 19.6 C 35 % 3.74 C
947 04-05-2007 21:30:01 19.9 C 33 % 3.17 C
948 04-05-2007 21:42:01 19.9 C 31 % 2.29 C
949 04-05-2007 21:54:01 19.9 C 31 % 2.29 C
950 04-05-2007 22:06:01 19.9 C 30 % 1.83 C
Sensor: Nr:Datum:Temp:Feuchte:Taupunkt:
Aussen-T/F 951 04-05-2007 22:18:02 20.1 C 29 % 1.53 C
952 04-05-2007 22:30:02 20.1 C 28 % 1.04 C
953 04-05-2007 22:42:01 20.1 C 29 % 1.53 C
954 04-05-2007 22:54:02 20.4 C 28 % 1.3 C
955 04-05-2007 23:06:01 19.8 C 30 % 1.74 C
956 04-05-2007 23:18:01 19.5 C 30 % 1.48 C
957 04-05-2007 23:30:01 19.4 C 31 % 1.85 C
958 04-05-2007 23:42:02 19.1 C 31 % 1.59 C
959 04-05-2007 23:54:01 18.9 C 32 % 1.86 C
960 05-05-2007 00:06:02 18.8 C 31 % 1.33 C
961 05-05-2007 00:18:02 18.7 C 32 % 1.69 C
962 05-05-2007 00:30:02 18.4 C 31 % 0.99 C
963 05-05-2007 00:42:01 18.2 C 31 % 0.81 C
964 05-05-2007 00:54:01 18 C 31 % 0.64 C
965 05-05-2007 01:06:02 17.9 C 32 % 0.99 C
966 05-05-2007 01:18:02 17.6 C 33 % 1.16 C
967 05-05-2007 01:30:02 17.3 C 33 % 0.89 C
968 05-05-2007 01:42:02 17.1 C 33 % 0.72 C
969 05-05-2007 01:54:02 17 C 33 % 0.63 C
970 05-05-2007 02:06:02 17 C 33 % 0.63 C
971 05-05-2007 02:18:01 17 C 33 % 0.63 C
972 05-05-2007 02:30:02 17.1 C 32 % 0.29 C
973 05-05-2007 02:42:02 17.1 C 32 % 0.29 C
974 05-05-2007 02:55:05 17.1 C 32 % 0.29 C
975 05-05-2007 03:07:05 16.9 C 32 % 0.12 C
Sensor: Nr:Datum:Temp:Feuchte:Taupunkt:
Aussen-T/F 976 05-05-2007 03:19:05 16.8 C 32 % 0.03 C
977 05-05-2007 03:31:03 16.6 C 32 % -0.14 C
978 05-05-2007 03:43:03 16.6 C 31 % -0.58 C
979 05-05-2007 03:55:03 16.4 C 30 % -1.2 C
980 05-05-2007 04:07:03 16.4 C 31 % -0.75 C
981 05-05-2007 04:19:02 16.4 C 31 % -0.75 C
982 05-05-2007 04:31:02 16.2 C 30 % -1.37 C
983 05-05-2007 04:43:03 16 C 31 % -1.1 C
984 05-05-2007 04:55:01 15.8 C 31 % -1.27 C
985 05-05-2007 05:07:03 15.7 C 31 % -1.36 C
986 05-05-2007 05:19:02 15.3 C 33 % -0.86 C
987 05-05-2007 05:31:02 15 C 34 % -0.71 C
988 05-05-2007 05:43:02 14.8 C 35 % -0.49 C
989 05-05-2007 05:55:02 14.8 C 35 % -0.49 C
990 05-05-2007 06:07:03 14.5 C 35 % -0.76 C
991 05-05-2007 06:19:02 14.2 C 37 % -0.26 C
992 05-05-2007 06:31:02 14.3 C 37 % -0.17 C
993 05-05-2007 06:43:02 14.4 C 37 % -0.09 C
994 05-05-2007 06:55:02 14.4 C 38 % 0.28 C
995 05-05-2007 07:07:02 14.4 C 39 % 0.64 C
996 05-05-2007 07:19:03 14.4 C 40 % 0.99 C
997 05-05-2007 07:31:02 14.5 C 41 % 1.42 C
998 05-05-2007 07:43:02 14.7 C 42 % 1.94 C
999 05-05-2007 07:55:02 14.6 C 42 % 1.85 C
1000 05-05-2007 08:07:02 14.8 C 43 % 2.36 C
Sensor: Nr:Datum:Temp:Feuchte:Taupunkt:
Aussen-T/F 1001 05-05-2007 08:19:01 14.8 C 43 % 2.36 C
1002 05-05-2007 08:31:02 15.1 C 43 % 2.63 C
1003 05-05-2007 08:43:02 15.6 C 44 % 3.4 C
1004 05-05-2007 08:55:02 15.7 C 42 % 2.84 C
1005 05-05-2007 09:07:01 16 C 41 % 2.77 C
1006 05-05-2007 09:19:01 15.5 C 42 % 2.66 C
1007 05-05-2007 09:31:02 15.8 C 42 % 2.93 C
1008 05-05-2007 09:43:02 16.1 C 42 % 3.2 C
1009 05-05-2007 09:55:02 16.5 C 40 % 2.87 C
1010 05-05-2007 10:07:02 16.7 C 39 % 2.69 C
1011 05-05-2007 10:19:02 17.2 C 39 % 3.14 C
1012 05-05-2007 10:31:01 18.1 C 36 % 2.81 C
1013 05-05-2007 10:43:01 18.3 C 36 % 2.99 C
1014 05-05-2007 10:55:02 19 C 34 % 2.8 C
1015 05-05-2007 11:07:03 19.3 C 33 % 2.64 C
1016 05-05-2007 11:19:02 19.3 C 33 % 2.64 C
1017 05-05-2007 11:31:02 19.9 C 31 % 2.29 C
1018 05-05-2007 11:43:02 20 C 33 % 3.26 C
1019 05-05-2007 11:55:02 19.6 C 35 % 3.74 C
1020 05-05-2007 12:07:02 19.8 C 35 % 3.91 C
1021 05-05-2007 12:19:03 19.7 C 36 % 4.23 C
1022 05-05-2007 12:31:02 19.8 C 36 % 4.31 C
1023 05-05-2007 12:43:02 19.8 C 37 % 4.7 C
1024 05-05-2007 12:55:02 20 C 35 % 4.09 C
1025 05-05-2007 13:07:02 19.6 C 35 % 3.74 C
Sensor: Nr:Datum:Temp:Feuchte:Taupunkt:
Aussen-T/F 1026 05-05-2007 13:19:01 19.4 C 35 % 3.56 C
1027 05-05-2007 13:31:02 20.9 C 34 % 4.47 C
1028 05-05-2007 13:43:02 21 C 31 % 3.24 C
1029 05-05-2007 13:55:02 21.7 C 31 % 3.85 C
1030 05-05-2007 14:07:03 22.7 C 30 % 4.25 C
1031 05-05-2007 14:19:02 22.6 C 30 % 4.16 C
1032 05-05-2007 14:31:03 22.4 C 30 % 3.99 C
1033 05-05-2007 14:43:03 22.2 C 29 % 3.34 C
1034 05-05-2007 14:55:02 22.6 C 29 % 3.68 C
1035 05-05-2007 15:07:03 22.8 C 28 % 3.36 C
1036 05-05-2007 15:19:02 23 C 28 % 3.53 C
1037 05-05-2007 15:31:02 22 C 32 % 4.56 C
1038 05-05-2007 15:43:02 21.9 C 35 % 5.76 C
1039 05-05-2007 15:55:02 21.7 C 34 % 5.17 C
1040 05-05-2007 16:07:02 21.2 C 36 % 5.55 C
1041 05-05-2007 16:19:03 21.5 C 35 % 5.41 C
1042 05-05-2007 16:31:02 21.1 C 33 % 4.22 C
1043 05-05-2007 16:43:02 21.3 C 35 % 5.23 C
1044 05-05-2007 16:55:02 21 C 38 % 6.15 C
1045 05-05-2007 17:07:02 18.7 C 49 % 7.78 C
1046 05-05-2007 17:19:01 19.3 C 44 % 6.75 C
1047 05-05-2007 17:31:02 17.9 C 54 % 8.47 C
1048 05-05-2007 17:43:02 18.4 C 48 % 7.2 C
1049 05-05-2007 17:55:01 19.2 C 46 % 7.31 C
1050 05-05-2007 18:07:02 19.6 C 46 % 7.67 C
Sensor: Nr:Datum:Temp:Feuchte:Taupunkt:
Aussen-T/F 1051 05-05-2007 18:19:01 20.1 C 44 % 7.48 C
1052 05-05-2007 18:31:02 21 C 42 % 7.61 C
1053 05-05-2007 18:43:02 18.4 C 60 % 10.5 C
1054 05-05-2007 18:55:02 18.1 C 61 % 10.47 C
1055 05-05-2007 19:07:03 18.3 C 59 % 10.16 C
1056 05-05-2007 19:19:02 18.8 C 59 % 10.63 C
1057 05-05-2007 19:31:02 19.6 C 55 % 10.32 C
1058 05-05-2007 19:43:02 20 C 55 % 10.69 C
1059 05-05-2007 19:55:02 19.6 C 55 % 10.32 C
1060 05-05-2007 20:07:01 19.5 C 56 % 10.5 C
1061 05-05-2007 20:19:01 19.1 C 54 % 9.58 C
1062 05-05-2007 20:31:02 18.3 C 57 % 9.64 C
1063 05-05-2007 20:43:02 17.5 C 54 % 8.1 C
1064 05-05-2007 20:55:02 16.9 C 55 % 7.81 C
1065 05-05-2007 21:07:02 16.4 C 54 % 7.08 C
1066 05-05-2007 21:19:02 15.9 C 55 % 6.88 C
1067 05-05-2007 21:31:02 15.5 C 56 % 6.77 C
1068 05-05-2007 21:43:02 15.1 C 58 % 6.91 C
1069 05-05-2007 21:55:02 14.8 C 59 % 6.87 C
1070 05-05-2007 22:07:02 14.4 C 61 % 6.98 C
1071 05-05-2007 22:19:02 14.1 C 61 % 6.7 C
1072 05-05-2007 22:31:02 13.9 C 65 % 7.44 C
1073 05-05-2007 22:43:02 13.6 C 67 % 7.6 C
1074 05-05-2007 22:55:02 13.3 C 66 % 7.09 C
1075 05-05-2007 23:07:02 13.1 C 66 % 6.9 C
Sensor: Nr:Datum:Temp:Feuchte:Taupunkt:
Aussen-T/F 1076 05-05-2007 23:19:03 12.8 C 67 % 6.83 C
1077 05-05-2007 23:31:02 12.6 C 69 % 7.07 C
1078 05-05-2007 23:43:03 12.4 C 70 % 7.09 C
1079 05-05-2007 23:55:02 12.1 C 72 % 7.21 C
1080 06-05-2007 00:07:02 12 C 72 % 7.12 C
1081 06-05-2007 00:19:02 11.8 C 74 % 7.32 C
1082 06-05-2007 00:31:02 11.5 C 73 % 6.84 C
1083 06-05-2007 00:43:02 11.2 C 72 % 6.35 C
1084 06-05-2007 00:55:03 11.1 C 73 % 6.45 C
1085 06-05-2007 01:07:02 11 C 73 % 6.35 C
1086 06-05-2007 01:19:02 10.7 C 74 % 6.26 C
1087 06-05-2007 01:31:02 10.4 C 74 % 5.97 C
1088 06-05-2007 01:43:02 10.3 C 74 % 5.88 C
1089 06-05-2007 01:55:02 10.2 C 74 % 5.78 C
1090 06-05-2007 02:07:03 10 C 75 % 5.78 C
1091 06-05-2007 02:19:02 9.6 C 77 % 5.77 C
1092 06-05-2007 02:31:02 9.5 C 78 % 5.86 C
1093 06-05-2007 02:43:02 9.3 C 78 % 5.67 C
1094 06-05-2007 02:55:02 9.2 C 78 % 5.57 C
1095 06-05-2007 03:07:02 9 C 79 % 5.56 C
1096 06-05-2007 03:19:01 8.9 C 81 % 5.82 C
1097 06-05-2007 03:31:01 8.7 C 82 % 5.8 C
1098 06-05-2007 03:43:01 8.6 C 82 % 5.71 C
1099 06-05-2007 03:55:01 8.5 C 82 % 5.61 C
1100 06-05-2007 04:07:02 8.4 C 83 % 5.69 C
Sensor: Nr:Datum:Temp:Feuchte:Taupunkt:
Aussen-T/F 1101 06-05-2007 04:19:02 8.2 C 82 % 5.32 C
1102 06-05-2007 04:31:01 8.3 C 83 % 5.59 C
1103 06-05-2007 04:43:01 8.3 C 83 % 5.59 C
1104 06-05-2007 04:55:01 8.1 C 84 % 5.56 C
1105 06-05-2007 05:07:01 8.1 C 84 % 5.56 C
1106 06-05-2007 05:19:02 7.9 C 85 % 5.54 C
1107 06-05-2007 05:31:02 7.8 C 85 % 5.44 C
1108 06-05-2007 05:43:02 7.6 C 85 % 5.24 C
1109 06-05-2007 05:55:02 7.7 C 86 % 5.51 C
1110 06-05-2007 06:07:01 7.6 C 87 % 5.58 C
1111 06-05-2007 06:19:01 7.8 C 87 % 5.78 C
1112 06-05-2007 06:31:02 7.7 C 87 % 5.68 C
1113 06-05-2007 06:43:02 7.8 C 87 % 5.78 C
1114 06-05-2007 06:55:01 8.1 C 87 % 6.07 C
1115 06-05-2007 07:07:02 8.7 C 87 % 6.66 C
1116 06-05-2007 07:19:01 9 C 85 % 6.62 C
1117 06-05-2007 07:31:02 9 C 84 % 6.45 C
1118 06-05-2007 07:43:02 9.5 C 84 % 6.94 C
1119 06-05-2007 07:55:01 9.7 C 83 % 6.96 C
1120 06-05-2007 08:07:01 10.4 C 81 % 7.28 C
1121 06-05-2007 08:19:02 11.1 C 76 % 7.04 C
1122 06-05-2007 08:31:01 11.5 C 75 % 7.23 C
1123 06-05-2007 08:43:01 11.8 C 73 % 7.12 C
1124 06-05-2007 08:55:02 11.6 C 73 % 6.93 C
1125 06-05-2007 09:07:01 11.7 C 73 % 7.03 C
Sensor: Nr:Datum:Temp:Feuchte:Taupunkt:
Aussen-T/F 1126 06-05-2007 09:19:01 12.2 C 71 % 7.1 C
1127 06-05-2007 09:31:02 12.5 C 70 % 7.18 C
1128 06-05-2007 09:43:02 12.5 C 69 % 6.97 C
1129 06-05-2007 09:55:01 12.8 C 69 % 7.26 C
1130 06-05-2007 10:07:02 13 C 67 % 7.02 C
1131 06-05-2007 10:19:01 13.4 C 66 % 7.19 C
1132 06-05-2007 10:31:01 13.7 C 65 % 7.25 C
1133 06-05-2007 10:43:01 14.3 C 63 % 7.36 C
1134 06-05-2007 10:55:01 14.9 C 60 % 7.21 C
1135 06-05-2007 11:07:01 15.6 C 57 % 7.12 C
1136 06-05-2007 11:19:02 15.7 C 55 % 6.69 C
1137 06-05-2007 11:31:01 16.3 C 54 % 6.98 C
1138 06-05-2007 11:43:02 17 C 51 % 6.8 C
1139 06-05-2007 11:55:02 17.9 C 51 % 7.63 C
1140 06-05-2007 12:07:01 18 C 46 % 6.22 C
1141 06-05-2007 12:19:01 18.6 C 46 % 6.77 C
1142 06-05-2007 12:31:02 19.6 C 43 % 6.69 C
1143 06-05-2007 12:43:02 20.7 C 41 % 6.99 C
1144 06-05-2007 12:55:01 20.7 C 39 % 6.26 C
1145 06-05-2007 13:07:02 20.8 C 37 % 5.59 C
1146 06-05-2007 13:19:01 21.7 C 34 % 5.17 C
1147 06-05-2007 13:31:01 22.7 C 30 % 4.25 C
1148 06-05-2007 13:43:01 23.6 C 27 % 3.53 C
1149 06-05-2007 13:55:01 23.1 C 26 % 2.57 C
1150 06-05-2007 14:07:01 23.1 C 28 % 3.61 C
Sensor: Nr:Datum:Temp:Feuchte:Taupunkt:
Aussen-T/F 1151 06-05-2007 14:19:02 23.7 C 26 % 3.08 C
1152 06-05-2007 14:31:01 24.6 C 24 % 2.71 C
1153 06-05-2007 14:43:01 25 C 22 % 1.83 C
1154 06-05-2007 14:55:02 25.9 C 20 % 1.24 C
1155 06-05-2007 15:07:01 26.2 C 20 % 1.49 C
1156 06-05-2007 15:19:01 26.5 C 20 % 1.74 C
1157 06-05-2007 15:31:02 27.3 C 20 % 2.39 C
1158 06-05-2007 15:43:02 27.9 C 20 % 2.88 C
1159 06-05-2007 15:55:01 27.2 C 20 % 2.31 C
1160 06-05-2007 16:07:02 28.1 C 20 % 3.05 C
1161 06-05-2007 16:19:02 28.6 C 20 % 3.46 C
1162 06-05-2007 16:31:02 27.3 C 20 % 2.39 C
1163 06-05-2007 16:43:02 27.3 C 20 % 2.39 C
1164 06-05-2007 16:55:01 27.1 C 20 % 2.23 C
1165 06-05-2007 17:07:02 26.2 C 20 % 1.49 C
1166 06-05-2007 17:19:01 26 C 20 % 1.32 C
1167 06-05-2007 17:31:01 25.4 C 20 % 0.83 C
1168 06-05-2007 17:43:01 25.6 C 20 % 1 C
1169 06-05-2007 17:55:01 25.4 C 20 % 0.83 C
1170 06-05-2007 18:07:01 24.5 C 22 % 1.41 C
1171 06-05-2007 18:19:02 24.2 C 24 % 2.37 C
1172 06-05-2007 18:31:01 23.6 C 25 % 2.44 C
1173 06-05-2007 18:43:01 23.1 C 27 % 3.1 C
1174 06-05-2007 18:55:02 23.4 C 27 % 3.35 C
1175 06-05-2007 19:07:01 23.3 C 28 % 3.78 C
Sensor: Nr:Datum:Temp:Feuchte:Taupunkt:
Aussen-T/F 1176 06-05-2007 19:19:01 22.7 C 30 % 4.25 C
1177 06-05-2007 19:31:49 22.1 C 30 % 3.73 C
1178 06-05-2007 19:43:01 21.9 C 32 % 4.48 C
1179 06-05-2007 19:55:01 21.3 C 32 % 3.95 C
1180 06-05-2007 20:07:01 21.1 C 32 % 3.78 C
1181 06-05-2007 20:19:02 21 C 32 % 3.69 C
1182 06-05-2007 20:31:01 20.6 C 33 % 3.78 C
1183 06-05-2007 20:43:01 20.3 C 33 % 3.52 C
1184 06-05-2007 20:55:02 20 C 34 % 3.68 C
1185 06-05-2007 21:07:01 19.8 C 34 % 3.5 C
1186 06-05-2007 21:19:01 19.6 C 35 % 3.74 C
1187 06-05-2007 21:31:02 19.4 C 34 % 3.15 C
1188 06-05-2007 21:43:02 19.3 C 34 % 3.06 C
1189 06-05-2007 21:55:01 19.2 C 35 % 3.38 C
1190 06-05-2007 22:07:02 19 C 35 % 3.21 C
1191 06-05-2007 22:19:01 18.8 C 36 % 3.43 C
1192 06-05-2007 22:31:02 18.7 C 37 % 3.73 C
1193 06-05-2007 22:43:02 18.5 C 37 % 3.55 C
1194 06-05-2007 22:55:01 18 C 38 % 3.49 C
1195 06-05-2007 23:07:01 17.6 C 42 % 4.55 C
1196 06-05-2007 23:19:02 17.4 C 41 % 4.03 C
1197 06-05-2007 23:31:01 17.4 C 39 % 3.32 C
1198 06-05-2007 23:43:01 17.5 C 38 % 3.04 C
1199 06-05-2007 23:55:02 17.5 C 38 % 3.04 C
1200 07-05-2007 00:07:01 17.5 C 35 % 1.89 C
Sensor: Nr:Datum:Temp:Feuchte:Taupunkt:
Aussen-T/F 1201 07-05-2007 00:19:02 17.4 C 34 % 1.4 C
1202 07-05-2007 00:31:02 17.2 C 35 % 1.62 C
1203 07-05-2007 00:43:02 16.8 C 37 % 2.04 C
1204 07-05-2007 00:55:02 16.6 C 37 % 1.87 C
1205 07-05-2007 01:07:02 16.4 C 37 % 1.69 C
1206 07-05-2007 01:19:01 16.4 C 38 % 2.06 C
1207 07-05-2007 01:31:01 16.4 C 39 % 2.43 C
1208 07-05-2007 01:43:01 16.2 C 41 % 2.95 C
1209 07-05-2007 01:55:02 16 C 45 % 4.09 C
1210 07-05-2007 02:07:01 15.9 C 45 % 4 C
1211 07-05-2007 02:19:01 16 C 44 % 3.77 C
1212 07-05-2007 02:31:01 16 C 45 % 4.09 C
1213 07-05-2007 02:43:02 16 C 45 % 4.09 C
1214 07-05-2007 02:56:04 15.8 C 48 % 4.82 C
1215 07-05-2007 03:08:04 15.9 C 49 % 5.21 C
1216 07-05-2007 03:20:04 16 C 49 % 5.3 C
1217 07-05-2007 03:32:02 16 C 50 % 5.59 C
1218 07-05-2007 03:44:02 15.9 C 51 % 5.79 C
1219 07-05-2007 03:56:02 15.8 C 50 % 5.41 C
1220 07-05-2007 04:08:03 15.6 C 52 % 5.79 C
1221 07-05-2007 04:20:03 15.6 C 52 % 5.79 C
1222 07-05-2007 04:32:02 15.6 C 53 % 6.06 C
1223 07-05-2007 04:44:02 15.5 C 54 % 6.24 C
1224 07-05-2007 04:56:03 15.4 C 54 % 6.15 C
1225 07-05-2007 05:08:02 15.5 C 53 % 5.97 C
Sensor: Nr:Datum:Temp:Feuchte:Taupunkt:
Aussen-T/F 1226 07-05-2007 05:20:02 15.5 C 53 % 5.97 C
1227 07-05-2007 05:32:02 15.4 C 55 % 6.42 C
1228 07-05-2007 05:44:02 15 C 57 % 6.56 C
1229 07-05-2007 05:56:02 14.9 C 58 % 6.72 C
1230 07-05-2007 06:08:02 14.7 C 58 % 6.53 C
1231 07-05-2007 06:20:01 14.7 C 57 % 6.28 C
1232 07-05-2007 06:32:02 14.9 C 56 % 6.21 C
1233 07-05-2007 06:44:02 14.8 C 56 % 6.12 C
1234 07-05-2007 06:56:02 14.8 C 57 % 6.37 C
1235 07-05-2007 07:08:02 14.5 C 63 % 7.55 C
1236 07-05-2007 07:20:40 13.7 C 70 % 8.33 C
1237 07-05-2007 07:32:02 13.3 C 73 % 8.57 C
1238 07-05-2007 07:44:02 13 C 75 % 8.68 C
1239 07-05-2007 07:56:02 12.8 C 79 % 9.25 C
1240 07-05-2007 08:08:02 12.8 C 80 % 9.44 C
1241 07-05-2007 08:20:02 12.7 C 80 % 9.34 C
1242 07-05-2007 08:32:02 12.6 C 81 % 9.43 C
1243 07-05-2007 08:44:02 12.7 C 81 % 9.53 C
1244 07-05-2007 08:56:02 13.2 C 79 % 9.64 C
1245 07-05-2007 09:08:02 13.7 C 77 % 9.75 C
1246 07-05-2007 09:20:02 13.7 C 76 % 9.55 C
1247 07-05-2007 09:32:02 13.7 C 78 % 9.94 C
1248 07-05-2007 09:44:02 13.6 C 80 % 10.22 C
1249 07-05-2007 09:56:03 13.4 C 80 % 10.02 C
1250 07-05-2007 10:08:02 13.4 C 80 % 10.02 C
Sensor: Nr:Datum:Temp:Feuchte:Taupunkt:
Aussen-T/F 1251 07-05-2007 10:20:02 13.7 C 79 % 10.13 C
1252 07-05-2007 10:32:02 13.8 C 77 % 9.84 C
1253 07-05-2007 10:44:02 14 C 76 % 9.84 C
1254 07-05-2007 10:56:02 14.2 C 75 % 9.84 C
1255 07-05-2007 11:08:02 14.4 C 74 % 9.83 C
1256 07-05-2007 11:20:02 14.5 C 74 % 9.93 C
1257 07-05-2007 11:32:01 14.6 C 73 % 9.82 C
1258 07-05-2007 11:44:01 14.9 C 72 % 9.9 C
1259 07-05-2007 11:56:02 15.6 C 69 % 9.94 C
1260 07-05-2007 12:08:01 16.1 C 67 % 9.98 C
1261 07-05-2007 12:20:02 16.3 C 65 % 9.71 C
1262 07-05-2007 12:32:02 16.3 C 65 % 9.71 C
1263 07-05-2007 12:44:02 16.2 C 66 % 9.85 C
1264 07-05-2007 12:56:02 16.2 C 67 % 10.07 C
1265 07-05-2007 13:08:02 16.1 C 67 % 9.98 C
1266 07-05-2007 13:20:02 16.4 C 66 % 10.04 C
1267 07-05-2007 13:32:02 16.5 C 65 % 9.9 C
1268 07-05-2007 13:44:02 16.4 C 66 % 10.04 C
1269 07-05-2007 13:56:01 16.2 C 66 % 9.85 C
1270 07-05-2007 14:08:02 16.4 C 66 % 10.04 C
1271 07-05-2007 14:20:01 16.8 C 65 % 10.19 C
1272 07-05-2007 14:32:01 18 C 59 % 9.88 C
1273 07-05-2007 14:44:01 18.2 C 57 % 9.55 C
1274 07-05-2007 14:56:01 17.9 C 59 % 9.78 C
1275 07-05-2007 15:08:01 18.3 C 57 % 9.64 C
Sensor: Nr:Datum:Temp:Feuchte:Taupunkt:
Aussen-T/F 1276 07-05-2007 15:20:02 17.9 C 59 % 9.78 C
1277 07-05-2007 15:32:01 18.5 C 56 % 9.57 C
1278 07-05-2007 15:44:01 19.5 C 53 % 9.67 C
1279 07-05-2007 15:56:02 18.5 C 53 % 8.75 C
1280 07-05-2007 16:08:02 18.1 C 55 % 8.93 C
1281 07-05-2007 16:20:01 18 C 56 % 9.1 C
1282 07-05-2007 16:32:02 18.2 C 55 % 9.02 C
1283 07-05-2007 16:44:02 18.4 C 54 % 8.93 C
1284 07-05-2007 16:56:01 18.2 C 55 % 9.02 C
1285 07-05-2007 17:08:02 18.5 C 54 % 9.03 C
1286 07-05-2007 17:20:01 18.1 C 55 % 8.93 C
1287 07-05-2007 17:32:01 17.8 C 58 % 9.43 C
1288 07-05-2007 17:44:01 17.7 C 59 % 9.59 C
1289 07-05-2007 17:56:02 17.1 C 61 % 9.53 C
1290 07-05-2007 18:08:02 16.9 C 63 % 9.82 C
1291 07-05-2007 18:20:02 16.4 C 66 % 10.04 C
1292 07-05-2007 18:32:02 16.5 C 67 % 10.36 C
1293 07-05-2007 18:44:02 16.2 C 69 % 10.51 C
1294 07-05-2007 18:56:02 15.4 C 76 % 11.19 C
1295 07-05-2007 19:08:02 14.8 C 82 % 11.76 C
1296 07-05-2007 19:20:02 14.4 C 84 % 11.73 C
1297 07-05-2007 19:32:02 14.7 C 84 % 12.03 C
1298 07-05-2007 19:44:02 14.7 C 84 % 12.03 C
1299 07-05-2007 19:56:02 15 C 79 % 11.39 C
1300 07-05-2007 20:08:02 15 C 79 % 11.39 C
Sensor: Nr:Datum:Temp:Feuchte:Taupunkt:
Aussen-T/F 1301 07-05-2007 20:20:02 14.6 C 83 % 11.75 C
1302 07-05-2007 20:32:02 14.7 C 84 % 12.03 C
1303 07-05-2007 20:44:02 14.5 C 83 % 11.65 C
1304 07-05-2007 20:56:02 14.8 C 83 % 11.94 C
1305 07-05-2007 21:08:02 14.9 C 82 % 11.86 C
1306 07-05-2007 21:20:03 15.1 C 79 % 11.49 C
1307 07-05-2007 21:32:02 15.1 C 79 % 11.49 C
1308 07-05-2007 21:44:02 15.2 C 78 % 11.39 C
1309 07-05-2007 21:56:02 15.3 C 77 % 11.3 C
1310 07-05-2007 22:08:02 15.1 C 78 % 11.3 C
1311 07-05-2007 22:20:02 15 C 80 % 11.58 C
1312 07-05-2007 22:32:02 14.7 C 83 % 11.85 C
1313 07-05-2007 22:44:03 14.5 C 84 % 11.83 C
1314 07-05-2007 22:56:02 14.3 C 87 % 12.17 C
1315 07-05-2007 23:08:03 14.2 C 89 % 12.41 C
1316 07-05-2007 23:20:02 14.1 C 89 % 12.32 C
1317 07-05-2007 23:32:02 14.1 C 91 % 12.65 C
1318 07-05-2007 23:44:02 14 C 92 % 12.72 C
1319 07-05-2007 23:56:02 13.9 C 93 % 12.79 C
1320 08-05-2007 00:08:02 13.9 C 93 % 12.79 C
1321 08-05-2007 00:20:03 13.7 C 93 % 12.59 C
1322 08-05-2007 00:32:02 13.6 C 93 % 12.49 C
1323 08-05-2007 00:44:02 13.7 C 92 % 12.42 C
1324 08-05-2007 00:56:01 13.7 C 90 % 12.09 C
1325 08-05-2007 01:08:02 13.7 C 87 % 11.58 C
Sensor: Nr:Datum:Temp:Feuchte:Taupunkt:
Aussen-T/F 1326 08-05-2007 01:20:02 13.7 C 85 % 11.23 C
1327 08-05-2007 01:32:01 13.6 C 84 % 10.95 C
1328 08-05-2007 01:44:01 13.5 C 84 % 10.85 C
1329 08-05-2007 01:56:02 13.4 C 84 % 10.75 C
1330 08-05-2007 02:08:02 13.5 C 84 % 10.85 C
1331 08-05-2007 02:20:03 13.4 C 84 % 10.75 C
1332 08-05-2007 02:32:03 13.5 C 82 % 10.49 C
1333 08-05-2007 02:44:03 13.3 C 81 % 10.11 C
1334 08-05-2007 02:56:01 13 C 81 % 9.82 C
1335 08-05-2007 03:08:02 12.8 C 83 % 9.99 C
1336 08-05-2007 03:20:02 12.7 C 83 % 9.89 C
1337 08-05-2007 03:32:01 12.6 C 82 % 9.61 C
1338 08-05-2007 03:44:01 12.6 C 80 % 9.25 C
1339 08-05-2007 03:56:01 12.8 C 78 % 9.06 C
1340 08-05-2007 04:08:02 13 C 75 % 8.68 C
1341 08-05-2007 04:20:02 12.8 C 73 % 8.09 C
1342 08-05-2007 04:32:02 12.6 C 73 % 7.89 C
1343 08-05-2007 04:44:02 12.3 C 72 % 7.4 C
1344 08-05-2007 04:56:01 12.2 C 69 % 6.69 C
1345 08-05-2007 05:08:01 11.9 C 70 % 6.61 C
1346 08-05-2007 05:20:02 11.5 C 72 % 6.63 C
1347 08-05-2007 05:32:01 11.2 C 74 % 6.74 C
1348 08-05-2007 05:44:01 11.4 C 74 % 6.94 C
1349 08-05-2007 05:56:02 11.5 C 73 % 6.84 C
1350 08-05-2007 06:08:01 11.2 C 74 % 6.74 C
Sensor: Nr:Datum:Temp:Feuchte:Taupunkt:
Aussen-T/F 1351 08-05-2007 06:20:02 11.2 C 74 % 6.74 C
1352 08-05-2007 06:32:02 11.4 C 74 % 6.94 C
1353 08-05-2007 06:44:02 11.7 C 72 % 6.83 C
1354 08-05-2007 06:56:02 12.1 C 68 % 6.38 C
1355 08-05-2007 07:08:02 12.2 C 68 % 6.48 C
1356 08-05-2007 07:20:01 12.2 C 68 % 6.48 C
1357 08-05-2007 07:32:02 12.3 C 68 % 6.57 C
1358 08-05-2007 07:44:02 12.4 C 68 % 6.67 C
1359 08-05-2007 07:56:01 12.3 C 70 % 6.99 C
1360 08-05-2007 08:08:02 12.5 C 70 % 7.18 C
1361 08-05-2007 08:20:02 12.8 C 69 % 7.26 C
1362 08-05-2007 08:32:01 13 C 68 % 7.24 C
1363 08-05-2007 08:44:01 13.1 C 65 % 6.68 C
1364 08-05-2007 08:56:02 13.3 C 65 % 6.87 C
1365 08-05-2007 09:08:01 13.9 C 63 % 6.98 C
1366 08-05-2007 09:20:01 13.4 C 64 % 6.74 C
1367 08-05-2007 09:32:02 13.6 C 61 % 6.23 C
1368 08-05-2007 09:44:02 14.4 C 57 % 6 C
1369 08-05-2007 09:56:01 14.7 C 52 % 4.96 C
1370 08-05-2007 10:08:02 14.7 C 48 % 3.82 C
1371 08-05-2007 10:20:01 15.2 C 48 % 4.28 C
1372 08-05-2007 10:32:02 15 C 47 % 3.79 C
1373 08-05-2007 10:44:02 14.8 C 48 % 3.91 C
1374 08-05-2007 10:56:01 15 C 45 % 3.18 C
1375 08-05-2007 11:08:01 15.2 C 43 % 2.72 C
Sensor: Nr:Datum:Temp:Feuchte:Taupunkt:
Aussen-T/F 1376 08-05-2007 11:20:02 15.4 C 44 % 3.22 C
1377 08-05-2007 11:32:01 15.4 C 43 % 2.9 C
1378 08-05-2007 11:44:01 15.3 C 43 % 2.81 C
1379 08-05-2007 11:56:02 15.7 C 42 % 2.84 C
1380 08-05-2007 12:08:01 16.3 C 40 % 2.69 C
1381 08-05-2007 12:20:02 16.9 C 41 % 3.58 C
1382 08-05-2007 12:32:01 17.1 C 41 % 3.76 C
1383 08-05-2007 12:44:02 16.8 C 41 % 3.49 C
1384 08-05-2007 12:56:02 17.2 C 40 % 3.5 C
1385 08-05-2007 13:08:01 18.1 C 39 % 3.94 C
1386 08-05-2007 13:20:01 18.6 C 39 % 4.39 C
1387 08-05-2007 13:32:02 18.6 C 37 % 3.64 C
1388 08-05-2007 13:44:02 18.9 C 37 % 3.91 C
1389 08-05-2007 13:56:01 18.1 C 36 % 2.81 C
1390 08-05-2007 14:08:02 17.4 C 38 % 2.95 C
1391 08-05-2007 14:20:01 17.3 C 37 % 2.49 C
1392 08-05-2007 14:32:01 17.5 C 38 % 3.04 C
1393 08-05-2007 14:44:01 17.3 C 37 % 2.49 C
1394 08-05-2007 14:56:01 17.2 C 38 % 2.77 C
1395 08-05-2007 15:08:01 17.1 C 38 % 2.68 C
1396 08-05-2007 15:20:02 17.1 C 38 % 2.68 C
1397 08-05-2007 15:32:01 16.2 C 43 % 3.62 C
1398 08-05-2007 15:44:01 14.4 C 57 % 6 C
1399 08-05-2007 15:56:02 12.8 C 71 % 7.68 C
1400 08-05-2007 16:08:01 12.2 C 76 % 8.1 C
Sensor: Nr:Datum:Temp:Feuchte:Taupunkt:
Aussen-T/F 1401 08-05-2007 16:20:01 12 C 81 % 8.84 C
1402 08-05-2007 16:32:02 12 C 84 % 9.38 C
1403 08-05-2007 16:44:02 11.9 C 85 % 9.46 C
1404 08-05-2007 16:56:01 11.8 C 85 % 9.36 C
1405 08-05-2007 17:08:02 11.8 C 85 % 9.36 C
1406 08-05-2007 17:20:01 11.8 C 85 % 9.36 C
1407 08-05-2007 17:32:02 12.2 C 83 % 9.4 C
1408 08-05-2007 17:44:02 13.3 C 76 % 9.16 C
1409 08-05-2007 17:56:01 13.2 C 71 % 8.06 C
1410 08-05-2007 18:08:02 14.7 C 68 % 8.86 C
1411 08-05-2007 18:20:02 15.7 C 64 % 8.92 C
1412 08-05-2007 18:32:01 14.9 C 64 % 8.16 C
1413 08-05-2007 18:44:01 14.7 C 65 % 8.2 C
1414 08-05-2007 18:56:02 14.7 C 67 % 8.64 C
1415 08-05-2007 19:08:01 14.6 C 67 % 8.55 C
1416 08-05-2007 19:20:02 15.2 C 65 % 8.67 C
1417 08-05-2007 19:32:01 16.2 C 57 % 7.68 C
1418 08-05-2007 19:44:01 17 C 50 % 6.51 C
1419 08-05-2007 19:56:02 17 C 49 % 6.22 C
1420 08-05-2007 20:08:01 16.7 C 48 % 5.65 C
1421 08-05-2007 20:20:01 16.1 C 50 % 5.69 C
1422 08-05-2007 20:32:02 15.5 C 53 % 5.97 C
1423 08-05-2007 20:44:02 15.3 C 52 % 5.51 C
1424 08-05-2007 20:56:01 15 C 52 % 5.24 C
1425 08-05-2007 21:08:02 14.4 C 56 % 5.74 C
Sensor: Nr:Datum:Temp:Feuchte:Taupunkt:
Aussen-T/F 1426 08-05-2007 21:20:01 14.3 C 56 % 5.65 C
1427 08-05-2007 21:32:01 14.4 C 57 % 6 C
1428 08-05-2007 21:44:01 14.3 C 58 % 6.16 C
1429 08-05-2007 21:56:01 14.4 C 58 % 6.25 C
1430 08-05-2007 22:08:02 14.4 C 59 % 6.5 C
1431 08-05-2007 22:20:02 14.3 C 60 % 6.65 C
1432 08-05-2007 22:32:02 14 C 62 % 6.84 C
1433 08-05-2007 22:44:02 14.1 C 59 % 6.22 C
1434 08-05-2007 22:56:01 14.1 C 59 % 6.22 C
1435 08-05-2007 23:08:02 14 C 60 % 6.37 C
1436 08-05-2007 23:20:02 13.9 C 61 % 6.51 C
1437 08-05-2007 23:32:01 14 C 60 % 6.37 C
1438 08-05-2007 23:44:01 14.2 C 58 % 6.06 C
1439 08-05-2007 23:56:02 14.2 C 57 % 5.81 C
1440 09-05-2007 00:08:01 14.2 C 56 % 5.56 C
1441 09-05-2007 00:20:02 14.2 C 55 % 5.3 C
1442 09-05-2007 00:32:01 14.2 C 55 % 5.3 C
1443 09-05-2007 00:44:01 14.2 C 54 % 5.04 C
1444 09-05-2007 00:56:01 14.1 C 55 % 5.21 C
1445 09-05-2007 01:08:01 14.2 C 54 % 5.04 C
1446 09-05-2007 01:20:01 14.2 C 54 % 5.04 C
1447 09-05-2007 01:32:01 14.1 C 55 % 5.21 C
1448 09-05-2007 01:44:01 14 C 56 % 5.37 C
1449 09-05-2007 01:56:02 14 C 57 % 5.63 C
1450 09-05-2007 02:08:01 14 C 56 % 5.37 C
Sensor: Nr:Datum:Temp:Feuchte:Taupunkt:
Aussen-T/F 1451 09-05-2007 02:20:02 13.9 C 56 % 5.28 C
1452 09-05-2007 02:32:01 14 C 52 % 4.31 C
1453 09-05-2007 02:44:02 14 C 51 % 4.04 C
1454 09-05-2007 02:57:07 13.7 C 54 % 4.57 C
1455 09-05-2007 03:09:07 13.5 C 55 % 4.65 C
1456 09-05-2007 03:21:07 13.4 C 56 % 4.81 C
1457 09-05-2007 03:33:02 13.2 C 57 % 4.88 C
1458 09-05-2007 03:45:02 13.1 C 56 % 4.53 C
1459 09-05-2007 03:57:02 13.1 C 56 % 4.53 C
1460 09-05-2007 04:09:02 13 C 56 % 4.44 C
1461 09-05-2007 04:21:02 12.8 C 57 % 4.5 C
1462 09-05-2007 04:33:02 12.7 C 59 % 4.9 C
1463 09-05-2007 04:45:01 12.6 C 59 % 4.81 C
1464 09-05-2007 04:57:01 12.5 C 60 % 4.96 C
1465 09-05-2007 05:09:01 12.1 C 62 % 5.05 C
1466 09-05-2007 05:21:02 12.1 C 63 % 5.28 C
1467 09-05-2007 05:33:02 11.9 C 65 % 5.54 C
1468 09-05-2007 05:45:02 11.8 C 66 % 5.66 C
1469 09-05-2007 05:57:02 11.7 C 68 % 6 C
1470 09-05-2007 06:09:02 11.4 C 70 % 6.13 C
1471 09-05-2007 06:21:02 11.3 C 72 % 6.44 C
1472 09-05-2007 06:33:02 11.4 C 73 % 6.74 C
1473 09-05-2007 06:45:02 11.3 C 73 % 6.64 C
1474 09-05-2007 06:57:02 11.2 C 74 % 6.74 C
1475 09-05-2007 07:09:02 11.2 C 76 % 7.13 C
Sensor: Nr:Datum:Temp:Feuchte:Taupunkt:
Aussen-T/F 1476 09-05-2007 07:21:01 11.2 C 76 % 7.13 C
1477 09-05-2007 07:33:02 11.4 C 77 % 7.52 C
1478 09-05-2007 07:45:02 11.5 C 77 % 7.61 C
1479 09-05-2007 07:57:02 11.6 C 78 % 7.9 C
1480 09-05-2007 08:09:03 11.9 C 75 % 7.62 C
1481 09-05-2007 08:21:02 12.1 C 74 % 7.61 C
1482 09-05-2007 08:33:02 12.3 C 74 % 7.8 C
1483 09-05-2007 08:45:03 12.4 C 75 % 8.1 C
1484 09-05-2007 08:57:03 12.4 C 75 % 8.1 C
1485 09-05-2007 09:09:03 12.3 C 77 % 8.39 C
1486 09-05-2007 09:21:02 12.3 C 78 % 8.58 C
1487 09-05-2007 09:33:02 12.4 C 80 % 9.05 C
1488 09-05-2007 09:45:01 12.5 C 81 % 9.33 C
1489 09-05-2007 09:57:01 12.2 C 82 % 9.22 C
1490 09-05-2007 10:09:02 12.3 C 83 % 9.5 C
1491 09-05-2007 10:21:02 12.4 C 84 % 9.78 C
1492 09-05-2007 10:33:02 12.6 C 83 % 9.79 C
1493 09-05-2007 10:45:02 12.8 C 84 % 10.17 C
1494 09-05-2007 10:57:02 12.9 C 83 % 10.09 C
1495 09-05-2007 11:09:01 12.9 C 83 % 10.09 C
1496 09-05-2007 11:21:02 12.9 C 83 % 10.09 C
1497 09-05-2007 11:33:01 13 C 83 % 10.18 C
1498 09-05-2007 11:45:03 13.2 C 82 % 10.2 C
1499 09-05-2007 11:57:03 13.2 C 83 % 10.38 C
1500 09-05-2007 12:09:02 13.2 C 84 % 10.56 C
Sensor: Nr:Datum:Temp:Feuchte:Taupunkt:
Aussen-T/F 1501 09-05-2007 12:21:01 13.2 C 84 % 10.56 C
1502 09-05-2007 12:33:02 12.9 C 84 % 10.26 C
1503 09-05-2007 12:45:02 12.3 C 84 % 9.68 C
1504 09-05-2007 12:57:02 12.1 C 86 % 9.83 C
1505 09-05-2007 13:09:03 12.1 C 87 % 10 C
1506 09-05-2007 13:21:02 12.1 C 88 % 10.17 C
1507 09-05-2007 13:33:03 11.8 C 88 % 9.88 C
1508 09-05-2007 13:45:02 12 C 88 % 10.08 C
1509 09-05-2007 13:57:02 11.9 C 89 % 10.15 C
1510 09-05-2007 14:09:02 12.2 C 88 % 10.27 C
1511 09-05-2007 14:21:01 12.3 C 88 % 10.37 C
1512 09-05-2007 14:33:01 12.7 C 88 % 10.77 C
1513 09-05-2007 14:45:01 12.9 C 87 % 10.79 C
1514 09-05-2007 14:57:01 12.9 C 87 % 10.79 C
1515 09-05-2007 15:09:01 12.6 C 87 % 10.5 C
1516 09-05-2007 15:21:02 12.7 C 88 % 10.77 C
1517 09-05-2007 15:33:01 12.5 C 88 % 10.57 C
1518 09-05-2007 15:45:02 12.3 C 89 % 10.54 C
1519 09-05-2007 15:57:02 12.8 C 91 % 11.37 C
1520 09-05-2007 16:09:01 13.1 C 89 % 11.33 C
1521 09-05-2007 16:21:01 13.2 C 89 % 11.43 C
1522 09-05-2007 16:33:02 13.2 C 89 % 11.43 C
1523 09-05-2007 16:45:02 13.1 C 90 % 11.5 C
1524 09-05-2007 16:57:02 13 C 90 % 11.4 C
1525 09-05-2007 17:09:02 13 C 91 % 11.57 C
Sensor: Nr:Datum:Temp:Feuchte:Taupunkt:
Aussen-T/F 1526 09-05-2007 17:21:02 13 C 91 % 11.57 C
1527 09-05-2007 17:33:02 13.2 C 92 % 11.93 C
1528 09-05-2007 17:45:02 13.4 C 92 % 12.13 C
1529 09-05-2007 17:57:02 13.3 C 92 % 12.03 C
1530 09-05-2007 18:09:02 13.4 C 92 % 12.13 C
1531 09-05-2007 18:21:02 13.5 C 92 % 12.23 C
1532 09-05-2007 18:33:01 13.5 C 92 % 12.23 C
1533 09-05-2007 18:45:02 13.5 C 92 % 12.23 C
1534 09-05-2007 18:57:02 13.5 C 92 % 12.23 C
1535 09-05-2007 19:09:02 13.2 C 92 % 11.93 C
1536 09-05-2007 19:21:01 13.2 C 92 % 11.93 C
1537 09-05-2007 19:33:02 13.2 C 92 % 11.93 C
1538 09-05-2007 19:45:01 12.9 C 93 % 11.8 C
1539 09-05-2007 19:57:01 12.9 C 93 % 11.8 C
1540 09-05-2007 20:09:02 12.8 C 93 % 11.7 C
1541 09-05-2007 20:21:01 12.7 C 93 % 11.6 C
1542 09-05-2007 20:33:01 12.7 C 94 % 11.76 C
1543 09-05-2007 20:45:01 12.6 C 94 % 11.66 C
1544 09-05-2007 20:57:01 12.6 C 94 % 11.66 C
1545 09-05-2007 21:09:01 12.7 C 94 % 11.76 C
1546 09-05-2007 21:21:02 12.4 C 94 % 11.46 C
1547 09-05-2007 21:33:01 12.4 C 95 % 11.62 C
1548 09-05-2007 21:45:03 12.4 C 95 % 11.62 C
1549 09-05-2007 21:57:03 12.7 C 95 % 11.92 C
1550 09-05-2007 22:09:02 12.7 C 95 % 11.92 C
Sensor: Nr:Datum:Temp:Feuchte:Taupunkt:
Aussen-T/F 1551 09-05-2007 22:21:02 12.5 C 95 % 11.72 C
1552 09-05-2007 22:33:03 12.6 C 95 % 11.82 C
1553 09-05-2007 22:45:02 12.6 C 95 % 11.82 C
1554 09-05-2007 22:57:02 12.6 C 95 % 11.82 C
1555 09-05-2007 23:09:02 12.7 C 95 % 11.92 C
1556 09-05-2007 23:21:02 12.9 C 95 % 12.12 C
1557 09-05-2007 23:33:02 13 C 95 % 12.22 C
1558 09-05-2007 23:45:02 13 C 95 % 12.22 C
1559 09-05-2007 23:57:02 12.9 C 95 % 12.12 C
1560 10-05-2007 00:09:03 12.9 C 95 % 12.12 C
1561 10-05-2007 00:21:03 13 C 95 % 12.22 C
1562 10-05-2007 00:33:03 12.9 C 95 % 12.12 C
1563 10-05-2007 00:45:03 13.1 C 95 % 12.32 C
1564 10-05-2007 00:57:03 13.1 C 94 % 12.16 C
1565 10-05-2007 01:09:03 13 C 93 % 11.9 C
1566 10-05-2007 01:21:02 13 C 92 % 11.73 C
1567 10-05-2007 01:33:02 12.8 C 92 % 11.53 C
1568 10-05-2007 01:45:02 12.8 C 90 % 11.2 C
1569 10-05-2007 01:57:02 12.8 C 89 % 11.03 C
1570 10-05-2007 02:09:02 12.8 C 88 % 10.86 C
1571 10-05-2007 02:21:02 12.8 C 88 % 10.86 C
1572 10-05-2007 02:33:02 12.9 C 87 % 10.79 C
1573 10-05-2007 02:46:04 12.9 C 86 % 10.62 C
1574 10-05-2007 02:58:04 12.9 C 85 % 10.44 C
1575 10-05-2007 03:10:03 12.9 C 84 % 10.26 C
Sensor: Nr:Datum:Temp:Feuchte:Taupunkt:
Aussen-T/F 1576 10-05-2007 03:22:03 13 C 82 % 10 C
1577 10-05-2007 03:34:01 13.1 C 81 % 9.92 C
1578 10-05-2007 03:46:01 13.1 C 80 % 9.73 C
1579 10-05-2007 03:58:01 13.2 C 79 % 9.64 C
1580 10-05-2007 04:10:02 13.2 C 79 % 9.64 C
1581 10-05-2007 04:22:02 13.1 C 79 % 9.54 C
1582 10-05-2007 04:34:02 13.1 C 79 % 9.54 C
1583 10-05-2007 04:46:03 13.2 C 79 % 9.64 C
1584 10-05-2007 04:58:03 13.2 C 79 % 9.64 C
1585 10-05-2007 05:10:03 13.4 C 78 % 9.65 C
1586 10-05-2007 05:22:02 13.4 C 78 % 9.65 C
1587 10-05-2007 05:34:02 13.4 C 77 % 9.45 C
1588 10-05-2007 05:46:02 13.4 C 77 % 9.45 C
1589 10-05-2007 05:58:02 13.4 C 77 % 9.45 C
1590 10-05-2007 06:10:02 13.4 C 77 % 9.45 C
1591 10-05-2007 06:22:02 13.5 C 77 % 9.55 C
1592 10-05-2007 06:34:02 13.6 C 77 % 9.65 C
1593 10-05-2007 06:46:03 13.7 C 76 % 9.55 C
1594 10-05-2007 06:58:03 13.8 C 75 % 9.45 C
1595 10-05-2007 07:10:02 13.8 C 75 % 9.45 C
1596 10-05-2007 07:22:02 13.8 C 76 % 9.65 C
1597 10-05-2007 07:34:02 14.1 C 74 % 9.54 C
1598 10-05-2007 07:46:01 14.4 C 73 % 9.63 C
1599 10-05-2007 07:58:01 14.9 C 72 % 9.9 C
1600 10-05-2007 08:10:02 15 C 69 % 9.36 C
Sensor: Nr:Datum:Temp:Feuchte:Taupunkt:
Aussen-T/F 1601 10-05-2007 08:22:02 15.5 C 67 % 9.41 C
1602 10-05-2007 08:34:01 15.5 C 66 % 9.18 C
1603 10-05-2007 08:46:01 15.6 C 66 % 9.28 C
1604 10-05-2007 08:58:01 15.8 C 66 % 9.47 C
1605 10-05-2007 09:10:01 15.9 C 65 % 9.34 C
1606 10-05-2007 09:22:02 15.6 C 66 % 9.28 C
1607 10-05-2007 09:34:01 15.7 C 65 % 9.15 C
1608 10-05-2007 09:46:02 16.1 C 62 % 8.82 C
1609 10-05-2007 09:58:02 16.3 C 61 % 8.77 C
1610 10-05-2007 10:10:02 16.6 C 58 % 8.31 C
1611 10-05-2007 10:22:01 17 C 57 % 8.43 C
1612 10-05-2007 10:34:02 17.1 C 54 % 7.73 C
1613 10-05-2007 10:46:02 17.3 C 54 % 7.91 C
1614 10-05-2007 10:58:02 18 C 52 % 8.01 C
1615 10-05-2007 11:10:02 17.9 C 52 % 7.91 C
1616 10-05-2007 11:22:02 17.6 C 53 % 7.92 C
1617 10-05-2007 11:34:02 18.1 C 50 % 7.52 C
1618 10-05-2007 11:46:02 18.3 C 49 % 7.41 C
1619 10-05-2007 11:58:02 18.8 C 48 % 7.57 C
1620 10-05-2007 12:10:02 18.7 C 47 % 7.17 C
1621 10-05-2007 12:22:02 19.6 C 45 % 7.35 C
1622 10-05-2007 12:34:02 19.5 C 43 % 6.6 C
1623 10-05-2007 12:46:02 20 C 40 % 6 C
1624 10-05-2007 12:58:02 20.4 C 39 % 5.99 C
1625 10-05-2007 13:10:02 20.4 C 39 % 5.99 C
Sensor: Nr:Datum:Temp:Feuchte:Taupunkt:
Aussen-T/F 1626 10-05-2007 13:22:02 20.8 C 37 % 5.59 C
1627 10-05-2007 13:34:03 20.5 C 37 % 5.32 C
1628 10-05-2007 13:46:02 20.6 C 37 % 5.41 C
1629 10-05-2007 13:58:02 21.7 C 35 % 5.58 C
1630 10-05-2007 14:10:02 22 C 35 % 5.85 C
1631 10-05-2007 14:22:02 22.1 C 33 % 5.09 C
1632 10-05-2007 14:34:01 22.8 C 31 % 4.8 C
1633 10-05-2007 14:46:02 22.8 C 31 % 4.8 C
1634 10-05-2007 14:58:02 23.1 C 29 % 4.11 C
1635 10-05-2007 15:10:02 22.9 C 31 % 4.89 C
1636 10-05-2007 15:22:02 23.6 C 30 % 5.03 C
1637 10-05-2007 15:34:02 24.7 C 26 % 3.93 C
1638 10-05-2007 15:46:02 24.1 C 25 % 2.86 C
1639 10-05-2007 15:58:02 22.9 C 28 % 3.44 C
1640 10-05-2007 16:10:02 22 C 29 % 3.17 C
1641 10-05-2007 16:22:01 22.3 C 30 % 3.9 C
1642 10-05-2007 16:34:02 22.9 C 30 % 4.42 C
1643 10-05-2007 16:46:02 23.8 C 27 % 3.7 C
1644 10-05-2007 16:58:02 23.2 C 27 % 3.18 C
1645 10-05-2007 17:10:03 23.1 C 28 % 3.61 C
1646 10-05-2007 17:22:02 22.7 C 29 % 3.77 C
1647 10-05-2007 17:34:02 23 C 30 % 4.51 C
1648 10-05-2007 17:46:02 23 C 29 % 4.03 C
1649 10-05-2007 17:58:02 22.6 C 31 % 4.63 C
1650 10-05-2007 18:10:02 22.8 C 31 % 4.8 C
Sensor: Nr:Datum:Temp:Feuchte:Taupunkt:
Aussen-T/F 1651 10-05-2007 18:22:02 22.8 C 30 % 4.34 C
1652 10-05-2007 18:34:03 23.3 C 29 % 4.28 C
1653 10-05-2007 18:46:02 23.7 C 29 % 4.63 C
1654 10-05-2007 18:58:02 23.7 C 30 % 5.11 C
1655 10-05-2007 19:10:02 23.4 C 30 % 4.85 C
1656 10-05-2007 19:22:02 22.9 C 30 % 4.42 C
1657 10-05-2007 19:34:02 22.6 C 30 % 4.16 C
1658 10-05-2007 19:46:02 22.7 C 30 % 4.25 C
1659 10-05-2007 19:58:02 22 C 31 % 4.11 C
1660 10-05-2007 20:10:02 21.6 C 35 % 5.5 C
1661 10-05-2007 20:22:02 21.1 C 38 % 6.24 C
1662 10-05-2007 20:34:02 20.6 C 41 % 6.9 C
1663 10-05-2007 20:46:02 20.1 C 42 % 6.8 C
1664 10-05-2007 20:58:02 20 C 40 % 6 C
1665 10-05-2007 21:10:02 19.9 C 42 % 6.62 C
1666 10-05-2007 21:22:02 19.2 C 45 % 6.99 C
1667 10-05-2007 21:34:02 18.6 C 48 % 7.39 C
1668 10-05-2007 21:46:02 18.3 C 48 % 7.11 C
1669 10-05-2007 21:58:02 18 C 50 % 7.43 C
1670 10-05-2007 22:10:02 17.8 C 53 % 8.1 C
1671 10-05-2007 22:22:02 17.4 C 53 % 7.73 C
1672 10-05-2007 22:34:02 17.2 C 54 % 7.82 C
1673 10-05-2007 22:46:02 17 C 57 % 8.43 C
1674 10-05-2007 22:58:02 16.9 C 58 % 8.59 C
1675 10-05-2007 23:10:02 17.1 C 59 % 9.03 C
Sensor: Nr:Datum:Temp:Feuchte:Taupunkt:
Aussen-T/F 1676 10-05-2007 23:22:02 17 C 59 % 8.94 C
1677 10-05-2007 23:34:02 17 C 61 % 9.43 C
1678 10-05-2007 23:46:02 17 C 61 % 9.43 C
1679 10-05-2007 23:58:02 16.8 C 63 % 9.72 C
1680 11-05-2007 00:10:01 16.8 C 63 % 9.72 C
1681 11-05-2007 00:22:02 16.4 C 65 % 9.81 C
1682 11-05-2007 00:34:02 16 C 65 % 9.43 C
1683 11-05-2007 00:46:02 15.8 C 65 % 9.24 C
1684 11-05-2007 00:58:02 15.8 C 63 % 8.78 C
1685 11-05-2007 01:10:02 15.6 C 65 % 9.05 C
1686 11-05-2007 01:22:01 15.5 C 64 % 8.73 C
1687 11-05-2007 01:34:02 15.3 C 64 % 8.54 C
1688 11-05-2007 01:46:02 15.3 C 64 % 8.54 C
1689 11-05-2007 01:58:02 15.1 C 65 % 8.58 C
1690 11-05-2007 02:10:03 14.9 C 68 % 9.05 C
1691 11-05-2007 02:22:03 14.8 C 69 % 9.17 C
1692 11-05-2007 02:34:03 14.7 C 71 % 9.5 C
1693 11-05-2007 02:46:01 14.3 C 72 % 9.33 C
1694 11-05-2007 02:58:01 14.5 C 73 % 9.72 C
1695 11-05-2007 03:10:01 14.4 C 73 % 9.63 C
1696 11-05-2007 03:22:01 14.5 C 73 % 9.72 C
1697 11-05-2007 03:34:01 14.7 C 71 % 9.5 C
1698 11-05-2007 03:46:01 14.9 C 69 % 9.27 C
1699 11-05-2007 03:58:01 14.3 C 71 % 9.12 C
1700 11-05-2007 04:10:02 14.6 C 71 % 9.41 C
Sensor: Nr:Datum:Temp:Feuchte:Taupunkt:
Aussen-T/F 1701 11-05-2007 04:22:02 15 C 63 % 8.02 C
1702 11-05-2007 04:34:02 16 C 57 % 7.49 C
1703 11-05-2007 04:46:02 15.9 C 58 % 7.66 C
1704 11-05-2007 04:58:02 16.5 C 52 % 6.62 C
1705 11-05-2007 05:10:01 17 C 48 % 5.92 C
1706 11-05-2007 05:22:02 17.1 C 47 % 5.71 C
1707 11-05-2007 05:34:02 17 C 47 % 5.62 C
1708 11-05-2007 05:46:01 16.9 C 47 % 5.53 C
1709 11-05-2007 05:58:01 16.8 C 47 % 5.44 C
1710 11-05-2007 06:10:02 16.6 C 50 % 6.15 C
1711 11-05-2007 06:22:01 16.4 C 52 % 6.53 C
1712 11-05-2007 06:34:01 16.3 C 51 % 6.16 C
1713 11-05-2007 06:46:01 16.3 C 50 % 5.87 C
1714 11-05-2007 06:58:01 16.3 C 49 % 5.58 C
1715 11-05-2007 07:10:01 16.2 C 49 % 5.49 C
1716 11-05-2007 07:22:02 16 C 50 % 5.59 C
1717 11-05-2007 07:34:01 15.3 C 58 % 7.09 C
1718 11-05-2007 07:46:02 15.5 C 56 % 6.77 C
1719 11-05-2007 07:58:02 15.8 C 52 % 5.97 C
1720 11-05-2007 08:10:02 16 C 49 % 5.3 C
1721 11-05-2007 08:22:01 16 C 50 % 5.59 C
1722 11-05-2007 08:34:02 15.8 C 52 % 5.97 C
1723 11-05-2007 08:46:01 15.7 C 52 % 5.88 C
1724 11-05-2007 08:58:01 15.5 C 53 % 5.97 C
1725 11-05-2007 09:10:02 15.4 C 54 % 6.15 C
Sensor: Nr:Datum:Temp:Feuchte:Taupunkt:
Aussen-T/F 1726 11-05-2007 09:22:02 15.3 C 57 % 6.84 C
1727 11-05-2007 09:34:01 15.7 C 52 % 5.88 C
1728 11-05-2007 09:46:02 16.3 C 47 % 4.98 C
1729 11-05-2007 09:58:02 16.3 C 47 % 4.98 C
1730 11-05-2007 10:10:01 15.9 C 50 % 5.5 C
1731 11-05-2007 10:22:01 16.3 C 50 % 5.87 C
1732 11-05-2007 10:34:02 16.4 C 50 % 5.96 C
1733 11-05-2007 10:46:02 16.2 C 47 % 4.89 C
1734 11-05-2007 10:58:02 15.4 C 52 % 5.61 C
1735 11-05-2007 11:10:02 14.7 C 62 % 7.5 C
1736 11-05-2007 11:22:01 15.4 C 52 % 5.61 C
1737 11-05-2007 11:34:02 15.3 C 48 % 4.37 C
1738 11-05-2007 11:46:01 15.2 C 47 % 3.98 C
1739 11-05-2007 11:58:01 14.8 C 48 % 3.91 C
1740 11-05-2007 12:10:01 14.9 C 48 % 4 C
1741 11-05-2007 12:22:02 14.5 C 47 % 3.34 C
1742 11-05-2007 12:34:01 14.8 C 45 % 3 C
1743 11-05-2007 12:46:02 15.4 C 39 % 1.53 C
1744 11-05-2007 12:58:02 15.7 C 36 % 0.69 C
1745 11-05-2007 13:10:02 15.3 C 38 % 1.08 C
1746 11-05-2007 13:22:01 15.2 C 39 % 1.35 C
1747 11-05-2007 13:34:02 15.6 C 37 % 0.98 C
1748 11-05-2007 13:46:01 15.6 C 38 % 1.35 C
1749 11-05-2007 13:58:01 15.9 C 36 % 0.87 C
1750 11-05-2007 14:10:02 16.2 C 34 % 0.34 C
Sensor: Nr:Datum:Temp:Feuchte:Taupunkt:
Aussen-T/F 1751 11-05-2007 14:22:02 16.2 C 34 % 0.34 C
1752 11-05-2007 14:34:01 16.8 C 33 % 0.46 C
1753 11-05-2007 14:46:02 16.7 C 34 % 0.78 C
1754 11-05-2007 14:58:02 16.8 C 30 % -0.85 C
1755 11-05-2007 15:10:02 17.6 C 28 % -1.1 C
1756 11-05-2007 15:22:01 17.7 C 28 % -1.02 C
1757 11-05-2007 15:34:01 17.6 C 30 % -0.16 C
1758 11-05-2007 15:46:01 19.4 C 30 % 1.4 C
1759 11-05-2007 15:58:01 18.4 C 30 % 0.53 C
1760 11-05-2007 16:10:01 18.3 C 33 % 1.77 C
1761 11-05-2007 16:22:02 18.5 C 34 % 2.36 C
1762 11-05-2007 16:34:01 18.2 C 35 % 2.5 C
1763 11-05-2007 16:46:02 17.8 C 36 % 2.55 C
1764 11-05-2007 16:58:02 17.3 C 38 % 2.86 C
1765 11-05-2007 17:10:02 16.6 C 40 % 2.96 C
1766 11-05-2007 17:22:02 16.1 C 41 % 2.86 C
1767 11-05-2007 17:34:01 15.7 C 41 % 2.5 C
1768 11-05-2007 17:46:01 15.6 C 43 % 3.08 C
1769 11-05-2007 17:58:02 15.6 C 42 % 2.75 C
1770 11-05-2007 18:10:01 15.4 C 42 % 2.57 C
1771 11-05-2007 18:22:02 15.4 C 40 % 1.89 C
1772 11-05-2007 18:34:01 16 C 37 % 1.33 C
1773 11-05-2007 18:46:02 16 C 38 % 1.71 C
1774 11-05-2007 18:58:02 16.3 C 39 % 2.34 C
1775 11-05-2007 19:10:02 16.4 C 40 % 2.78 C
Sensor: Nr:Datum:Temp:Feuchte:Taupunkt:
Aussen-T/F 1776 11-05-2007 19:22:01 16 C 41 % 2.77 C
1777 11-05-2007 19:34:01 16 C 41 % 2.77 C
1778 11-05-2007 19:46:01 15.6 C 44 % 3.4 C
1779 11-05-2007 19:58:01 15.3 C 45 % 3.45 C
1780 11-05-2007 20:10:01 15.2 C 45 % 3.36 C
1781 11-05-2007 20:22:02 15.4 C 41 % 2.23 C
1782 11-05-2007 20:34:01 15.3 C 41 % 2.14 C
1783 11-05-2007 20:46:02 14.7 C 44 % 2.59 C
1784 11-05-2007 20:58:02 14.3 C 44 % 2.23 C
1785 11-05-2007 21:10:01 13.9 C 45 % 2.18 C
1786 11-05-2007 21:22:01 13.8 C 46 % 2.4 C
1787 11-05-2007 21:34:02 13.4 C 48 % 2.63 C
1788 11-05-2007 21:46:01 13.1 C 50 % 2.93 C
1789 11-05-2007 21:58:01 12.8 C 53 % 3.47 C
1790 11-05-2007 22:10:01 12.8 C 53 % 3.47 C
1791 11-05-2007 22:22:02 12.8 C 54 % 3.74 C
1792 11-05-2007 22:34:01 12.8 C 55 % 4 C
1793 11-05-2007 22:46:02 12.7 C 56 % 4.16 C
1794 11-05-2007 22:58:02 12.7 C 56 % 4.16 C
1795 11-05-2007 23:10:01 12.7 C 55 % 3.9 C
1796 11-05-2007 23:22:01 12.7 C 57 % 4.41 C
1797 11-05-2007 23:34:02 12.7 C 57 % 4.41 C
1798 11-05-2007 23:46:01 12.6 C 58 % 4.57 C
1799 11-05-2007 23:58:01 12.7 C 59 % 4.9 C
1800 12-05-2007 00:10:02 12.7 C 59 % 4.9 C
Sensor: Nr:Datum:Temp:Feuchte:Taupunkt:
Aussen-T/F 1801 12-05-2007 00:24:02 12.7 C 59 % 4.9 C
1802 12-05-2007 00:36:02 12.7 C 60 % 5.14 C
1803 12-05-2007 00:48:02 12.6 C 62 % 5.52 C
1804 12-05-2007 01:00:02 11.9 C 68 % 6.19 C
1805 12-05-2007 01:12:02 11.3 C 76 % 7.23 C
1806 12-05-2007 01:24:02 11.1 C 79 % 7.6 C
1807 12-05-2007 01:36:02 11.2 C 80 % 7.88 C
1808 12-05-2007 01:48:02 11.4 C 80 % 8.08 C
1809 12-05-2007 02:00:02 11.7 C 78 % 8 C
1810 12-05-2007 02:12:02 11.8 C 75 % 7.52 C
1811 12-05-2007 02:24:02 11.9 C 75 % 7.62 C
1812 12-05-2007 02:36:02 11.8 C 75 % 7.52 C
1813 12-05-2007 02:48:03 11.4 C 77 % 7.52 C
1814 12-05-2007 03:00:03 11.2 C 79 % 7.7 C
1815 12-05-2007 03:12:03 11.3 C 81 % 8.16 C
1816 12-05-2007 03:24:03 11.3 C 81 % 8.16 C
1817 12-05-2007 03:36:03 11.5 C 82 % 8.54 C
1818 12-05-2007 03:48:03 11.6 C 81 % 8.45 C
1819 12-05-2007 04:00:03 11.8 C 82 % 8.83 C
1820 12-05-2007 04:12:03 12.2 C 80 % 8.86 C
1821 12-05-2007 04:24:03 12.8 C 78 % 9.06 C
1822 12-05-2007 04:36:03 12.8 C 76 % 8.68 C
1823 12-05-2007 04:48:03 12.7 C 76 % 8.58 C
1824 12-05-2007 05:00:03 12.5 C 77 % 8.58 C
1825 12-05-2007 05:12:03 12.8 C 77 % 8.87 C
Sensor: Nr:Datum:Temp:Feuchte:Taupunkt:
Aussen-T/F 1826 12-05-2007 05:24:03 13 C 75 % 8.68 C
1827 12-05-2007 05:36:03 13.2 C 74 % 8.67 C
1828 12-05-2007 05:48:03 13.2 C 75 % 8.87 C
1829 12-05-2007 06:00:03 13 C 77 % 9.07 C
1830 12-05-2007 06:12:03 12.9 C 78 % 9.16 C
1831 12-05-2007 06:24:04 12.8 C 77 % 8.87 C
1832 12-05-2007 06:36:04 12.9 C 77 % 8.97 C
1833 12-05-2007 06:48:04 13.1 C 75 % 8.77 C
1834 12-05-2007 07:00:04 13.2 C 73 % 8.47 C
1835 12-05-2007 07:12:04 13.4 C 70 % 8.05 C
1836 12-05-2007 07:24:04 13.4 C 69 % 7.84 C
1837 12-05-2007 07:36:04 13.4 C 69 % 7.84 C
1838 12-05-2007 07:48:04 13.5 C 68 % 7.72 C
1839 12-05-2007 08:00:04 13.4 C 69 % 7.84 C
1840 12-05-2007 08:12:03 13.1 C 72 % 8.17 C
1841 12-05-2007 08:24:02 12.5 C 78 % 8.77 C
1842 12-05-2007 08:36:02 12.3 C 83 % 9.5 C
1843 12-05-2007 08:48:01 12.8 C 82 % 9.81 C
1844 12-05-2007 09:00:01 13.4 C 79 % 9.84 C
1845 12-05-2007 09:12:01 13.9 C 72 % 8.94 C
1846 12-05-2007 09:24:01 13.9 C 71 % 8.73 C
1847 12-05-2007 09:36:00 14.2 C 70 % 8.81 C
1848 12-05-2007 09:48:02 14.8 C 66 % 8.52 C
1849 12-05-2007 10:00:02 13.6 C 74 % 9.06 C
1850 12-05-2007 10:12:02 13.2 C 78 % 9.45 C
Sensor: Nr:Datum:Temp:Feuchte:Taupunkt:
Aussen-T/F 1851 12-05-2007 10:24:02 13.1 C 78 % 9.36 C
1852 12-05-2007 10:36:01 13.4 C 78 % 9.65 C
1853 12-05-2007 10:48:02 13.4 C 79 % 9.84 C
1854 12-05-2007 11:00:02 14.4 C 75 % 10.03 C
1855 12-05-2007 11:12:02 14.7 C 71 % 9.5 C
1856 12-05-2007 11:24:02 15.4 C 66 % 9.09 C
1857 12-05-2007 11:36:02 15.8 C 63 % 8.78 C
1858 12-05-2007 11:48:01 16.4 C 59 % 8.38 C
1859 12-05-2007 12:00:01 16.2 C 59 % 8.19 C
1860 12-05-2007 12:12:02 16.4 C 55 % 7.35 C
1861 12-05-2007 12:24:02 17 C 54 % 7.63 C
1862 12-05-2007 12:36:01 16.8 C 53 % 7.18 C
1863 12-05-2007 12:48:02 17.7 C 50 % 7.16 C
1864 12-05-2007 13:00:02 17.4 C 50 % 6.88 C
1865 12-05-2007 13:12:01 17.5 C 51 % 7.26 C
1866 12-05-2007 13:24:02 18.2 C 47 % 6.71 C
1867 12-05-2007 13:36:02 19.1 C 41 % 5.55 C
1868 12-05-2007 13:48:02 17.5 C 50 % 6.97 C
1869 12-05-2007 14:00:02 17.1 C 53 % 7.45 C
1870 12-05-2007 14:12:02 15.9 C 64 % 9.11 C
1871 12-05-2007 14:24:02 15.6 C 62 % 8.35 C
1872 12-05-2007 14:36:02 15.3 C 65 % 8.77 C
1873 12-05-2007 14:48:02 16.7 C 62 % 9.39 C
1874 12-05-2007 15:00:02 18.1 C 55 % 8.93 C
1875 12-05-2007 15:12:02 18.5 C 49 % 7.6 C
Sensor: Nr:Datum:Temp:Feuchte:Taupunkt:
Aussen-T/F 1876 12-05-2007 15:24:02 18.1 C 48 % 6.93 C
1877 12-05-2007 15:36:02 18.3 C 46 % 6.49 C
1878 12-05-2007 15:48:02 17.7 C 54 % 8.28 C
1879 12-05-2007 16:00:02 18.1 C 48 % 6.93 C
1880 12-05-2007 16:12:02 18.1 C 52 % 8.1 C
1881 12-05-2007 16:24:03 19.4 C 42 % 6.17 C
1882 12-05-2007 16:36:02 19.7 C 39 % 5.37 C
1883 12-05-2007 16:48:02 19.2 C 41 % 5.64 C
1884 12-05-2007 17:00:02 18.9 C 40 % 5.02 C
1885 12-05-2007 17:12:02 18.7 C 41 % 5.19 C
1886 12-05-2007 17:24:01 19.3 C 39 % 5.01 C
1887 12-05-2007 17:36:02 19.1 C 39 % 4.84 C
1888 12-05-2007 17:48:02 18.7 C 39 % 4.48 C
1889 12-05-2007 18:00:02 18.9 C 40 % 5.02 C
1890 12-05-2007 18:12:01 18.7 C 40 % 4.84 C
1891 12-05-2007 18:24:02 18.5 C 40 % 4.66 C
1892 12-05-2007 18:36:02 18.7 C 40 % 4.84 C
1893 12-05-2007 18:48:03 18.4 C 41 % 4.92 C
1894 12-05-2007 19:00:03 18.3 C 41 % 4.83 C
1895 12-05-2007 19:12:02 18.1 C 42 % 5 C
1896 12-05-2007 19:24:02 18 C 42 % 4.91 C
1897 12-05-2007 19:36:03 17.9 C 43 % 5.16 C
1898 12-05-2007 19:48:02 17.9 C 44 % 5.49 C
1899 12-05-2007 20:00:02 18 C 43 % 5.25 C
1900 12-05-2007 20:12:02 18.3 C 42 % 5.18 C
Sensor: Nr:Datum:Temp:Feuchte:Taupunkt:
Aussen-T/F 1901 12-05-2007 20:24:03 18 C 43 % 5.25 C
1902 12-05-2007 20:36:02 17.6 C 45 % 5.54 C
1903 12-05-2007 20:48:02 17.1 C 47 % 5.71 C
1904 12-05-2007 21:00:02 17.1 C 47 % 5.71 C
1905 12-05-2007 21:12:02 16.5 C 49 % 5.76 C
1906 12-05-2007 21:24:01 16 C 51 % 5.88 C
1907 12-05-2007 21:36:02 15.7 C 53 % 6.16 C
1908 12-05-2007 21:48:01 15.3 C 56 % 6.58 C
1909 12-05-2007 22:00:01 14.8 C 59 % 6.87 C
1910 12-05-2007 22:12:02 14.7 C 60 % 7.03 C
1911 12-05-2007 22:24:01 14.2 C 62 % 7.03 C
1912 12-05-2007 22:36:01 14.3 C 62 % 7.13 C
1913 12-05-2007 22:48:01 14.1 C 63 % 7.17 C
1914 12-05-2007 23:00:01 14 C 63 % 7.08 C
1915 12-05-2007 23:12:01 13.9 C 64 % 7.21 C
1916 12-05-2007 23:24:02 13.9 C 64 % 7.21 C
1917 12-05-2007 23:36:01 13.9 C 64 % 7.21 C
1918 12-05-2007 23:48:02 13.7 C 64 % 7.02 C
1919 13-05-2007 00:00:02 13.5 C 65 % 7.06 C
1920 13-05-2007 00:12:02 13.3 C 66 % 7.09 C
1921 13-05-2007 00:24:02 13.1 C 67 % 7.12 C
1922 13-05-2007 00:36:02 12.9 C 69 % 7.36 C
1923 13-05-2007 00:48:02 12.6 C 70 % 7.28 C
1924 13-05-2007 01:00:02 12.4 C 71 % 7.3 C
1925 13-05-2007 01:12:02 12.2 C 72 % 7.31 C
Sensor: Nr:Datum:Temp:Feuchte:Taupunkt:
Aussen-T/F 1926 13-05-2007 01:24:02 12.1 C 73 % 7.41 C
1927 13-05-2007 01:36:02 12.1 C 73 % 7.41 C
1928 13-05-2007 01:48:03 12 C 73 % 7.32 C
1929 13-05-2007 02:00:03 11.8 C 75 % 7.52 C
1930 13-05-2007 02:12:03 11.8 C 75 % 7.52 C
1931 13-05-2007 02:24:03 11.3 C 77 % 7.42 C
1932 13-05-2007 02:36:02 11 C 77 % 7.13 C
1933 13-05-2007 02:49:04 10.8 C 78 % 7.12 C
1934 13-05-2007 03:01:04 10.6 C 79 % 7.11 C
1935 13-05-2007 03:13:03 10.4 C 80 % 7.1 C
1936 13-05-2007 03:25:03 10.3 C 81 % 7.19 C
1937 13-05-2007 03:37:02 10.2 C 81 % 7.09 C
1938 13-05-2007 03:49:02 10 C 82 % 7.07 C
1939 13-05-2007 04:01:03 10 C 82 % 7.07 C
1940 13-05-2007 04:13:03 9.9 C 84 % 7.33 C
1941 13-05-2007 04:25:03 9.8 C 84 % 7.23 C
1942 13-05-2007 04:37:04 9.7 C 84 % 7.13 C
1943 13-05-2007 04:49:03 9.6 C 84 % 7.03 C
1944 13-05-2007 05:01:03 9.5 C 85 % 7.11 C
1945 13-05-2007 05:13:03 9.4 C 85 % 7.01 C
1946 13-05-2007 05:25:02 9.3 C 85 % 6.91 C
1947 13-05-2007 05:37:02 9.2 C 86 % 6.98 C
1948 13-05-2007 05:49:02 9.2 C 86 % 6.98 C
1949 13-05-2007 06:01:02 9.2 C 86 % 6.98 C
1950 13-05-2007 06:13:02 9.3 C 87 % 7.25 C
Sensor: Nr:Datum:Temp:Feuchte:Taupunkt:
Aussen-T/F 1951 13-05-2007 06:25:03 9.4 C 86 % 7.18 C
1952 13-05-2007 06:37:02 9.4 C 86 % 7.18 C
1953 13-05-2007 06:49:02 9.7 C 86 % 7.47 C
1954 13-05-2007 07:01:02 10 C 84 % 7.43 C
1955 13-05-2007 07:13:02 10.2 C 83 % 7.45 C
1956 13-05-2007 07:25:01 10.6 C 82 % 7.66 C
1957 13-05-2007 07:37:02 10.8 C 80 % 7.49 C
1958 13-05-2007 07:49:02 11.3 C 79 % 7.8 C
1959 13-05-2007 08:01:03 11.5 C 78 % 7.8 C
1960 13-05-2007 08:13:03 11.8 C 76 % 7.71 C
1961 13-05-2007 08:25:02 12 C 74 % 7.52 C
1962 13-05-2007 08:37:02 12.5 C 75 % 8.19 C
1963 13-05-2007 08:49:02 12.9 C 75 % 8.58 C
1964 13-05-2007 09:01:02 14 C 70 % 8.62 C
1965 13-05-2007 09:13:02 14.2 C 67 % 8.17 C
1966 13-05-2007 09:25:03 14.9 C 67 % 8.83 C
1967 13-05-2007 09:37:02 16 C 64 % 9.2 C
1968 13-05-2007 09:49:02 16.9 C 62 % 9.58 C
1969 13-05-2007 10:01:02 17.8 C 58 % 9.43 C
1970 13-05-2007 10:13:02 18.3 C 54 % 8.84 C
1971 13-05-2007 10:25:02 18.9 C 51 % 8.55 C
1972 13-05-2007 10:37:02 19.1 C 47 % 7.53 C
1973 13-05-2007 10:49:02 19.4 C 47 % 7.81 C
1974 13-05-2007 11:01:01 19.8 C 43 % 6.87 C
1975 13-05-2007 11:13:01 20.1 C 42 % 6.8 C
Sensor: Nr:Datum:Temp:Feuchte:Taupunkt:
Aussen-T/F 1976 13-05-2007 11:25:02 20 C 43 % 7.05 C
1977 13-05-2007 11:37:02 19.4 C 46 % 7.49 C
1978 13-05-2007 11:49:02 17 C 57 % 8.43 C
1979 13-05-2007 12:01:02 15.9 C 72 % 10.86 C
1980 13-05-2007 12:13:02 15.5 C 77 % 11.49 C
1981 13-05-2007 12:25:02 15.5 C 78 % 11.68 C
1982 13-05-2007 12:37:02 16.1 C 72 % 11.06 C
1983 13-05-2007 12:49:02 17.2 C 68 % 11.25 C
1984 13-05-2007 13:01:02 18.7 C 57 % 10.02 C
1985 13-05-2007 13:13:02 20 C 52 % 9.85 C
1986 13-05-2007 13:25:02 20.3 C 49 % 9.24 C
1987 13-05-2007 13:37:02 21.2 C 46 % 9.13 C
1988 13-05-2007 13:49:02 22 C 41 % 8.15 C
1989 13-05-2007 14:01:02 22.5 C 40 % 8.24 C
1990 13-05-2007 14:13:03 22 C 41 % 8.15 C
1991 13-05-2007 14:25:02 22.2 C 41 % 8.33 C
1992 13-05-2007 14:37:02 22 C 41 % 8.15 C
1993 13-05-2007 14:49:02 22.3 C 42 % 8.78 C
1994 13-05-2007 15:01:02 22.5 C 42 % 8.96 C
1995 13-05-2007 15:13:02 23 C 40 % 8.68 C
1996 13-05-2007 15:25:02 23.3 C 40 % 8.95 C
1997 13-05-2007 15:37:02 24.2 C 37 % 8.6 C
1998 13-05-2007 15:49:02 25.6 C 35 % 9.01 C
1999 13-05-2007 16:01:02 26.8 C 32 % 8.73 C
2000 13-05-2007 16:13:02 26.8 C 30 % 7.78 C
Sensor: Nr:Datum:Temp:Feuchte:Taupunkt:
Aussen-T/F 2001 13-05-2007 16:25:02 26.6 C 31 % 8.09 C
2002 13-05-2007 16:37:02 26.3 C 33 % 8.75 C
2003 13-05-2007 16:49:03 26.2 C 34 % 9.11 C
2004 13-05-2007 17:01:02 27.2 C 31 % 8.61 C
2005 13-05-2007 17:13:03 28.1 C 29 % 8.4 C
2006 13-05-2007 17:25:02 28.4 C 29 % 8.66 C
2007 13-05-2007 17:37:03 29 C 27 % 8.12 C
2008 13-05-2007 17:49:02 28.1 C 29 % 8.4 C
2009 13-05-2007 18:01:02 28 C 30 % 8.82 C
2010 13-05-2007 18:13:02 28 C 30 % 8.82 C
2011 13-05-2007 18:25:02 26.8 C 33 % 9.19 C
2012 13-05-2007 18:37:02 25.9 C 35 % 9.27 C
2013 13-05-2007 18:49:02 25.8 C 35 % 9.19 C
2014 13-05-2007 19:01:02 25.1 C 37 % 9.39 C
2015 13-05-2007 19:13:02 24.5 C 41 % 10.39 C
2016 13-05-2007 19:25:02 23.8 C 43 % 10.48 C
2017 13-05-2007 19:37:02 23.1 C 46 % 10.86 C
2018 13-05-2007 19:49:02 22.4 C 50 % 11.47 C
2019 13-05-2007 20:01:02 22.2 C 48 % 10.67 C
2020 13-05-2007 20:13:02 22 C 51 % 11.4 C
2021 13-05-2007 20:25:02 18.5 C 63 % 11.33 C
2022 13-05-2007 20:37:02 17.2 C 72 % 12.11 C
2023 13-05-2007 20:49:01 17.3 C 71 % 12 C
2024 13-05-2007 21:01:02 17.5 C 70 % 11.97 C
2025 13-05-2007 21:13:02 17.6 C 71 % 12.28 C
Sensor: Nr:Datum:Temp:Feuchte:Taupunkt:
Aussen-T/F 2026 13-05-2007 21:25:02 17.7 C 69 % 11.95 C
2027 13-05-2007 21:37:01 17.6 C 70 % 12.07 C
2028 13-05-2007 21:49:02 17.1 C 71 % 11.8 C
2029 13-05-2007 22:01:01 16.9 C 72 % 11.82 C
2030 13-05-2007 22:13:01 17.1 C 71 % 11.8 C
2031 13-05-2007 22:25:02 17.1 C 71 % 11.8 C
2032 13-05-2007 22:37:02 16.8 C 73 % 11.94 C
2033 13-05-2007 22:49:01 16.5 C 73 % 11.65 C
2034 13-05-2007 23:01:01 16.5 C 74 % 11.85 C
2035 13-05-2007 23:13:01 16.6 C 73 % 11.74 C
2036 13-05-2007 23:25:01 16.5 C 66 % 10.13 C
2037 13-05-2007 23:37:02 15.8 C 71 % 10.56 C
2038 13-05-2007 23:49:02 15.4 C 71 % 10.17 C
2039 14-05-2007 00:01:03 14.9 C 78 % 11.1 C
2040 14-05-2007 00:13:03 14.6 C 81 % 11.38 C
2041 14-05-2007 00:25:03 14.3 C 83 % 11.45 C
2042 14-05-2007 00:37:02 14.3 C 82 % 11.27 C
2043 14-05-2007 00:49:03 14.2 C 83 % 11.36 C
2044 14-05-2007 01:01:02 14.1 C 84 % 11.44 C
2045 14-05-2007 01:13:03 14 C 83 % 11.16 C
2046 14-05-2007 01:25:03 14.2 C 81 % 10.99 C
2047 14-05-2007 01:37:03 14.1 C 81 % 10.89 C
2048 14-05-2007 01:49:02 14.1 C 81 % 10.89 C
2049 14-05-2007 02:01:03 14 C 81 % 10.79 C
2050 14-05-2007 02:13:03 13.9 C 81 % 10.7 C
Sensor: Nr:Datum:Temp:Feuchte:Taupunkt:
Aussen-T/F 2051 14-05-2007 02:25:03 13.8 C 81 % 10.6 C
2052 14-05-2007 02:37:03 13.7 C 81 % 10.5 C
2053 14-05-2007 02:49:01 13.6 C 81 % 10.4 C
2054 14-05-2007 03:01:01 13.6 C 81 % 10.4 C
2055 14-05-2007 03:13:01 13.5 C 80 % 10.12 C
2056 14-05-2007 03:25:01 13.5 C 81 % 10.31 C
2057 14-05-2007 03:37:01 13.4 C 80 % 10.02 C
2058 14-05-2007 03:49:02 13.4 C 81 % 10.21 C
2059 14-05-2007 04:01:02 13.2 C 80 % 9.83 C
2060 14-05-2007 04:13:02 13.2 C 79 % 9.64 C
2061 14-05-2007 04:25:02 13.1 C 77 % 9.16 C
2062 14-05-2007 04:37:01 13 C 76 % 8.87 C
2063 14-05-2007 04:49:01 12.7 C 78 % 8.97 C
2064 14-05-2007 05:01:02 12.4 C 79 % 8.86 C
2065 14-05-2007 05:13:02 12.5 C 78 % 8.77 C
2066 14-05-2007 05:25:02 12.5 C 78 % 8.77 C
2067 14-05-2007 05:37:02 12.6 C 76 % 8.49 C
2068 14-05-2007 05:49:01 12.8 C 75 % 8.48 C
2069 14-05-2007 06:01:02 12.8 C 75 % 8.48 C
2070 14-05-2007 06:13:02 13.2 C 74 % 8.67 C
2071 14-05-2007 06:25:01 13.5 C 73 % 8.76 C
2072 14-05-2007 06:37:01 13.6 C 73 % 8.86 C
2073 14-05-2007 06:49:01 13.8 C 72 % 8.85 C
2074 14-05-2007 07:01:01 14.1 C 69 % 8.5 C
2075 14-05-2007 07:13:01 14.1 C 69 % 8.5 C
Sensor: Nr:Datum:Temp:Feuchte:Taupunkt:
Aussen-T/F 2076 14-05-2007 07:25:01 14.5 C 67 % 8.45 C
2077 14-05-2007 07:37:02 14.7 C 68 % 8.86 C
2078 14-05-2007 07:49:01 14.7 C 70 % 9.29 C
2079 14-05-2007 08:01:02 14.9 C 69 % 9.27 C
2080 14-05-2007 08:13:02 15.7 C 60 % 7.97 C
2081 14-05-2007 08:25:01 16 C 56 % 7.24 C
2082 14-05-2007 08:37:02 16.3 C 54 % 6.98 C
2083 14-05-2007 08:49:01 16.5 C 54 % 7.17 C
2084 14-05-2007 09:01:02 16.6 C 54 % 7.26 C
2085 14-05-2007 09:13:02 16.4 C 55 % 7.35 C
2086 14-05-2007 09:25:02 16.5 C 55 % 7.44 C
2087 14-05-2007 09:37:01 16.1 C 58 % 7.84 C
2088 14-05-2007 09:49:01 15.9 C 53 % 6.34 C
2089 14-05-2007 10:01:01 16 C 51 % 5.88 C
2090 14-05-2007 10:13:01 16.2 C 51 % 6.06 C
2091 14-05-2007 10:25:02 16.2 C 52 % 6.34 C
2092 14-05-2007 10:37:01 16.5 C 51 % 6.34 C
2093 14-05-2007 10:49:02 16.8 C 51 % 6.62 C
2094 14-05-2007 11:01:01 17 C 50 % 6.51 C
2095 14-05-2007 11:13:01 17 C 49 % 6.22 C
2096 14-05-2007 11:25:01 17 C 50 % 6.51 C
2097 14-05-2007 11:37:02 16.7 C 51 % 6.52 C
2098 14-05-2007 11:49:01 17.5 C 50 % 6.97 C
2099 14-05-2007 12:01:02 17.6 C 49 % 6.77 C
2100 14-05-2007 12:13:02 17.4 C 49 % 6.59 C
Sensor: Nr:Datum:Temp:Feuchte:Taupunkt:
Aussen-T/F 2101 14-05-2007 12:25:02 17.6 C 48 % 6.47 C
2102 14-05-2007 12:37:01 18.3 C 46 % 6.49 C
2103 14-05-2007 12:49:02 18.9 C 43 % 6.06 C
2104 14-05-2007 13:01:01 18.9 C 41 % 5.37 C
2105 14-05-2007 13:13:01 19.3 C 38 % 4.64 C
2106 14-05-2007 13:25:02 19.1 C 36 % 3.7 C
2107 14-05-2007 13:37:02 19.2 C 36 % 3.78 C
2108 14-05-2007 13:49:02 19.9 C 36 % 4.4 C
2109 14-05-2007 14:01:02 19.3 C 38 % 4.64 C
2110 14-05-2007 14:13:02 19.1 C 37 % 4.08 C
2111 14-05-2007 14:25:01 19.1 C 37 % 4.08 C
2112 14-05-2007 14:37:01 19.3 C 37 % 4.26 C
2113 14-05-2007 14:49:01 18.9 C 38 % 4.29 C
2114 14-05-2007 15:01:01 19.3 C 38 % 4.64 C
2115 14-05-2007 15:13:01 19.1 C 37 % 4.08 C
2116 14-05-2007 15:25:02 19.1 C 38 % 4.46 C
2117 14-05-2007 15:37:01 18.5 C 39 % 4.3 C
2118 14-05-2007 15:49:02 18.8 C 40 % 4.93 C
2119 14-05-2007 16:01:01 18.9 C 39 % 4.66 C
2120 14-05-2007 16:13:02 18.9 C 39 % 4.66 C
2121 14-05-2007 16:25:01 18.6 C 40 % 4.75 C
2122 14-05-2007 16:37:02 18.5 C 40 % 4.66 C
2123 14-05-2007 16:49:01 18.2 C 42 % 5.09 C
2124 14-05-2007 17:01:02 18 C 42 % 4.91 C
2125 14-05-2007 17:13:02 18.1 C 43 % 5.34 C
Sensor: Nr:Datum:Temp:Feuchte:Taupunkt:
Aussen-T/F 2126 14-05-2007 17:25:02 18.5 C 42 % 5.36 C
2127 14-05-2007 17:37:01 18.7 C 43 % 5.88 C
2128 14-05-2007 17:49:02 18.5 C 42 % 5.36 C
2129 14-05-2007 18:01:01 19.3 C 41 % 5.73 C
2130 14-05-2007 18:13:01 19 C 40 % 5.11 C
2131 14-05-2007 18:25:01 18.8 C 42 % 5.63 C
2132 14-05-2007 18:37:02 18.1 C 41 % 4.66 C
2133 14-05-2007 18:49:01 18.1 C 43 % 5.34 C
2134 14-05-2007 19:01:02 17.9 C 44 % 5.49 C
2135 14-05-2007 19:13:02 17.6 C 44 % 5.22 C
2136 14-05-2007 19:25:01 17.3 C 45 % 5.27 C
2137 14-05-2007 19:37:01 17 C 46 % 5.31 C
2138 14-05-2007 19:49:01 16.7 C 46 % 5.04 C
2139 14-05-2007 20:01:01 16.6 C 45 % 4.63 C
2140 14-05-2007 20:13:01 16.4 C 44 % 4.13 C
2141 14-05-2007 20:25:02 16.2 C 44 % 3.95 C
2142 14-05-2007 20:37:02 16.1 C 44 % 3.86 C
2143 14-05-2007 20:49:02 16 C 44 % 3.77 C
2144 14-05-2007 21:01:01 15.8 C 45 % 3.9 C
2145 14-05-2007 21:13:02 15.8 C 45 % 3.9 C
2146 14-05-2007 21:25:01 15.7 C 45 % 3.81 C
2147 14-05-2007 21:37:02 15.6 C 46 % 4.03 C
2148 14-05-2007 21:49:01 15.4 C 48 % 4.46 C
2149 14-05-2007 22:01:02 15.2 C 51 % 5.14 C
2150 14-05-2007 22:13:02 14.7 C 55 % 5.76 C
Sensor: Nr:Datum:Temp:Feuchte:Taupunkt:
Aussen-T/F 2151 14-05-2007 22:25:02 14.8 C 57 % 6.37 C
2152 14-05-2007 22:37:01 14.7 C 58 % 6.53 C
2153 14-05-2007 22:49:02 14.3 C 60 % 6.65 C
2154 14-05-2007 23:01:01 13.8 C 64 % 7.12 C
2155 14-05-2007 23:13:01 13.8 C 65 % 7.34 C
2156 14-05-2007 23:25:01 14 C 65 % 7.53 C
2157 14-05-2007 23:37:02 14.2 C 65 % 7.72 C
2158 14-05-2007 23:49:01 14.2 C 65 % 7.72 C
2159 15-05-2007 00:01:02 14.1 C 66 % 7.85 C
2160 15-05-2007 00:13:02 14.1 C 66 % 7.85 C
2161 15-05-2007 00:25:02 14.2 C 66 % 7.95 C
2162 15-05-2007 00:37:02 14.2 C 66 % 7.95 C
2163 15-05-2007 00:49:01 14.2 C 66 % 7.95 C
2164 15-05-2007 01:01:02 14 C 69 % 8.41 C
2165 15-05-2007 01:13:02 13.5 C 73 % 8.76 C
2166 15-05-2007 01:25:02 12.6 C 78 % 8.87 C
2167 15-05-2007 01:37:02 12.4 C 84 % 9.78 C
2168 15-05-2007 01:49:01 11.9 C 87 % 9.81 C
2169 15-05-2007 02:01:01 11.9 C 89 % 10.15 C
2170 15-05-2007 02:13:01 11.9 C 89 % 10.15 C
2171 15-05-2007 02:25:02 11.8 C 89 % 10.05 C
2172 15-05-2007 02:37:02 11.6 C 89 % 9.85 C
2173 15-05-2007 02:50:04 11.5 C 89 % 9.75 C
2174 15-05-2007 03:02:04 11.5 C 89 % 9.75 C
2175 15-05-2007 03:14:04 11.3 C 89 % 9.55 C
Sensor: Nr:Datum:Temp:Feuchte:Taupunkt:
Aussen-T/F 2176 15-05-2007 03:26:04 11.3 C 90 % 9.72 C
2177 15-05-2007 03:38:02 11.4 C 90 % 9.82 C
2178 15-05-2007 03:50:02 11.4 C 90 % 9.82 C
2179 15-05-2007 04:02:02 11.5 C 90 % 9.92 C
2180 15-05-2007 04:14:02 11.5 C 90 % 9.92 C
2181 15-05-2007 04:26:03 11.5 C 90 % 9.92 C
2182 15-05-2007 04:38:03 11.4 C 90 % 9.82 C
2183 15-05-2007 04:50:01 11.3 C 90 % 9.72 C
2184 15-05-2007 05:02:02 11.3 C 90 % 9.72 C
2185 15-05-2007 05:14:02 11.2 C 90 % 9.62 C
2186 15-05-2007 05:26:02 11.2 C 91 % 9.79 C
2187 15-05-2007 05:38:02 11.2 C 91 % 9.79 C
2188 15-05-2007 05:50:02 11.1 C 91 % 9.69 C
2189 15-05-2007 06:02:02 11 C 91 % 9.59 C
2190 15-05-2007 06:14:02 11 C 91 % 9.59 C
2191 15-05-2007 06:26:03 10.9 C 92 % 9.65 C
2192 15-05-2007 06:38:02 10.9 C 92 % 9.65 C
2193 15-05-2007 06:50:02 10.9 C 92 % 9.65 C
2194 15-05-2007 07:02:02 10.9 C 92 % 9.65 C
2195 15-05-2007 07:14:02 10.9 C 92 % 9.65 C
2196 15-05-2007 07:26:03 11 C 92 % 9.75 C
2197 15-05-2007 07:38:01 10.9 C 92 % 9.65 C
2198 15-05-2007 07:50:02 10.5 C 92 % 9.26 C
2199 15-05-2007 08:02:02 10.1 C 91 % 8.7 C
2200 15-05-2007 08:14:02 9.8 C 91 % 8.4 C
Sensor: Nr:Datum:Temp:Feuchte:Taupunkt:
Aussen-T/F 2201 15-05-2007 08:26:01 9.6 C 91 % 8.21 C
2202 15-05-2007 08:38:02 9.4 C 91 % 8.01 C
2203 15-05-2007 08:50:01 9.3 C 91 % 7.91 C
2204 15-05-2007 09:02:02 9.3 C 91 % 7.91 C
2205 15-05-2007 09:14:02 9.4 C 90 % 7.85 C
2206 15-05-2007 09:26:01 10.4 C 86 % 8.16 C
2207 15-05-2007 09:38:01 10.3 C 82 % 7.37 C
2208 15-05-2007 09:50:01 10.4 C 82 % 7.46 C
2209 15-05-2007 10:02:01 10.2 C 80 % 6.91 C
2210 15-05-2007 10:14:01 10.1 C 81 % 6.99 C
2211 15-05-2007 10:26:02 10 C 82 % 7.07 C
2212 15-05-2007 10:38:01 9.7 C 82 % 6.78 C
2213 15-05-2007 10:50:02 9.6 C 84 % 7.03 C
2214 15-05-2007 11:02:01 9.6 C 84 % 7.03 C
2215 15-05-2007 11:14:01 9.7 C 84 % 7.13 C
2216 15-05-2007 11:26:01 10.2 C 82 % 7.27 C
2217 15-05-2007 11:38:02 11.6 C 79 % 8.09 C
2218 15-05-2007 11:50:02 12.1 C 69 % 6.59 C
2219 15-05-2007 12:02:02 12.3 C 68 % 6.57 C
2220 15-05-2007 12:14:02 12.3 C 63 % 5.47 C
2221 15-05-2007 12:26:02 11.4 C 67 % 5.5 C
2222 15-05-2007 12:38:02 11.1 C 71 % 6.05 C
2223 15-05-2007 12:50:02 12 C 67 % 6.07 C
2224 15-05-2007 13:02:02 13 C 65 % 6.58 C
2225 15-05-2007 13:14:02 13.8 C 61 % 6.42 C
Sensor: Nr:Datum:Temp:Feuchte:Taupunkt:
Aussen-T/F 2226 15-05-2007 13:26:02 14.7 C 60 % 7.03 C
2227 15-05-2007 13:38:02 13.6 C 58 % 5.5 C
2228 15-05-2007 13:50:03 13.5 C 54 % 4.39 C
2229 15-05-2007 14:02:02 14.9 C 51 % 4.86 C
2230 15-05-2007 14:14:02 15.8 C 50 % 5.41 C
2231 15-05-2007 14:26:02 15.6 C 45 % 3.72 C
2232 15-05-2007 14:38:03 16.6 C 38 % 2.24 C
2233 15-05-2007 14:50:02 17 C 37 % 2.22 C
2234 15-05-2007 15:02:02 17.5 C 34 % 1.48 C
2235 15-05-2007 15:14:02 17 C 32 % 0.21 C
2236 15-05-2007 15:26:02 16.6 C 35 % 1.09 C
2237 15-05-2007 15:38:01 16.6 C 38 % 2.24 C
2238 15-05-2007 15:50:02 16.7 C 37 % 1.96 C
2239 15-05-2007 16:02:02 16.1 C 31 % -1.01 C
2240 15-05-2007 16:14:02 17 C 31 % -0.23 C
2241 15-05-2007 16:26:02 19.1 C 25 % -1.36 C
2242 15-05-2007 16:38:02 19.3 C 25 % -1.19 C
2243 15-05-2007 16:50:01 17.4 C 27 % -1.77 C
2244 15-05-2007 17:02:02 17.4 C 27 % -1.77 C
2245 15-05-2007 17:14:02 18.2 C 29 % -0.11 C
2246 15-05-2007 17:26:02 20.1 C 23 % -1.65 C
2247 15-05-2007 17:38:01 21.1 C 20 % -2.71 C
2248 15-05-2007 17:50:02 19.4 C 25 % -1.11 C
2249 15-05-2007 18:02:02 21.2 C 23 % -0.73 C
2250 15-05-2007 18:14:02 21.2 C 20 % -2.62 C
Sensor: Nr:Datum:Temp:Feuchte:Taupunkt:
Aussen-T/F 2251 15-05-2007 18:26:02 19.9 C 22 % -2.42 C
2252 15-05-2007 18:38:02 19.7 C 25 % -0.86 C
2253 15-05-2007 18:50:01 20.4 C 24 % -0.82 C
2254 15-05-2007 19:02:02 20.3 C 23 % -1.49 C
2255 15-05-2007 19:14:02 18.9 C 27 % -0.48 C
2256 15-05-2007 19:26:02 19.1 C 33 % 2.47 C
2257 15-05-2007 19:38:01 18.5 C 35 % 2.77 C
2258 15-05-2007 19:50:02 17 C 37 % 2.22 C
2259 15-05-2007 20:02:01 15.5 C 38 % 1.26 C
2260 15-05-2007 20:14:01 15 C 39 % 1.18 C
2261 15-05-2007 20:26:02 14.9 C 42 % 2.12 C
2262 15-05-2007 20:38:02 14.3 C 43 % 1.91 C
2263 15-05-2007 20:50:03 14.2 C 47 % 3.06 C
2264 15-05-2007 21:02:02 13.8 C 45 % 2.09 C
2265 15-05-2007 21:14:02 14 C 45 % 2.27 C
2266 15-05-2007 21:26:02 13.8 C 47 % 2.7 C
2267 15-05-2007 21:38:03 13.2 C 48 % 2.44 C
2268 15-05-2007 21:50:02 12.7 C 53 % 3.38 C
2269 15-05-2007 22:02:02 12.5 C 53 % 3.19 C
2270 15-05-2007 22:14:02 12.3 C 54 % 3.27 C
2271 15-05-2007 22:26:02 12.1 C 55 % 3.34 C
2272 15-05-2007 22:38:02 11.8 C 56 % 3.32 C
2273 15-05-2007 22:50:02 11.7 C 56 % 3.23 C
2274 15-05-2007 23:02:02 11.5 C 58 % 3.54 C
2275 15-05-2007 23:14:02 11.3 C 58 % 3.35 C
Sensor: Nr:Datum:Temp:Feuchte:Taupunkt:
Aussen-T/F 2276 15-05-2007 23:26:03 11 C 60 % 3.55 C
2277 15-05-2007 23:38:02 10.9 C 62 % 3.92 C
2278 15-05-2007 23:50:02 10.8 C 62 % 3.82 C
2279 16-05-2007 00:02:02 10.6 C 63 % 3.86 C
2280 16-05-2007 00:14:02 10.4 C 64 % 3.89 C
2281 16-05-2007 00:26:02 10.4 C 65 % 4.11 C
2282 16-05-2007 00:38:02 10.3 C 65 % 4.02 C
2283 16-05-2007 00:50:02 10.1 C 66 % 4.05 C
2284 16-05-2007 01:02:02 10 C 67 % 4.16 C
2285 16-05-2007 01:14:02 9.9 C 68 % 4.28 C
2286 16-05-2007 01:26:02 10 C 68 % 4.38 C
2287 16-05-2007 01:38:02 10.1 C 68 % 4.47 C
2288 16-05-2007 01:50:02 10.3 C 67 % 4.45 C
2289 16-05-2007 02:02:02 10.4 C 67 % 4.55 C
2290 16-05-2007 02:14:02 10.4 C 67 % 4.55 C
2291 16-05-2007 02:26:03 10.6 C 67 % 4.74 C
2292 16-05-2007 02:38:03 10.8 C 67 % 4.93 C
2293 16-05-2007 02:51:04 11 C 65 % 4.68 C
2294 16-05-2007 03:03:04 11 C 65 % 4.68 C
2295 16-05-2007 03:15:04 11 C 67 % 5.12 C
2296 16-05-2007 03:27:04 11.2 C 66 % 5.09 C
2297 16-05-2007 03:39:03 11.4 C 65 % 5.06 C
2298 16-05-2007 03:51:03 11.4 C 65 % 5.06 C
2299 16-05-2007 04:03:02 11.4 C 65 % 5.06 C
2300 16-05-2007 04:15:03 11.3 C 66 % 5.19 C
Sensor: Nr:Datum:Temp:Feuchte:Taupunkt:
Aussen-T/F 2301 16-05-2007 04:27:03 11.1 C 66 % 5 C
2302 16-05-2007 04:39:03 11.1 C 67 % 5.21 C
2303 16-05-2007 04:51:02 11.1 C 67 % 5.21 C
2304 16-05-2007 05:03:02 11.1 C 67 % 5.21 C
2305 16-05-2007 05:15:02 11.2 C 66 % 5.09 C
2306 16-05-2007 05:27:02 11.1 C 67 % 5.21 C
2307 16-05-2007 05:39:03 11.1 C 67 % 5.21 C
2308 16-05-2007 05:51:01 11 C 66 % 4.9 C
2309 16-05-2007 06:03:02 11.1 C 66 % 5 C
2310 16-05-2007 06:15:02 11.2 C 66 % 5.09 C
2311 16-05-2007 06:27:02 11.3 C 66 % 5.19 C
2312 16-05-2007 06:39:02 11.5 C 65 % 5.16 C
2313 16-05-2007 06:51:02 11.7 C 66 % 5.57 C
2314 16-05-2007 07:03:02 11.9 C 65 % 5.54 C
2315 16-05-2007 07:15:02 12 C 64 % 5.41 C
2316 16-05-2007 07:27:02 12.1 C 65 % 5.73 C
2317 16-05-2007 07:39:02 12 C 65 % 5.63 C
2318 16-05-2007 07:51:03 12.1 C 65 % 5.73 C
2319 16-05-2007 08:03:02 12.5 C 65 % 6.11 C
2320 16-05-2007 08:15:02 12.8 C 63 % 5.94 C
2321 16-05-2007 08:27:02 13.3 C 62 % 6.18 C
2322 16-05-2007 08:39:03 13.4 C 61 % 6.04 C
2323 16-05-2007 08:51:02 13.8 C 60 % 6.18 C
2324 16-05-2007 09:03:02 13.8 C 59 % 5.94 C
2325 16-05-2007 09:15:02 14.4 C 58 % 6.25 C
Sensor: Nr:Datum:Temp:Feuchte:Taupunkt:
Aussen-T/F 2326 16-05-2007 09:27:02 15.3 C 53 % 5.79 C
2327 16-05-2007 09:39:01 14.8 C 55 % 5.86 C
2328 16-05-2007 09:51:02 14.4 C 58 % 6.25 C
2329 16-05-2007 10:03:02 13.8 C 60 % 6.18 C
2330 16-05-2007 10:15:02 13.6 C 62 % 6.47 C
2331 16-05-2007 10:27:02 13.6 C 62 % 6.47 C
2332 16-05-2007 10:39:02 12.8 C 72 % 7.88 C
2333 16-05-2007 10:51:03 13.1 C 73 % 8.38 C
2334 16-05-2007 11:03:02 13.2 C 74 % 8.67 C
2335 16-05-2007 11:15:02 13.2 C 73 % 8.47 C
2336 16-05-2007 11:27:02 13.4 C 74 % 8.87 C
2337 16-05-2007 11:39:03 13.4 C 73 % 8.66 C
2338 16-05-2007 11:51:02 13.3 C 74 % 8.77 C
2339 16-05-2007 12:03:02 13.1 C 75 % 8.77 C
2340 16-05-2007 12:15:02 13.1 C 74 % 8.58 C
2341 16-05-2007 12:27:03 13.4 C 73 % 8.66 C
2342 16-05-2007 12:39:02 14.4 C 69 % 8.79 C
2343 16-05-2007 12:51:02 15 C 64 % 8.25 C
2344 16-05-2007 13:03:02 15 C 61 % 7.55 C
2345 16-05-2007 13:15:02 16 C 57 % 7.49 C
2346 16-05-2007 13:27:02 16.9 C 54 % 7.54 C
2347 16-05-2007 13:39:02 16.8 C 53 % 7.18 C
2348 16-05-2007 13:51:03 16.6 C 53 % 6.99 C
2349 16-05-2007 14:03:02 16.1 C 54 % 6.8 C
2350 16-05-2007 14:15:02 15.4 C 58 % 7.19 C
Sensor: Nr:Datum:Temp:Feuchte:Taupunkt:
Aussen-T/F 2351 16-05-2007 14:27:02 16.1 C 56 % 7.33 C
2352 16-05-2007 14:39:02 16.6 C 54 % 7.26 C
2353 16-05-2007 14:51:02 16.6 C 55 % 7.53 C
2354 16-05-2007 15:03:02 15.7 C 58 % 7.47 C
2355 16-05-2007 15:15:03 15.6 C 59 % 7.62 C
2356 16-05-2007 15:27:03 15.1 C 63 % 8.12 C
2357 16-05-2007 15:39:02 13.7 C 74 % 9.15 C
2358 16-05-2007 15:51:02 13 C 79 % 9.45 C
2359 16-05-2007 16:03:02 12.7 C 85 % 10.25 C
2360 16-05-2007 16:15:02 12.4 C 86 % 10.13 C
2361 16-05-2007 16:27:02 12.5 C 88 % 10.57 C
2362 16-05-2007 16:39:02 12.6 C 88 % 10.67 C
2363 16-05-2007 16:51:02 12.6 C 88 % 10.67 C
2364 16-05-2007 17:03:02 12.5 C 88 % 10.57 C
2365 16-05-2007 17:15:02 12.7 C 88 % 10.77 C
2366 16-05-2007 17:27:02 12.4 C 88 % 10.47 C
2367 16-05-2007 17:39:02 11.7 C 87 % 9.61 C
2368 16-05-2007 17:51:01 11 C 86 % 8.75 C
2369 16-05-2007 18:03:02 10.9 C 87 % 8.82 C
2370 16-05-2007 18:15:02 10.4 C 88 % 8.5 C
2371 16-05-2007 18:27:02 10.6 C 89 % 8.86 C
2372 16-05-2007 18:39:03 10.8 C 89 % 9.06 C
2373 16-05-2007 18:51:00 11.4 C 89 % 9.65 C
2374 16-05-2007 19:03:00 11.8 C 88 % 9.88 C
2375 16-05-2007 19:15:00 11.6 C 87 % 9.51 C
Sensor: Nr:Datum:Temp:Feuchte:Taupunkt:
Aussen-T/F 2376 16-05-2007 19:27:00 11.1 C 83 % 8.33 C
2377 16-05-2007 19:39:00 11.1 C 83 % 8.33 C
2378 16-05-2007 19:51:03 11.3 C 84 % 8.7 C
2379 16-05-2007 20:03:02 11.6 C 79 % 8.09 C
2380 16-05-2007 20:15:02 11.9 C 78 % 8.19 C
2381 16-05-2007 20:27:02 11.9 C 76 % 7.81 C
2382 16-05-2007 20:39:03 11.5 C 77 % 7.61 C
2383 16-05-2007 20:51:02 11.1 C 80 % 7.79 C
2384 16-05-2007 21:03:02 10.8 C 82 % 7.85 C
2385 16-05-2007 21:15:02 10.9 C 79 % 7.41 C
2386 16-05-2007 21:27:03 10.7 C 78 % 7.03 C
2387 16-05-2007 21:39:02 10.5 C 78 % 6.83 C
2388 16-05-2007 21:51:02 10.4 C 77 % 6.55 C
2389 16-05-2007 22:03:02 10.3 C 76 % 6.26 C
2390 16-05-2007 22:15:02 10.1 C 77 % 6.26 C
2391 16-05-2007 22:27:02 10.1 C 77 % 6.26 C
2392 16-05-2007 22:39:02 10.3 C 73 % 5.68 C
2393 16-05-2007 22:51:02 10.2 C 73 % 5.58 C
2394 16-05-2007 23:03:02 10 C 76 % 5.97 C
2395 16-05-2007 23:15:02 9.9 C 79 % 6.43 C
2396 16-05-2007 23:27:02 9.8 C 78 % 6.15 C
2397 16-05-2007 23:39:03 9.8 C 77 % 5.97 C
2398 16-05-2007 23:51:02 9.8 C 76 % 5.78 C
2399 17-05-2007 00:03:03 9.8 C 74 % 5.39 C
2400 17-05-2007 00:15:02 10.2 C 73 % 5.58 C
Sensor: Nr:Datum:Temp:Feuchte:Taupunkt:
Aussen-T/F 2401 17-05-2007 00:27:02 9.7 C 76 % 5.68 C
2402 17-05-2007 00:39:03 9.6 C 76 % 5.58 C
2403 17-05-2007 00:51:02 9.7 C 74 % 5.3 C
2404 17-05-2007 01:03:02 9.7 C 72 % 4.9 C
2405 17-05-2007 01:15:02 9.6 C 73 % 5.01 C
2406 17-05-2007 01:27:02 9.6 C 72 % 4.81 C
2407 17-05-2007 01:39:02 9.5 C 77 % 5.68 C
2408 17-05-2007 01:51:03 9.5 C 78 % 5.86 C
2409 17-05-2007 02:03:02 9.5 C 78 % 5.86 C
2410 17-05-2007 02:15:03 9.5 C 78 % 5.86 C
2411 17-05-2007 02:27:03 9.6 C 78 % 5.96 C
2412 17-05-2007 02:39:03 9.5 C 77 % 5.68 C
2413 17-05-2007 02:52:04 9.5 C 79 % 6.05 C
2414 17-05-2007 03:04:04 9.3 C 80 % 6.03 C
2415 17-05-2007 03:16:04 9.1 C 83 % 6.37 C
2416 17-05-2007 03:28:04 9 C 85 % 6.62 C
2417 17-05-2007 03:40:02 8.8 C 87 % 6.76 C
2418 17-05-2007 03:52:02 8.7 C 88 % 6.83 C
2419 17-05-2007 04:04:03 8.5 C 88 % 6.63 C
2420 17-05-2007 04:16:03 8.4 C 89 % 6.7 C
2421 17-05-2007 04:28:03 8.4 C 90 % 6.86 C
2422 17-05-2007 04:40:02 8.3 C 90 % 6.76 C
2423 17-05-2007 04:52:02 8.2 C 90 % 6.66 C
2424 17-05-2007 05:04:02 8.1 C 91 % 6.72 C
2425 17-05-2007 05:16:02 8.1 C 91 % 6.72 C
Sensor: Nr:Datum:Temp:Feuchte:Taupunkt:
Aussen-T/F 2426 17-05-2007 05:28:02 8 C 92 % 6.78 C
2427 17-05-2007 05:40:02 8.1 C 92 % 6.88 C
2428 17-05-2007 05:52:02 8.2 C 93 % 7.14 C
2429 17-05-2007 06:04:02 8.2 C 93 % 7.14 C
2430 17-05-2007 06:16:02 8.2 C 93 % 7.14 C
2431 17-05-2007 06:28:03 8.4 C 93 % 7.34 C
2432 17-05-2007 06:40:01 8.5 C 93 % 7.43 C
2433 17-05-2007 06:52:02 8.6 C 93 % 7.53 C
2434 17-05-2007 07:04:01 8.7 C 93 % 7.63 C
2435 17-05-2007 07:16:02 8.6 C 93 % 7.53 C
2436 17-05-2007 07:28:02 8.6 C 93 % 7.53 C
2437 17-05-2007 07:40:02 8.5 C 93 % 7.43 C
2438 17-05-2007 07:52:02 8.5 C 93 % 7.43 C
2439 17-05-2007 08:04:02 8.5 C 93 % 7.43 C
2440 17-05-2007 08:16:02 8.4 C 93 % 7.34 C
2441 17-05-2007 08:28:02 8.5 C 93 % 7.43 C
2442 17-05-2007 08:40:02 8.5 C 93 % 7.43 C
2443 17-05-2007 08:52:02 8.7 C 93 % 7.63 C
2444 17-05-2007 09:04:02 8.9 C 93 % 7.83 C
2445 17-05-2007 09:16:01 9.2 C 91 % 7.81 C
2446 17-05-2007 09:28:01 9.2 C 90 % 7.65 C
2447 17-05-2007 09:40:02 9.4 C 89 % 7.68 C
2448 17-05-2007 09:52:01 9.4 C 89 % 7.68 C
2449 17-05-2007 10:04:02 9.7 C 90 % 8.14 C
2450 17-05-2007 10:16:01 10.1 C 89 % 8.37 C
Sensor: Nr:Datum:Temp:Feuchte:Taupunkt:
Aussen-T/F 2451 17-05-2007 10:28:01 10.1 C 88 % 8.21 C
2452 17-05-2007 10:40:01 10 C 88 % 8.11 C
2453 17-05-2007 10:52:02 10 C 88 % 8.11 C
2454 17-05-2007 11:04:02 10.1 C 89 % 8.37 C
2455 17-05-2007 11:16:01 10.4 C 89 % 8.67 C
2456 17-05-2007 11:28:01 10.1 C 88 % 8.21 C
2457 17-05-2007 11:40:02 10.4 C 88 % 8.5 C
2458 17-05-2007 11:52:01 10.6 C 89 % 8.86 C
2459 17-05-2007 12:04:02 11 C 88 % 9.09 C
2460 17-05-2007 12:16:01 11.8 C 87 % 9.71 C
2461 17-05-2007 12:28:01 12.4 C 81 % 9.23 C
2462 17-05-2007 12:40:01 12.3 C 80 % 8.95 C
2463 17-05-2007 12:52:02 12.3 C 79 % 8.77 C
2464 17-05-2007 13:04:01 12.4 C 80 % 9.05 C
2465 17-05-2007 13:16:01 12.4 C 79 % 8.86 C
2466 17-05-2007 13:28:01 12.4 C 79 % 8.86 C
2467 17-05-2007 13:40:02 12.6 C 80 % 9.25 C
2468 17-05-2007 13:52:02 12.9 C 79 % 9.35 C
2469 17-05-2007 14:04:03 12.7 C 79 % 9.16 C
2470 17-05-2007 14:16:02 12.8 C 80 % 9.44 C
2471 17-05-2007 14:28:02 12.8 C 78 % 9.06 C
2472 17-05-2007 14:40:02 12.7 C 78 % 8.97 C
2473 17-05-2007 14:52:02 12.5 C 79 % 8.96 C
2474 17-05-2007 15:04:01 12.6 C 79 % 9.06 C
2475 17-05-2007 15:16:01 13.1 C 78 % 9.36 C
Sensor: Nr:Datum:Temp:Feuchte:Taupunkt:
Aussen-T/F 2476 17-05-2007 15:28:01 13.1 C 75 % 8.77 C
2477 17-05-2007 15:40:02 13.1 C 72 % 8.17 C
2478 17-05-2007 15:52:02 14.2 C 68 % 8.39 C
2479 17-05-2007 16:04:03 15.9 C 62 % 8.64 C
2480 17-05-2007 16:16:02 16.2 C 58 % 7.94 C
2481 17-05-2007 16:28:02 15.2 C 56 % 6.49 C
2482 17-05-2007 16:40:02 15.4 C 58 % 7.19 C
2483 17-05-2007 16:52:02 15.7 C 59 % 7.72 C
2484 17-05-2007 17:04:03 16 C 56 % 7.24 C
2485 17-05-2007 17:16:02 15.2 C 58 % 7 C
2486 17-05-2007 17:28:02 14.8 C 61 % 7.36 C
2487 17-05-2007 17:40:02 14.3 C 62 % 7.13 C
2488 17-05-2007 17:52:02 14.2 C 64 % 7.5 C
2489 17-05-2007 18:04:01 14.4 C 65 % 7.91 C
2490 17-05-2007 18:16:01 14.4 C 65 % 7.91 C
2491 17-05-2007 18:28:01 14.4 C 63 % 7.45 C
2492 17-05-2007 18:40:02 14.2 C 62 % 7.03 C
2493 17-05-2007 18:52:01 13.9 C 60 % 6.27 C
2494 17-05-2007 19:04:01 13.9 C 62 % 6.75 C
2495 17-05-2007 19:16:02 14 C 62 % 6.84 C
2496 17-05-2007 19:28:02 14.2 C 64 % 7.5 C
2497 17-05-2007 19:40:02 14.1 C 62 % 6.94 C
2498 17-05-2007 19:52:02 13.7 C 67 % 7.69 C
2499 17-05-2007 20:04:02 13.5 C 68 % 7.72 C
2500 17-05-2007 20:16:02 13.3 C 70 % 7.95 C
Sensor: Nr:Datum:Temp:Feuchte:Taupunkt:
Aussen-T/F 2501 17-05-2007 20:28:02 12.7 C 73 % 7.99 C
2502 17-05-2007 20:40:02 12.1 C 74 % 7.61 C
2503 17-05-2007 20:52:02 11.8 C 77 % 7.9 C
2504 17-05-2007 21:04:02 11.3 C 78 % 7.61 C
2505 17-05-2007 21:16:02 10.9 C 80 % 7.59 C
2506 17-05-2007 21:28:02 10.6 C 81 % 7.48 C
2507 17-05-2007 21:40:02 10.3 C 82 % 7.37 C
2508 17-05-2007 21:52:03 10.1 C 83 % 7.35 C
2509 17-05-2007 22:04:02 9.9 C 85 % 7.5 C
2510 17-05-2007 22:16:02 9.9 C 86 % 7.67 C
2511 17-05-2007 22:28:02 9.7 C 87 % 7.64 C
2512 17-05-2007 22:40:03 9.5 C 86 % 7.28 C
2513 17-05-2007 22:52:02 9.3 C 87 % 7.25 C
2514 17-05-2007 23:04:02 9.2 C 87 % 7.15 C
2515 17-05-2007 23:16:02 8.9 C 88 % 7.02 C
2516 17-05-2007 23:28:02 8.8 C 88 % 6.93 C
2517 17-05-2007 23:40:02 8.9 C 89 % 7.19 C
2518 17-05-2007 23:52:02 8.7 C 90 % 7.15 C
2519 18-05-2007 00:04:02 8.5 C 90 % 6.96 C
2520 18-05-2007 00:16:02 8.5 C 90 % 6.96 C
2521 18-05-2007 00:28:02 8.4 C 91 % 7.02 C
2522 18-05-2007 00:40:02 8.1 C 91 % 6.72 C
2523 18-05-2007 00:52:03 8.1 C 91 % 6.72 C
2524 18-05-2007 01:04:03 7.9 C 92 % 6.68 C
2525 18-05-2007 01:16:03 7.7 C 92 % 6.48 C
Sensor: Nr:Datum:Temp:Feuchte:Taupunkt:
Aussen-T/F 2526 18-05-2007 01:28:03 7.6 C 93 % 6.54 C
2527 18-05-2007 01:40:02 7.4 C 93 % 6.34 C
2528 18-05-2007 01:52:02 7.4 C 93 % 6.34 C
2529 18-05-2007 02:04:02 7.4 C 94 % 6.5 C
2530 18-05-2007 02:16:02 7.3 C 94 % 6.4 C
2531 18-05-2007 02:28:02 7.3 C 94 % 6.4 C
2532 18-05-2007 02:40:02 7.3 C 95 % 6.55 C
2533 18-05-2007 02:53:04 7.1 C 95 % 6.35 C
2534 18-05-2007 03:05:04 7 C 95 % 6.26 C
2535 18-05-2007 03:17:04 6.8 C 95 % 6.06 C
2536 18-05-2007 03:29:04 6.8 C 95 % 6.06 C
2537 18-05-2007 03:41:02 6.8 C 95 % 6.06 C
2538 18-05-2007 03:53:02 6.7 C 95 % 5.96 C
2539 18-05-2007 04:05:02 6.6 C 95 % 5.86 C
2540 18-05-2007 04:17:01 6.6 C 95 % 5.86 C
2541 18-05-2007 04:29:01 6.6 C 95 % 5.86 C
2542 18-05-2007 04:41:02 6.6 C 95 % 5.86 C
2543 18-05-2007 04:53:02 6.5 C 95 % 5.76 C
2544 18-05-2007 05:05:02 6.6 C 95 % 5.86 C
2545 18-05-2007 05:17:02 6.7 C 95 % 5.96 C
2546 18-05-2007 05:29:02 6.7 C 95 % 5.96 C
2547 18-05-2007 05:41:02 6.7 C 95 % 5.96 C
2548 18-05-2007 05:53:02 6.7 C 94 % 5.8 C
2549 18-05-2007 06:05:02 6.5 C 94 % 5.61 C
2550 18-05-2007 06:17:02 6.7 C 94 % 5.8 C
Sensor: Nr:Datum:Temp:Feuchte:Taupunkt:
Aussen-T/F 2551 18-05-2007 06:29:02 6.9 C 93 % 5.85 C
2552 18-05-2007 06:41:02 6.8 C 93 % 5.75 C
2553 18-05-2007 06:53:03 7 C 92 % 5.79 C
2554 18-05-2007 07:05:02 7.2 C 91 % 5.83 C
2555 18-05-2007 07:17:02 7.5 C 91 % 6.13 C
2556 18-05-2007 07:29:02 7.7 C 90 % 6.17 C
2557 18-05-2007 07:41:02 7.8 C 89 % 6.1 C
2558 18-05-2007 07:53:02 8.1 C 88 % 6.24 C
2559 18-05-2007 08:05:02 8.3 C 87 % 6.27 C
2560 18-05-2007 08:17:02 8.5 C 85 % 6.13 C
2561 18-05-2007 08:29:02 8.7 C 84 % 6.15 C
2562 18-05-2007 08:41:02 9 C 83 % 6.27 C
2563 18-05-2007 08:53:02 9.5 C 82 % 6.59 C
2564 18-05-2007 09:05:02 10.1 C 79 % 6.63 C
2565 18-05-2007 09:17:02 11 C 78 % 7.32 C
2566 18-05-2007 09:29:02 11 C 74 % 6.55 C
2567 18-05-2007 09:41:02 11.4 C 72 % 6.54 C
2568 18-05-2007 09:53:01 11 C 74 % 6.55 C
2569 18-05-2007 10:05:02 11.3 C 75 % 7.04 C
2570 18-05-2007 10:17:02 12.1 C 74 % 7.61 C
2571 18-05-2007 10:29:03 12.9 C 73 % 8.18 C
2572 18-05-2007 10:41:01 13.7 C 69 % 8.12 C
2573 18-05-2007 10:53:02 14 C 66 % 7.76 C
2574 18-05-2007 11:05:01 14.7 C 63 % 7.74 C
2575 18-05-2007 11:17:02 15.3 C 61 % 7.83 C
Sensor: Nr:Datum:Temp:Feuchte:Taupunkt:
Aussen-T/F 2576 18-05-2007 11:29:02 15.5 C 58 % 7.28 C
2577 18-05-2007 11:41:02 16.1 C 56 % 7.33 C
2578 18-05-2007 11:53:02 16.8 C 54 % 7.45 C
2579 18-05-2007 12:05:02 16.7 C 52 % 6.81 C
2580 18-05-2007 12:17:02 17.7 C 48 % 6.56 C
2581 18-05-2007 12:29:02 17.9 C 47 % 6.44 C
2582 18-05-2007 12:41:02 18.7 C 45 % 6.54 C
2583 18-05-2007 12:53:02 18.7 C 45 % 6.54 C
2584 18-05-2007 13:05:01 19.6 C 42 % 6.35 C
2585 18-05-2007 13:17:02 19.9 C 41 % 6.27 C
2586 18-05-2007 13:29:02 20.8 C 39 % 6.35 C
2587 18-05-2007 13:41:02 20.6 C 40 % 6.54 C
2588 18-05-2007 13:53:03 20.8 C 38 % 5.97 C
2589 18-05-2007 14:05:02 20.4 C 40 % 6.36 C
2590 18-05-2007 14:17:02 20.5 C 38 % 5.71 C
2591 18-05-2007 14:29:02 20.5 C 37 % 5.32 C
2592 18-05-2007 14:41:02 21.2 C 36 % 5.55 C
2593 18-05-2007 14:53:02 21 C 38 % 6.15 C
2594 18-05-2007 15:05:02 21.4 C 39 % 6.89 C
2595 18-05-2007 15:17:02 21.2 C 40 % 7.08 C
2596 18-05-2007 15:29:02 21.3 C 38 % 6.42 C
2597 18-05-2007 15:41:02 21.8 C 39 % 7.24 C
2598 18-05-2007 15:53:01 22.3 C 36 % 6.52 C
2599 18-05-2007 16:05:02 22 C 35 % 5.85 C
2600 18-05-2007 16:17:02 22.1 C 35 % 5.94 C
Sensor: Nr:Datum:Temp:Feuchte:Taupunkt:
Aussen-T/F 2601 18-05-2007 16:29:02 22.7 C 36 % 6.87 C
2602 18-05-2007 16:41:01 22.5 C 36 % 6.7 C
2603 18-05-2007 16:53:02 22.1 C 38 % 7.13 C
2604 18-05-2007 17:05:01 22.3 C 38 % 7.31 C
2605 18-05-2007 17:17:02 23.3 C 36 % 7.4 C
2606 18-05-2007 17:29:02 23.4 C 36 % 7.49 C
2607 18-05-2007 17:41:02 23.6 C 35 % 7.25 C
2608 18-05-2007 17:53:03 23.9 C 35 % 7.52 C
2609 18-05-2007 18:05:02 23.8 C 35 % 7.43 C
2610 18-05-2007 18:17:02 23.4 C 36 % 7.49 C
2611 18-05-2007 18:29:02 23.4 C 36 % 7.49 C
2612 18-05-2007 18:41:03 23.3 C 36 % 7.4 C
2613 18-05-2007 18:53:02 22.8 C 38 % 7.75 C
2614 18-05-2007 19:05:02 22.8 C 38 % 7.75 C
2615 18-05-2007 19:17:02 22.7 C 39 % 8.04 C
2616 18-05-2007 19:29:02 23.1 C 38 % 8.02 C
2617 18-05-2007 19:41:02 23 C 38 % 7.93 C
2618 18-05-2007 19:53:02 22.7 C 38 % 7.66 C
2619 18-05-2007 20:05:02 22.8 C 40 % 8.5 C
2620 18-05-2007 20:17:02 22.5 C 41 % 8.6 C
2621 18-05-2007 20:29:02 21.9 C 44 % 9.1 C
2622 18-05-2007 20:41:02 20.7 C 46 % 8.67 C
2623 18-05-2007 20:53:02 19.7 C 51 % 9.29 C
2624 18-05-2007 21:05:02 19.1 C 54 % 9.58 C
2625 18-05-2007 21:17:01 18.3 C 57 % 9.64 C
Sensor: Nr:Datum:Temp:Feuchte:Taupunkt:
Aussen-T/F 2626 18-05-2007 21:29:01 18 C 57 % 9.36 C
2627 18-05-2007 21:41:02 17.8 C 59 % 9.69 C
2628 18-05-2007 21:53:01 17.7 C 59 % 9.59 C
2629 18-05-2007 22:05:02 17.5 C 60 % 9.66 C
2630 18-05-2007 22:17:01 17.4 C 60 % 9.56 C
2631 18-05-2007 22:29:01 17.2 C 61 % 9.62 C
2632 18-05-2007 22:41:01 17 C 62 % 9.67 C
2633 18-05-2007 22:53:02 16.9 C 64 % 10.05 C
2634 18-05-2007 23:05:01 16.6 C 65 % 10 C
2635 18-05-2007 23:17:02 16.3 C 66 % 9.94 C
2636 18-05-2007 23:29:02 16.2 C 67 % 10.07 C
2637 18-05-2007 23:41:02 15.6 C 71 % 10.37 C
2638 18-05-2007 23:53:02 15.3 C 72 % 10.29 C
2639 19-05-2007 00:05:02 15.1 C 73 % 10.3 C
2640 19-05-2007 00:17:03 14.8 C 74 % 10.22 C
2641 19-05-2007 00:29:03 14.8 C 75 % 10.42 C
2642 19-05-2007 00:41:02 14.7 C 75 % 10.32 C
2643 19-05-2007 00:53:02 14.7 C 76 % 10.52 C
2644 19-05-2007 01:05:02 14.3 C 76 % 10.13 C
2645 19-05-2007 01:17:02 14.1 C 77 % 10.13 C
2646 19-05-2007 01:29:02 14.1 C 77 % 10.13 C
2647 19-05-2007 01:41:02 14 C 78 % 10.23 C
2648 19-05-2007 01:53:03 13.7 C 79 % 10.13 C
2649 19-05-2007 02:05:02 13.7 C 80 % 10.32 C
2650 19-05-2007 02:17:03 13.7 C 81 % 10.5 C
Sensor: Nr:Datum:Temp:Feuchte:Taupunkt:
Aussen-T/F 2651 19-05-2007 02:29:03 13.6 C 81 % 10.4 C
2652 19-05-2007 02:41:02 13.5 C 80 % 10.12 C
2653 19-05-2007 02:54:03 13.5 C 81 % 10.31 C
2654 19-05-2007 03:06:03 13.5 C 81 % 10.31 C
2655 19-05-2007 03:18:04 13.5 C 81 % 10.31 C
2656 19-05-2007 03:30:04 13.5 C 82 % 10.49 C
2657 19-05-2007 03:42:03 13.5 C 82 % 10.49 C
2658 19-05-2007 03:54:03 13.7 C 81 % 10.5 C
2659 19-05-2007 04:06:02 13.7 C 81 % 10.5 C
2660 19-05-2007 04:18:02 13.7 C 80 % 10.32 C
2661 19-05-2007 04:30:02 13.5 C 80 % 10.12 C
2662 19-05-2007 04:42:03 13.3 C 81 % 10.11 C
2663 19-05-2007 04:54:01 13.3 C 81 % 10.11 C
2664 19-05-2007 05:06:01 13.5 C 82 % 10.49 C
2665 19-05-2007 05:18:02 13.5 C 81 % 10.31 C
2666 19-05-2007 05:30:02 13.2 C 83 % 10.38 C
2667 19-05-2007 05:42:02 13.4 C 85 % 10.93 C
2668 19-05-2007 05:54:01 13.4 C 85 % 10.93 C
2669 19-05-2007 06:06:02 13.3 C 86 % 11.01 C
2670 19-05-2007 06:18:02 13.3 C 87 % 11.18 C
2671 19-05-2007 06:30:02 13.5 C 88 % 11.55 C
2672 19-05-2007 06:42:01 13.7 C 88 % 11.75 C
2673 19-05-2007 06:54:02 14 C 87 % 11.87 C
2674 19-05-2007 07:06:01 14.1 C 86 % 11.8 C
2675 19-05-2007 07:18:02 14.1 C 86 % 11.8 C
Sensor: Nr:Datum:Temp:Feuchte:Taupunkt:
Aussen-T/F 2676 19-05-2007 07:30:02 14.4 C 86 % 12.09 C
2677 19-05-2007 07:42:02 14.5 C 86 % 12.19 C
2678 19-05-2007 07:54:03 14.4 C 86 % 12.09 C
2679 19-05-2007 08:06:02 14.4 C 86 % 12.09 C
2680 19-05-2007 08:18:02 14.4 C 86 % 12.09 C
2681 19-05-2007 08:30:02 14.7 C 87 % 12.56 C
2682 19-05-2007 08:42:03 14.7 C 87 % 12.56 C
2683 19-05-2007 08:54:02 14.7 C 87 % 12.56 C
2684 19-05-2007 09:06:02 14.7 C 87 % 12.56 C
2685 19-05-2007 09:18:02 14.8 C 87 % 12.66 C
2686 19-05-2007 09:30:02 15 C 84 % 12.32 C
2687 19-05-2007 09:42:02 15.4 C 83 % 12.53 C
2688 19-05-2007 09:54:01 16 C 82 % 12.93 C
2689 19-05-2007 10:06:02 16.6 C 79 % 12.95 C
2690 19-05-2007 10:18:03 16.7 C 77 % 12.65 C
2691 19-05-2007 10:30:03 17.4 C 73 % 12.51 C
2692 19-05-2007 10:42:02 17.9 C 70 % 12.35 C
2693 19-05-2007 10:54:01 18.2 C 68 % 12.2 C
2694 19-05-2007 11:06:02 18.3 C 67 % 12.07 C
2695 19-05-2007 11:18:02 18.6 C 66 % 12.13 C
2696 19-05-2007 11:30:02 18.6 C 65 % 11.9 C
2697 19-05-2007 11:42:01 18.4 C 66 % 11.94 C
2698 19-05-2007 11:54:02 18.4 C 68 % 12.39 C
2699 19-05-2007 12:06:02 19.1 C 64 % 12.14 C
2700 19-05-2007 12:18:02 20 C 59 % 11.75 C
Sensor: Nr:Datum:Temp:Feuchte:Taupunkt:
Aussen-T/F 2701 19-05-2007 12:30:02 20.9 C 56 % 11.8 C
2702 19-05-2007 12:42:01 22.1 C 52 % 11.79 C
2703 19-05-2007 12:54:02 22.4 C 52 % 12.07 C
2704 19-05-2007 13:06:01 22 C 53 % 11.99 C
2705 19-05-2007 13:18:02 21.2 C 56 % 12.08 C
2706 19-05-2007 13:30:02 21.6 C 55 % 12.18 C
2707 19-05-2007 13:42:02 22.1 C 55 % 12.64 C
2708 19-05-2007 13:54:03 22.8 C 51 % 12.14 C
2709 19-05-2007 14:06:03 22 C 51 % 11.4 C
2710 19-05-2007 14:18:02 22.4 C 50 % 11.47 C
2711 19-05-2007 14:30:03 22 C 50 % 11.11 C
2712 19-05-2007 14:42:02 23 C 48 % 11.41 C
2713 19-05-2007 14:54:02 22.7 C 48 % 11.13 C
2714 19-05-2007 15:06:02 23.5 C 48 % 11.86 C
2715 19-05-2007 15:18:01 24.2 C 45 % 11.52 C
2716 19-05-2007 15:30:01 24.8 C 43 % 11.38 C
2717 19-05-2007 15:42:01 24.6 C 42 % 10.84 C
2718 19-05-2007 15:54:01 24.8 C 42 % 11.02 C
2719 19-05-2007 16:06:01 25.5 C 39 % 10.53 C
2720 19-05-2007 16:18:02 25.1 C 38 % 9.79 C
2721 19-05-2007 16:30:02 24.5 C 42 % 10.75 C
2722 19-05-2007 16:42:01 25.2 C 39 % 10.27 C
2723 19-05-2007 16:54:02 25 C 40 % 10.47 C
2724 19-05-2007 17:06:02 24.3 C 42 % 10.57 C
2725 19-05-2007 17:18:01 24.9 C 40 % 10.38 C
Sensor: Nr:Datum:Temp:Feuchte:Taupunkt:
Aussen-T/F 2726 19-05-2007 17:30:01 24.6 C 39 % 9.73 C
2727 19-05-2007 17:42:02 24.6 C 40 % 10.11 C
2728 19-05-2007 17:54:01 25.2 C 36 % 9.08 C
2729 19-05-2007 18:06:01 23.7 C 47 % 11.73 C
2730 19-05-2007 18:18:02 23.5 C 49 % 12.17 C
2731 19-05-2007 18:30:02 25.1 C 44 % 12 C
2732 19-05-2007 18:42:02 24.9 C 42 % 11.11 C
2733 19-05-2007 18:54:01 25.3 C 41 % 11.11 C
2734 19-05-2007 19:06:03 25.8 C 40 % 11.18 C
2735 19-05-2007 19:18:02 26.5 C 37 % 10.63 C
2736 19-05-2007 19:30:02 26.4 C 38 % 10.94 C
2737 19-05-2007 19:42:02 26.1 C 38 % 10.68 C
2738 19-05-2007 19:54:02 25 C 40 % 10.47 C
2739 19-05-2007 20:06:02 23.3 C 46 % 11.04 C
2740 19-05-2007 20:18:02 22.5 C 49 % 11.26 C
2741 19-05-2007 20:30:02 22.2 C 50 % 11.29 C
2742 19-05-2007 20:42:02 21.9 C 52 % 11.61 C
2743 19-05-2007 20:54:02 21.5 C 53 % 11.52 C
2744 19-05-2007 21:06:02 21 C 56 % 11.89 C
2745 19-05-2007 21:18:02 20.4 C 58 % 11.86 C
2746 19-05-2007 21:30:02 19.7 C 61 % 11.97 C
2747 19-05-2007 21:42:02 19.5 C 62 % 12.03 C
2748 19-05-2007 21:54:01 19.3 C 63 % 12.09 C
2749 19-05-2007 22:06:02 19 C 63 % 11.8 C
2750 19-05-2007 22:18:02 18.6 C 66 % 12.13 C
Sensor: Nr:Datum:Temp:Feuchte:Taupunkt:
Aussen-T/F 2751 19-05-2007 22:30:02 18.5 C 66 % 12.03 C
2752 19-05-2007 22:42:01 18.2 C 67 % 11.98 C
2753 19-05-2007 22:54:02 18.1 C 68 % 12.11 C
2754 19-05-2007 23:06:01 17.9 C 69 % 12.14 C
2755 19-05-2007 23:18:02 18 C 68 % 12.01 C
2756 19-05-2007 23:30:02 18 C 68 % 12.01 C
2757 19-05-2007 23:42:02 17.9 C 70 % 12.35 C
2758 19-05-2007 23:54:02 17.7 C 71 % 12.38 C
2759 20-05-2007 00:06:02 17.7 C 71 % 12.38 C
2760 20-05-2007 00:18:02 17.5 C 70 % 11.97 C
2761 20-05-2007 00:30:02 17.3 C 71 % 12 C
2762 20-05-2007 00:42:03 17.3 C 71 % 12 C
2763 20-05-2007 00:54:02 16.9 C 72 % 11.82 C
2764 20-05-2007 01:06:02 16.6 C 72 % 11.54 C
2765 20-05-2007 01:18:02 16.6 C 73 % 11.74 C
2766 20-05-2007 01:30:02 16.4 C 73 % 11.55 C
2767 20-05-2007 01:42:02 16.1 C 74 % 11.47 C
2768 20-05-2007 01:54:02 15.8 C 75 % 11.38 C
2769 20-05-2007 02:06:02 15.7 C 76 % 11.48 C
2770 20-05-2007 02:18:03 15.8 C 76 % 11.58 C
2771 20-05-2007 02:30:03 16 C 76 % 11.77 C
2772 20-05-2007 02:42:02 15.9 C 78 % 12.07 C
2773 20-05-2007 02:55:03 16 C 77 % 11.97 C
2774 20-05-2007 03:07:03 16.1 C 76 % 11.87 C
2775 20-05-2007 03:19:04 16 C 76 % 11.77 C
Sensor: Nr:Datum:Temp:Feuchte:Taupunkt:
Aussen-T/F 2776 20-05-2007 03:31:02 16 C 75 % 11.57 C
2777 20-05-2007 03:43:02 15.9 C 75 % 11.48 C
2778 20-05-2007 03:55:03 15.9 C 74 % 11.28 C
2779 20-05-2007 04:07:02 15.5 C 72 % 10.48 C
2780 20-05-2007 04:19:03 15.5 C 72 % 10.48 C
2781 20-05-2007 04:31:03 15.2 C 73 % 10.4 C
2782 20-05-2007 04:43:03 15.1 C 73 % 10.3 C
2783 20-05-2007 04:55:02 15 C 73 % 10.2 C
2784 20-05-2007 05:07:02 14.9 C 74 % 10.31 C
2785 20-05-2007 05:19:02 14.7 C 74 % 10.12 C
2786 20-05-2007 05:31:02 14.3 C 75 % 9.93 C
2787 20-05-2007 05:43:02 14.3 C 75 % 9.93 C
2788 20-05-2007 05:55:01 14.2 C 76 % 10.03 C
2789 20-05-2007 06:07:02 14.3 C 77 % 10.33 C
2790 20-05-2007 06:19:02 14.5 C 76 % 10.32 C
2791 20-05-2007 06:31:01 14.8 C 76 % 10.61 C
2792 20-05-2007 06:43:01 15 C 75 % 10.61 C
2793 20-05-2007 06:55:02 15.1 C 74 % 10.5 C
2794 20-05-2007 07:07:02 14.9 C 73 % 10.11 C
2795 20-05-2007 07:19:01 14.9 C 73 % 10.11 C
2796 20-05-2007 07:31:02 14.9 C 73 % 10.11 C
2797 20-05-2007 07:43:02 15.3 C 72 % 10.29 C
2798 20-05-2007 07:55:01 15.8 C 69 % 10.13 C
2799 20-05-2007 08:07:02 16.1 C 67 % 9.98 C
2800 20-05-2007 08:19:01 16.2 C 66 % 9.85 C
Sensor: Nr:Datum:Temp:Feuchte:Taupunkt:
Aussen-T/F 2801 20-05-2007 08:31:01 16.7 C 66 % 10.32 C
2802 20-05-2007 08:43:01 17.1 C 64 % 10.24 C
2803 20-05-2007 08:55:02 17.9 C 63 % 10.76 C
2804 20-05-2007 09:07:02 18.7 C 60 % 10.78 C
2805 20-05-2007 09:19:02 18.7 C 60 % 10.78 C
2806 20-05-2007 09:31:02 19.1 C 59 % 10.91 C
2807 20-05-2007 09:43:02 19.7 C 58 % 11.21 C
2808 20-05-2007 09:55:02 20.3 C 56 % 11.24 C
2809 20-05-2007 10:07:02 20.9 C 54 % 11.25 C
2810 20-05-2007 10:19:02 20.9 C 55 % 11.53 C
2811 20-05-2007 10:31:03 20.5 C 57 % 11.7 C
2812 20-05-2007 10:43:03 20.8 C 57 % 11.97 C
2813 20-05-2007 10:55:01 21.7 C 54 % 11.99 C
2814 20-05-2007 11:07:02 22.2 C 51 % 11.59 C
2815 20-05-2007 11:19:02 22 C 52 % 11.7 C
2816 20-05-2007 11:31:01 22.5 C 54 % 12.73 C
2817 20-05-2007 11:43:01 23.2 C 51 % 12.51 C
2818 20-05-2007 11:55:02 24.5 C 48 % 12.77 C
2819 20-05-2007 12:07:02 25 C 45 % 12.25 C
2820 20-05-2007 12:19:01 26.1 C 42 % 12.19 C
2821 20-05-2007 12:31:02 27 C 39 % 11.87 C
2822 20-05-2007 12:43:02 27.2 C 36 % 10.84 C
2823 20-05-2007 12:55:02 27.6 C 34 % 10.33 C
2824 20-05-2007 13:07:01 27.8 C 28 % 7.63 C
2825 20-05-2007 13:19:02 28 C 26 % 6.72 C
Sensor: Nr:Datum:Temp:Feuchte:Taupunkt:
Aussen-T/F 2826 20-05-2007 13:31:01 29.1 C 26 % 7.65 C
2827 20-05-2007 13:43:01 28.5 C 28 % 8.23 C
2828 20-05-2007 13:55:02 29.4 C 25 % 7.33 C
2829 20-05-2007 14:07:02 30 C 22 % 5.97 C
2830 20-05-2007 14:19:02 29.5 C 21 % 4.89 C
2831 20-05-2007 14:31:02 29.8 C 21 % 5.14 C
2832 20-05-2007 14:43:02 29.8 C 20 % 4.44 C
2833 20-05-2007 14:55:01 30.6 C 20 % 5.1 C
2834 20-05-2007 15:07:02 30.3 C 20 % 4.85 C
2835 20-05-2007 15:19:02 30.3 C 20 % 4.85 C
2836 20-05-2007 15:31:01 30.7 C 20 % 5.18 C
2837 20-05-2007 15:43:01 30.7 C 20 % 5.18 C
2838 20-05-2007 15:55:02 30 C 27 % 8.97 C
2839 20-05-2007 16:07:02 29.5 C 27 % 8.54 C
2840 20-05-2007 16:19:02 29.9 C 24 % 7.15 C
2841 20-05-2007 16:31:02 31 C 22 % 6.8 C
2842 20-05-2007 16:43:02 31 C 20 % 5.42 C
2843 20-05-2007 16:55:01 30.6 C 23 % 7.12 C
2844 20-05-2007 17:07:02 30.4 C 24 % 7.57 C
2845 20-05-2007 17:19:02 30.2 C 28 % 9.68 C
2846 20-05-2007 17:31:02 29.8 C 31 % 10.86 C
2847 20-05-2007 17:43:02 29.1 C 32 % 10.73 C
2848 20-05-2007 17:55:02 28.5 C 31 % 9.73 C
2849 20-05-2007 18:07:02 29.1 C 32 % 10.73 C
2850 20-05-2007 18:19:02 30.3 C 25 % 8.09 C
Sensor: Nr:Datum:Temp:Feuchte:Taupunkt:
Aussen-T/F 2851 20-05-2007 18:31:02 30.7 C 20 % 5.18 C
2852 20-05-2007 18:43:02 30 C 27 % 8.97 C
2853 20-05-2007 18:55:01 29.3 C 30 % 9.94 C
2854 20-05-2007 19:07:02 28.1 C 32 % 9.86 C
2855 20-05-2007 19:19:02 27.2 C 32 % 9.08 C
2856 20-05-2007 19:31:01 26.5 C 35 % 9.8 C
2857 20-05-2007 19:43:01 25.4 C 33 % 7.97 C
2858 20-05-2007 19:55:02 24.7 C 34 % 7.8 C
2859 20-05-2007 20:07:01 24.4 C 37 % 8.78 C
2860 20-05-2007 20:19:02 24 C 35 % 7.61 C
2861 20-05-2007 20:31:02 23.6 C 37 % 8.07 C
2862 20-05-2007 20:43:02 23.3 C 37 % 7.8 C
2863 20-05-2007 20:55:02 23.1 C 38 % 8.02 C
2864 20-05-2007 21:07:02 22.8 C 39 % 8.13 C
2865 20-05-2007 21:19:02 22.8 C 40 % 8.5 C
2866 20-05-2007 21:31:02 22.5 C 40 % 8.24 C
2867 20-05-2007 21:43:02 22.4 C 40 % 8.15 C
2868 20-05-2007 21:55:01 22.3 C 41 % 8.42 C
2869 20-05-2007 22:07:02 22.2 C 42 % 8.69 C
2870 20-05-2007 22:19:02 22 C 42 % 8.51 C
2871 20-05-2007 22:31:01 21.9 C 42 % 8.42 C
2872 20-05-2007 22:43:01 22 C 41 % 8.15 C
2873 20-05-2007 22:55:02 22 C 42 % 8.51 C
2874 20-05-2007 23:07:01 22 C 40 % 7.79 C
2875 20-05-2007 23:19:02 21.5 C 46 % 9.4 C
Sensor: Nr:Datum:Temp:Feuchte:Taupunkt:
Aussen-T/F 2876 20-05-2007 23:31:02 20.7 C 51 % 10.21 C
2877 20-05-2007 23:43:02 20.9 C 50 % 10.1 C
2878 20-05-2007 23:55:03 20.7 C 50 % 9.91 C
2879 21-05-2007 00:07:03 20.8 C 52 % 10.59 C
2880 21-05-2007 00:19:03 20.7 C 50 % 9.91 C
2881 21-05-2007 00:31:02 20.6 C 51 % 10.12 C
2882 21-05-2007 00:43:02 20.5 C 51 % 10.02 C
2883 21-05-2007 00:55:02 20 C 53 % 10.14 C
2884 21-05-2007 01:07:02 19.7 C 55 % 10.41 C
2885 21-05-2007 01:19:03 19.6 C 55 % 10.32 C
2886 21-05-2007 01:31:03 19.3 C 55 % 10.04 C
2887 21-05-2007 01:43:03 18.9 C 55 % 9.67 C
2888 21-05-2007 01:55:02 18.7 C 54 % 9.21 C
2889 21-05-2007 02:07:01 18.4 C 55 % 9.2 C
2890 21-05-2007 02:19:01 18.2 C 56 % 9.29 C
2891 21-05-2007 02:31:01 18 C 57 % 9.36 C
2892 21-05-2007 02:43:01 17.8 C 59 % 9.69 C
2893 21-05-2007 02:55:02 17.5 C 60 % 9.66 C
2894 21-05-2007 03:07:02 17.4 C 63 % 10.29 C
2895 21-05-2007 03:19:02 17.3 C 63 % 10.2 C
2896 21-05-2007 03:31:02 17 C 65 % 10.38 C
2897 21-05-2007 03:43:02 16.9 C 67 % 10.74 C
2898 21-05-2007 03:55:02 16.8 C 67 % 10.64 C
2899 21-05-2007 04:07:02 16.6 C 67 % 10.45 C
2900 21-05-2007 04:19:02 16.4 C 68 % 10.48 C
Sensor: Nr:Datum:Temp:Feuchte:Taupunkt:
Aussen-T/F 2901 21-05-2007 04:31:01 16.3 C 72 % 11.25 C
2902 21-05-2007 04:43:01 16.2 C 74 % 11.56 C
2903 21-05-2007 04:55:02 16 C 75 % 11.57 C
2904 21-05-2007 05:07:02 15.8 C 77 % 11.78 C
2905 21-05-2007 05:19:02 15.7 C 77 % 11.68 C
2906 21-05-2007 05:31:02 15.6 C 76 % 11.39 C
2907 21-05-2007 05:43:02 15.6 C 76 % 11.39 C
2908 21-05-2007 05:55:02 15.6 C 77 % 11.59 C
2909 21-05-2007 06:07:02 15.6 C 78 % 11.78 C
2910 21-05-2007 06:19:01 15.6 C 79 % 11.97 C
2911 21-05-2007 06:31:02 15.6 C 79 % 11.97 C
2912 21-05-2007 06:43:02 15.5 C 79 % 11.88 C
2913 21-05-2007 06:55:01 15.6 C 79 % 11.97 C
2914 21-05-2007 07:07:02 16 C 78 % 12.17 C
2915 21-05-2007 07:19:02 16.4 C 78 % 12.56 C
2916 21-05-2007 07:31:01 16.7 C 77 % 12.65 C
2917 21-05-2007 07:43:01 16.9 C 76 % 12.65 C
2918 21-05-2007 07:55:02 17.2 C 74 % 12.53 C
2919 21-05-2007 08:07:01 17.7 C 73 % 12.8 C
2920 21-05-2007 08:19:01 17.8 C 73 % 12.9 C
2921 21-05-2007 08:31:02 18.1 C 71 % 12.76 C
2922 21-05-2007 08:43:02 18.6 C 70 % 13.02 C
2923 21-05-2007 08:55:01 19.3 C 68 % 13.25 C
2924 21-05-2007 09:07:02 19.9 C 68 % 13.82 C
2925 21-05-2007 09:19:02 20.5 C 66 % 13.93 C
Sensor: Nr:Datum:Temp:Feuchte:Taupunkt:
Aussen-T/F 2926 21-05-2007 09:31:01 20.8 C 65 % 13.98 C
2927 21-05-2007 09:43:01 20.4 C 66 % 13.84 C
2928 21-05-2007 09:55:02 20.7 C 67 % 14.36 C
2929 21-05-2007 10:07:01 21 C 64 % 13.93 C
2930 21-05-2007 10:19:01 21.5 C 62 % 13.92 C
2931 21-05-2007 10:31:02 22.2 C 60 % 14.07 C
2932 21-05-2007 10:43:02 22.6 C 56 % 13.38 C
2933 21-05-2007 10:55:01 23 C 54 % 13.2 C
2934 21-05-2007 11:07:02 23.2 C 52 % 12.8 C
2935 21-05-2007 11:19:01 23.3 C 52 % 12.9 C
2936 21-05-2007 11:31:02 23.7 C 49 % 12.36 C
2937 21-05-2007 11:43:02 24.3 C 47 % 12.27 C
2938 21-05-2007 11:55:01 24.3 C 45 % 11.61 C
2939 21-05-2007 12:07:01 25 C 42 % 11.2 C
2940 21-05-2007 12:19:02 25.4 C 40 % 10.83 C
2941 21-05-2007 12:31:01 25.6 C 39 % 10.62 C
2942 21-05-2007 12:43:01 26.6 C 37 % 10.72 C
2943 21-05-2007 12:55:02 26.5 C 36 % 10.22 C
2944 21-05-2007 13:07:01 27.4 C 35 % 10.59 C
2945 21-05-2007 13:19:01 28.2 C 33 % 10.41 C
2946 21-05-2007 13:31:02 28.5 C 33 % 10.67 C
2947 21-05-2007 13:43:02 28.5 C 32 % 10.21 C
2948 21-05-2007 13:55:01 28.5 C 33 % 10.67 C
2949 21-05-2007 14:07:01 28.5 C 34 % 11.12 C
2950 21-05-2007 14:19:02 28.5 C 36 % 11.98 C
Sensor: Nr:Datum:Temp:Feuchte:Taupunkt:
Aussen-T/F 2951 21-05-2007 14:31:01 29 C 35 % 11.99 C
2952 21-05-2007 14:43:01 29.1 C 34 % 11.64 C
2953 21-05-2007 14:55:02 30 C 33 % 11.97 C
2954 21-05-2007 15:07:01 30 C 33 % 11.97 C
2955 21-05-2007 15:19:01 30.4 C 32 % 11.85 C
2956 21-05-2007 15:31:02 30.4 C 32 % 11.85 C
2957 21-05-2007 15:43:02 30.7 C 31 % 11.63 C
2958 21-05-2007 15:55:01 31.2 C 29 % 11.06 C
2959 21-05-2007 16:07:02 31.3 C 28 % 10.62 C
2960 21-05-2007 16:19:02 31.2 C 27 % 9.99 C
2961 21-05-2007 16:31:01 31.7 C 26 % 9.85 C
2962 21-05-2007 16:43:01 31.6 C 25 % 9.18 C
2963 21-05-2007 16:55:02 31.5 C 25 % 9.1 C
2964 21-05-2007 17:07:02 31.8 C 25 % 9.35 C
2965 21-05-2007 17:19:01 31.6 C 25 % 9.18 C
2966 21-05-2007 17:31:02 31.4 C 27 % 10.16 C
2967 21-05-2007 17:43:02 31.9 C 27 % 10.58 C
2968 21-05-2007 17:55:01 31.8 C 28 % 11.04 C
2969 21-05-2007 18:07:02 31.6 C 27 % 10.33 C
2970 21-05-2007 18:19:02 32.6 C 27 % 11.17 C
2971 21-05-2007 18:31:01 31.8 C 29 % 11.57 C
2972 21-05-2007 18:43:01 30.6 C 35 % 13.39 C
2973 21-05-2007 18:55:02 25.7 C 67 % 19.11 C
2974 21-05-2007 19:07:02 23.7 C 79 % 19.84 C
2975 21-05-2007 19:19:02 24.1 C 76 % 19.6 C
Sensor: Nr:Datum:Temp:Feuchte:Taupunkt:
Aussen-T/F 2976 21-05-2007 19:31:01 24.5 C 73 % 19.34 C
2977 21-05-2007 19:43:01 24.5 C 71 % 18.89 C
2978 21-05-2007 19:55:01 25.2 C 68 % 18.87 C
2979 21-05-2007 20:07:02 24.9 C 69 % 18.82 C
2980 21-05-2007 20:19:02 24.5 C 69 % 18.44 C
2981 21-05-2007 20:31:01 23.6 C 71 % 18.03 C
2982 21-05-2007 20:43:01 23.3 C 72 % 17.97 C
2983 21-05-2007 20:55:02 23 C 69 % 17.01 C
2984 21-05-2007 21:07:01 22.9 C 70 % 17.14 C
2985 21-05-2007 21:19:01 22.5 C 69 % 16.53 C
2986 21-05-2007 21:31:02 22.3 C 68 % 16.11 C
2987 21-05-2007 21:43:02 22 C 69 % 16.05 C
2988 21-05-2007 21:55:01 21.2 C 72 % 15.95 C
2989 21-05-2007 22:07:01 21.1 C 71 % 15.64 C
2990 21-05-2007 22:19:01 21 C 70 % 15.32 C
2991 21-05-2007 22:31:01 21.1 C 71 % 15.64 C
2992 21-05-2007 22:43:01 21.1 C 73 % 16.07 C
2993 21-05-2007 22:55:02 21 C 74 % 16.19 C
2994 21-05-2007 23:07:01 20.9 C 75 % 16.3 C
2995 21-05-2007 23:19:01 20.7 C 76 % 16.32 C
2996 21-05-2007 23:31:02 20.6 C 76 % 16.22 C
2997 21-05-2007 23:43:02 20.3 C 76 % 15.93 C
2998 21-05-2007 23:55:01 20 C 77 % 15.85 C
2999 22-05-2007 00:07:02 20 C 76 % 15.64 C
3000 22-05-2007 00:19:02 19.8 C 77 % 15.65 C
Sensor: Nr:Datum:Temp:Feuchte:Taupunkt:
Aussen-T/F 3001 22-05-2007 00:31:02 19.7 C 78 % 15.76 C
3002 22-05-2007 00:43:02 19.7 C 78 % 15.76 C
3003 22-05-2007 00:55:02 19.6 C 78 % 15.66 C
3004 22-05-2007 01:07:01 19.6 C 77 % 15.46 C
3005 22-05-2007 01:19:02 19.6 C 78 % 15.66 C
3006 22-05-2007 01:31:02 19.5 C 78 % 15.56 C
3007 22-05-2007 01:43:02 19.6 C 78 % 15.66 C
3008 22-05-2007 01:55:02 19.4 C 78 % 15.47 C
3009 22-05-2007 02:07:02 19.3 C 79 % 15.57 C
3010 22-05-2007 02:19:02 19.3 C 78 % 15.37 C
3011 22-05-2007 02:31:01 19.1 C 79 % 15.37 C
3012 22-05-2007 02:43:01 18.9 C 79 % 15.18 C
3013 22-05-2007 02:56:07 18.6 C 79 % 14.89 C
3014 22-05-2007 03:08:07 18.4 C 80 % 14.89 C
3015 22-05-2007 03:20:07 18.3 C 81 % 14.98 C
3016 22-05-2007 03:32:02 18.2 C 81 % 14.89 C
3017 22-05-2007 03:44:03 18 C 81 % 14.69 C
3018 22-05-2007 03:56:03 17.9 C 82 % 14.78 C
3019 22-05-2007 04:08:02 17.6 C 82 % 14.49 C
3020 22-05-2007 04:20:03 17.5 C 82 % 14.39 C
3021 22-05-2007 04:32:02 17.5 C 82 % 14.39 C
3022 22-05-2007 04:44:02 17.5 C 82 % 14.39 C
3023 22-05-2007 04:56:03 17.4 C 82 % 14.3 C
3024 22-05-2007 05:08:02 17.5 C 82 % 14.39 C
3025 22-05-2007 05:20:02 17.4 C 82 % 14.3 C
Sensor: Nr:Datum:Temp:Feuchte:Taupunkt:
Aussen-T/F 3026 22-05-2007 05:32:02 17.6 C 82 % 14.49 C
3027 22-05-2007 05:44:02 17.6 C 81 % 14.3 C
3028 22-05-2007 05:56:02 17.7 C 80 % 14.21 C
3029 22-05-2007 06:08:03 17.7 C 80 % 14.21 C
3030 22-05-2007 06:20:02 17.6 C 80 % 14.11 C
3031 22-05-2007 06:32:02 17.5 C 80 % 14.01 C
3032 22-05-2007 06:44:02 17.5 C 80 % 14.01 C
3033 22-05-2007 06:56:03 17.5 C 80 % 14.01 C
3034 22-05-2007 07:08:03 17.5 C 80 % 14.01 C
3035 22-05-2007 07:20:03 17.4 C 81 % 14.11 C
3036 22-05-2007 07:32:03 17.6 C 81 % 14.3 C
3037 22-05-2007 07:44:03 17.2 C 81 % 13.91 C
3038 22-05-2007 07:56:02 17.2 C 82 % 14.1 C
3039 22-05-2007 08:08:02 17.2 C 82 % 14.1 C
3040 22-05-2007 08:20:02 17.6 C 82 % 14.49 C
3041 22-05-2007 08:32:02 17.9 C 81 % 14.59 C
3042 22-05-2007 08:44:02 18.4 C 80 % 14.89 C
3043 22-05-2007 08:56:01 19.1 C 75 % 14.57 C
3044 22-05-2007 09:08:02 19.6 C 72 % 14.42 C
3045 22-05-2007 09:20:02 20.2 C 69 % 14.33 C
3046 22-05-2007 09:32:01 20.7 C 68 % 14.58 C
3047 22-05-2007 09:44:01 21.3 C 66 % 14.69 C
3048 22-05-2007 09:56:02 22 C 60 % 13.88 C
3049 22-05-2007 10:08:02 22.6 C 57 % 13.65 C
3050 22-05-2007 10:20:02 23.4 C 55 % 13.85 C
Sensor: Nr:Datum:Temp:Feuchte:Taupunkt:
Aussen-T/F 3051 22-05-2007 10:32:02 24.1 C 53 % 13.93 C
3052 22-05-2007 10:44:03 24.3 C 49 % 12.91 C
3053 22-05-2007 10:56:02 25.3 C 48 % 13.5 C
3054 22-05-2007 11:08:03 26 C 47 % 13.82 C
3055 22-05-2007 11:20:02 26.5 C 45 % 13.6 C
3056 22-05-2007 11:32:02 26.4 C 42 % 12.46 C
3057 22-05-2007 11:44:02 26.8 C 41 % 12.45 C
3058 22-05-2007 11:56:02 28.2 C 40 % 13.32 C
3059 22-05-2007 12:08:02 28.7 C 35 % 11.73 C
3060 22-05-2007 12:20:02 29.3 C 32 % 10.9 C
3061 22-05-2007 12:32:02 29.7 C 31 % 10.77 C
3062 22-05-2007 12:44:02 30 C 32 % 11.51 C
3063 22-05-2007 12:56:01 29.7 C 31 % 10.77 C
3064 22-05-2007 13:08:02 30.3 C 30 % 10.79 C
3065 22-05-2007 13:20:02 31.1 C 27 % 9.9 C
3066 22-05-2007 13:32:01 31.2 C 24 % 8.24 C
3067 22-05-2007 13:44:01 31 C 25 % 8.67 C
3068 22-05-2007 13:56:02 29.6 C 29 % 9.69 C
3069 22-05-2007 14:08:02 29.6 C 30 % 10.19 C
3070 22-05-2007 14:20:02 30.3 C 28 % 9.76 C
3071 22-05-2007 14:32:02 30 C 28 % 9.51 C
3072 22-05-2007 14:44:02 30.5 C 28 % 9.93 C
3073 22-05-2007 14:56:02 30.7 C 25 % 8.42 C
3074 22-05-2007 15:08:02 30.3 C 25 % 8.09 C
3075 22-05-2007 15:20:02 30.7 C 24 % 7.82 C
Sensor: Nr:Datum:Temp:Feuchte:Taupunkt:
Aussen-T/F 3076 22-05-2007 15:32:02 31.2 C 24 % 8.24 C
3077 22-05-2007 15:44:02 30.9 C 22 % 6.72 C
3078 22-05-2007 15:56:01 30.6 C 23 % 7.12 C
3079 22-05-2007 16:08:02 31 C 21 % 6.13 C
3080 22-05-2007 16:20:01 31.1 C 20 % 5.51 C
3081 22-05-2007 16:32:01 31.3 C 20 % 5.67 C
3082 22-05-2007 16:44:01 31 C 20 % 5.42 C
3083 22-05-2007 16:56:02 29.8 C 25 % 7.67 C
3084 22-05-2007 17:08:01 29.2 C 29 % 9.34 C
3085 22-05-2007 17:20:02 27.5 C 35 % 10.68 C
3086 22-05-2007 17:32:02 26.3 C 37 % 10.46 C
3087 22-05-2007 17:44:02 27.6 C 36 % 11.19 C
3088 22-05-2007 17:56:01 28.6 C 35 % 11.64 C
3089 22-05-2007 18:08:02 25.7 C 44 % 12.54 C
3090 22-05-2007 18:20:02 25.8 C 45 % 12.97 C
3091 22-05-2007 18:32:01 24 C 52 % 13.54 C
3092 22-05-2007 18:44:01 23.7 C 54 % 13.84 C
3093 22-05-2007 18:56:02 23 C 55 % 13.48 C
3094 22-05-2007 19:08:01 23.1 C 53 % 13 C
3095 22-05-2007 19:20:02 23.6 C 53 % 13.46 C
3096 22-05-2007 19:32:02 24 C 50 % 12.94 C
3097 22-05-2007 19:44:02 25.1 C 44 % 12 C
3098 22-05-2007 19:56:02 25.1 C 42 % 11.29 C
3099 22-05-2007 20:08:03 25.2 C 42 % 11.38 C
3100 22-05-2007 20:20:02 24.3 C 44 % 11.27 C
Sensor: Nr:Datum:Temp:Feuchte:Taupunkt:
Aussen-T/F 3101 22-05-2007 20:32:02 23.5 C 47 % 11.54 C
3102 22-05-2007 20:44:02 22.5 C 52 % 12.16 C
3103 22-05-2007 20:56:02 21.2 C 55 % 11.81 C
3104 22-05-2007 21:08:02 21 C 55 % 11.62 C
3105 22-05-2007 21:20:02 21 C 55 % 11.62 C
3106 22-05-2007 21:32:02 20.8 C 58 % 12.24 C
3107 22-05-2007 21:44:02 20.5 C 61 % 12.73 C
3108 22-05-2007 21:56:02 20.6 C 61 % 12.82 C
3109 22-05-2007 22:08:01 20.8 C 61 % 13.01 C
3110 22-05-2007 22:20:01 20.8 C 61 % 13.01 C
3111 22-05-2007 22:32:02 20.3 C 64 % 13.27 C
3112 22-05-2007 22:44:02 20 C 66 % 13.46 C
3113 22-05-2007 22:56:02 19.8 C 69 % 13.95 C
3114 22-05-2007 23:08:02 19.7 C 70 % 14.08 C
3115 22-05-2007 23:20:02 20 C 69 % 14.14 C
3116 22-05-2007 23:32:01 20 C 69 % 14.14 C
3117 22-05-2007 23:44:01 20.2 C 68 % 14.11 C
3118 22-05-2007 23:56:02 19.8 C 69 % 13.95 C
3119 23-05-2007 00:08:02 20 C 68 % 13.92 C
3120 23-05-2007 00:20:02 20.2 C 68 % 14.11 C
3121 23-05-2007 00:32:02 19.7 C 69 % 13.86 C
3122 23-05-2007 00:44:02 19.4 C 70 % 13.79 C
3123 23-05-2007 00:56:02 19.6 C 70 % 13.98 C
3124 23-05-2007 01:08:02 19.8 C 70 % 14.17 C
3125 23-05-2007 01:20:02 19.7 C 70 % 14.08 C
Sensor: Nr:Datum:Temp:Feuchte:Taupunkt:
Aussen-T/F 3126 23-05-2007 01:32:02 19.5 C 71 % 14.1 C
3127 23-05-2007 01:44:02 19.2 C 73 % 14.25 C
3128 23-05-2007 01:56:03 19.2 C 74 % 14.46 C
3129 23-05-2007 02:08:02 19.1 C 75 % 14.57 C
3130 23-05-2007 02:20:03 19 C 75 % 14.47 C
3131 23-05-2007 02:32:03 19.1 C 76 % 14.77 C
3132 23-05-2007 02:44:03 19.1 C 75 % 14.57 C
3133 23-05-2007 02:57:03 18.9 C 76 % 14.58 C
3134 23-05-2007 03:09:03 18.8 C 76 % 14.48 C
3135 23-05-2007 03:21:05 19 C 74 % 14.26 C
3136 23-05-2007 03:33:02 19 C 73 % 14.05 C
3137 23-05-2007 03:45:03 18.9 C 74 % 14.17 C
3138 23-05-2007 03:57:03 18.6 C 74 % 13.88 C
3139 23-05-2007 04:09:02 18.4 C 76 % 14.1 C
3140 23-05-2007 04:21:02 18.4 C 76 % 14.1 C
3141 23-05-2007 04:33:02 18.4 C 76 % 14.1 C
3142 23-05-2007 04:45:02 18.3 C 76 % 14 C
3143 23-05-2007 04:57:02 18.3 C 76 % 14 C
3144 23-05-2007 05:09:02 18.2 C 76 % 13.9 C
3145 23-05-2007 05:21:02 18.2 C 76 % 13.9 C
3146 23-05-2007 05:33:02 18.2 C 75 % 13.7 C
3147 23-05-2007 05:45:01 18.2 C 75 % 13.7 C
3148 23-05-2007 05:57:01 18 C 76 % 13.71 C
3149 23-05-2007 06:09:02 18 C 75 % 13.51 C
3150 23-05-2007 06:21:02 17.8 C 76 % 13.52 C
Sensor: Nr:Datum:Temp:Feuchte:Taupunkt:
Aussen-T/F 3151 23-05-2007 06:33:01 17.8 C 77 % 13.72 C
3152 23-05-2007 06:45:02 17.7 C 77 % 13.62 C
3153 23-05-2007 06:57:02 17.6 C 77 % 13.52 C
3154 23-05-2007 07:09:02 17.5 C 77 % 13.43 C
3155 23-05-2007 07:21:02 17.7 C 77 % 13.62 C
3156 23-05-2007 07:33:02 17.7 C 76 % 13.42 C
3157 23-05-2007 07:45:02 17.7 C 76 % 13.42 C
3158 23-05-2007 07:57:02 17.7 C 76 % 13.42 C
3159 23-05-2007 08:09:01 17.6 C 76 % 13.32 C
3160 23-05-2007 08:21:01 17.2 C 79 % 13.53 C
3161 23-05-2007 08:33:02 16.8 C 83 % 13.9 C
3162 23-05-2007 08:45:02 16.8 C 83 % 13.9 C
3163 23-05-2007 08:57:02 17.1 C 82 % 14 C
3164 23-05-2007 09:09:02 17.6 C 81 % 14.3 C
3165 23-05-2007 09:21:02 17.7 C 79 % 14.01 C
3166 23-05-2007 09:33:03 17.7 C 77 % 13.62 C
3167 23-05-2007 09:45:02 18 C 76 % 13.71 C
3168 23-05-2007 09:57:02 17.9 C 75 % 13.41 C
3169 23-05-2007 10:09:02 18.2 C 74 % 13.49 C
3170 23-05-2007 10:21:02 18.8 C 72 % 13.65 C
3171 23-05-2007 10:33:03 19.2 C 69 % 13.38 C
3172 23-05-2007 10:45:02 19 C 66 % 12.51 C
3173 23-05-2007 10:57:03 19 C 66 % 12.51 C
3174 23-05-2007 11:09:01 19.3 C 66 % 12.79 C
3175 23-05-2007 11:21:01 19.5 C 64 % 12.51 C
Sensor: Nr:Datum:Temp:Feuchte:Taupunkt:
Aussen-T/F 3176 23-05-2007 11:33:02 19.8 C 64 % 12.8 C
3177 23-05-2007 11:45:03 20.4 C 62 % 12.88 C
3178 23-05-2007 11:57:03 20.4 C 61 % 12.63 C
3179 23-05-2007 12:09:02 20.4 C 61 % 12.63 C
3180 23-05-2007 12:21:02 20.4 C 60 % 12.38 C
3181 23-05-2007 12:33:03 20.7 C 60 % 12.66 C
3182 23-05-2007 12:45:02 20.7 C 59 % 12.41 C
3183 23-05-2007 12:57:02 21.2 C 58 % 12.61 C
3184 23-05-2007 13:09:02 21.7 C 56 % 12.54 C
3185 23-05-2007 13:21:02 21.6 C 56 % 12.45 C
3186 23-05-2007 13:33:02 22.3 C 53 % 12.26 C
3187 23-05-2007 13:45:02 22.7 C 52 % 12.34 C
3188 23-05-2007 13:57:02 22.1 C 53 % 12.08 C
3189 23-05-2007 14:09:01 21.7 C 56 % 12.54 C
3190 23-05-2007 14:21:02 21.7 C 56 % 12.54 C
3191 23-05-2007 14:33:02 21.7 C 55 % 12.27 C
3192 23-05-2007 14:45:02 22.7 C 53 % 12.63 C
3193 23-05-2007 14:57:02 23.4 C 49 % 12.08 C
3194 23-05-2007 15:09:02 23.3 C 49 % 11.99 C
3195 23-05-2007 15:21:02 24 C 47 % 12 C
3196 23-05-2007 15:33:02 24.9 C 45 % 12.16 C
3197 23-05-2007 15:45:02 25.4 C 42 % 11.56 C
3198 23-05-2007 15:57:03 24.5 C 44 % 11.45 C
3199 23-05-2007 16:09:02 24.1 C 46 % 11.76 C
3200 23-05-2007 16:21:02 24.5 C 45 % 11.79 C
Sensor: Nr:Datum:Temp:Feuchte:Taupunkt:
Aussen-T/F 3201 23-05-2007 16:33:02 26.1 C 41 % 11.82 C
3202 23-05-2007 16:45:01 26.7 C 40 % 11.99 C
3203 23-05-2007 16:57:01 27 C 36 % 10.66 C
3204 23-05-2007 17:09:04 26.2 C 40 % 11.54 C
3205 23-05-2007 17:21:02 25 C 42 % 11.2 C
3206 23-05-2007 17:33:01 24.6 C 44 % 11.54 C
3207 23-05-2007 17:45:03 24.8 C 44 % 11.72 C
3208 23-05-2007 17:57:03 26.3 C 41 % 12 C
3209 23-05-2007 18:09:03 26.8 C 37 % 10.9 C
3210 23-05-2007 18:21:02 26.2 C 40 % 11.54 C
3211 23-05-2007 18:33:02 25.9 C 41 % 11.64 C
3212 23-05-2007 18:45:02 25.3 C 41 % 11.11 C
3213 23-05-2007 18:57:02 25.9 C 41 % 11.64 C
3214 23-05-2007 19:09:02 26.1 C 39 % 11.07 C
3215 23-05-2007 19:21:02 25.5 C 42 % 11.65 C
3216 23-05-2007 19:33:03 24.9 C 42 % 11.11 C
3217 23-05-2007 19:45:02 24.9 C 43 % 11.47 C
3218 23-05-2007 19:57:02 24.8 C 44 % 11.72 C
3219 23-05-2007 20:09:03 24.4 C 45 % 11.7 C
3220 23-05-2007 20:21:02 24.1 C 46 % 11.76 C
3221 23-05-2007 20:33:02 24.2 C 49 % 12.81 C
3222 23-05-2007 20:45:02 24 C 47 % 12 C
3223 23-05-2007 20:57:02 23.4 C 52 % 12.99 C
3224 23-05-2007 21:09:01 22.9 C 54 % 13.1 C
3225 23-05-2007 21:21:02 22.5 C 55 % 13.01 C
Sensor: Nr:Datum:Temp:Feuchte:Taupunkt:
Aussen-T/F 3226 23-05-2007 21:33:01 22.1 C 56 % 12.92 C
3227 23-05-2007 21:45:02 21.6 C 58 % 12.99 C
3228 23-05-2007 21:57:02 21.5 C 58 % 12.89 C
3229 23-05-2007 22:09:02 21.3 C 58 % 12.71 C
3230 23-05-2007 22:21:02 20.9 C 60 % 12.85 C
3231 23-05-2007 22:33:02 20.6 C 60 % 12.57 C
3232 23-05-2007 22:45:02 20.5 C 61 % 12.73 C
3233 23-05-2007 22:57:02 20.4 C 62 % 12.88 C
3234 23-05-2007 23:09:02 20 C 64 % 12.99 C
3235 23-05-2007 23:21:02 19.7 C 65 % 12.94 C
3236 23-05-2007 23:33:02 19.5 C 67 % 13.21 C
3237 23-05-2007 23:45:01 19.2 C 67 % 12.93 C
3238 23-05-2007 23:57:01 19 C 68 % 12.96 C
3239 24-05-2007 00:09:02 18.6 C 70 % 13.02 C
3240 24-05-2007 00:21:02 18.5 C 71 % 13.15 C
3241 24-05-2007 00:33:02 18.3 C 72 % 13.17 C
3242 24-05-2007 00:45:02 18.2 C 72 % 13.07 C
3243 24-05-2007 00:57:02 18 C 72 % 12.88 C
3244 24-05-2007 01:09:02 17.9 C 73 % 12.99 C
3245 24-05-2007 01:21:03 17.8 C 74 % 13.11 C
3246 24-05-2007 01:33:01 17.6 C 76 % 13.32 C
3247 24-05-2007 01:45:03 17.6 C 76 % 13.32 C
3248 24-05-2007 01:57:03 17.5 C 76 % 13.23 C
3249 24-05-2007 02:09:02 17.5 C 76 % 13.23 C
3250 24-05-2007 02:21:03 17.4 C 76 % 13.13 C
Sensor: Nr:Datum:Temp:Feuchte:Taupunkt:
Aussen-T/F 3251 24-05-2007 02:33:02 17.2 C 76 % 12.94 C
3252 24-05-2007 02:46:03 16.9 C 78 % 13.04 C
3253 24-05-2007 02:58:03 16.8 C 78 % 12.94 C
3254 24-05-2007 03:10:04 16.7 C 78 % 12.85 C
3255 24-05-2007 03:22:04 16.6 C 79 % 12.95 C
3256 24-05-2007 03:34:02 16.5 C 78 % 12.65 C
3257 24-05-2007 03:46:02 16.3 C 79 % 12.65 C
3258 24-05-2007 03:58:02 16.2 C 79 % 12.56 C
3259 24-05-2007 04:10:02 16.1 C 79 % 12.46 C
3260 24-05-2007 04:22:02 15.8 C 80 % 12.36 C
3261 24-05-2007 04:34:02 15.7 C 80 % 12.26 C
3262 24-05-2007 04:46:02 15.6 C 80 % 12.16 C
3263 24-05-2007 04:58:02 15.6 C 81 % 12.35 C
3264 24-05-2007 05:10:02 15.4 C 81 % 12.16 C
3265 24-05-2007 05:22:02 15.4 C 81 % 12.16 C
3266 24-05-2007 05:34:02 15.3 C 81 % 12.06 C
3267 24-05-2007 05:46:02 15.3 C 82 % 12.25 C
3268 24-05-2007 05:58:02 15.2 C 82 % 12.15 C
3269 24-05-2007 06:10:01 15.1 C 82 % 12.05 C
3270 24-05-2007 06:22:02 15.2 C 82 % 12.15 C
3271 24-05-2007 06:34:03 15.3 C 82 % 12.25 C
3272 24-05-2007 06:46:02 15.3 C 82 % 12.25 C
3273 24-05-2007 06:58:02 15.4 C 83 % 12.53 C
3274 24-05-2007 07:10:02 15.5 C 83 % 12.63 C
3275 24-05-2007 07:22:02 15.6 C 83 % 12.72 C
Sensor: Nr:Datum:Temp:Feuchte:Taupunkt:
Aussen-T/F 3276 24-05-2007 07:34:02 15.9 C 82 % 12.83 C
3277 24-05-2007 07:46:02 16.2 C 80 % 12.75 C
3278 24-05-2007 07:58:02 16.4 C 79 % 12.75 C
3279 24-05-2007 08:10:02 16.8 C 79 % 13.14 C
3280 24-05-2007 08:22:02 17.3 C 77 % 13.23 C
3281 24-05-2007 08:34:02 17.7 C 75 % 13.22 C
3282 24-05-2007 08:46:03 18.2 C 72 % 13.07 C
3283 24-05-2007 08:58:03 18.9 C 70 % 13.31 C
3284 24-05-2007 09:10:03 19.4 C 67 % 13.12 C
3285 24-05-2007 09:22:02 19.8 C 66 % 13.27 C
3286 24-05-2007 09:34:02 20 C 64 % 12.99 C
3287 24-05-2007 09:46:02 20.4 C 64 % 13.37 C
3288 24-05-2007 09:58:02 20.9 C 63 % 13.6 C
3289 24-05-2007 10:10:02 21.3 C 61 % 13.48 C
3290 24-05-2007 10:22:03 21.9 C 60 % 13.79 C
3291 24-05-2007 10:34:02 22.4 C 58 % 13.73 C
3292 24-05-2007 10:46:01 23.1 C 56 % 13.85 C
3293 24-05-2007 10:58:01 23.5 C 54 % 13.66 C
3294 24-05-2007 11:10:02 23.9 C 53 % 13.74 C
3295 24-05-2007 11:22:01 24.5 C 52 % 14 C
3296 24-05-2007 11:34:01 24.7 C 50 % 13.58 C
3297 24-05-2007 11:46:02 25.4 C 49 % 13.91 C
3298 24-05-2007 11:58:02 26.2 C 47 % 14 C
3299 24-05-2007 12:10:01 26.9 C 44 % 13.62 C
3300 24-05-2007 12:22:02 27.5 C 41 % 13.08 C
Sensor: Nr:Datum:Temp:Feuchte:Taupunkt:
Aussen-T/F 3301 24-05-2007 12:34:02 28.6 C 40 % 13.68 C
3302 24-05-2007 12:46:02 29 C 37 % 12.84 C
3303 24-05-2007 12:58:02 29.1 C 36 % 12.51 C
3304 24-05-2007 13:10:02 29.6 C 34 % 12.08 C
3305 24-05-2007 13:22:02 30 C 34 % 12.43 C
3306 24-05-2007 13:34:02 29.8 C 33 % 11.8 C
3307 24-05-2007 13:46:02 30.8 C 31 % 11.72 C
3308 24-05-2007 13:58:02 30.4 C 31 % 11.37 C
3309 24-05-2007 14:10:01 30.1 C 32 % 11.59 C
3310 24-05-2007 14:22:02 30.6 C 32 % 12.03 C
3311 24-05-2007 14:34:02 31.1 C 31 % 11.98 C
3312 24-05-2007 14:46:03 30.7 C 31 % 11.63 C
3313 24-05-2007 14:58:03 31.4 C 29 % 11.23 C
3314 24-05-2007 15:10:02 31.4 C 29 % 11.23 C
3315 24-05-2007 15:22:02 31.7 C 30 % 12 C
3316 24-05-2007 15:34:02 32.3 C 25 % 9.77 C
3317 24-05-2007 15:46:02 32 C 25 % 9.52 C
3318 24-05-2007 15:58:02 32.4 C 21 % 7.28 C
3319 24-05-2007 16:10:02 32.7 C 20 % 6.81 C
3320 24-05-2007 16:22:02 32.9 C 20 % 6.98 C
3321 24-05-2007 16:34:02 32.8 C 20 % 6.9 C
3322 24-05-2007 16:46:02 33.1 C 20 % 7.14 C
3323 24-05-2007 16:58:02 33 C 20 % 7.06 C
3324 24-05-2007 17:10:02 33 C 20 % 7.06 C
3325 24-05-2007 17:22:01 33 C 20 % 7.06 C
Sensor: Nr:Datum:Temp:Feuchte:Taupunkt:
Aussen-T/F 3326 24-05-2007 17:34:01 33.4 C 20 % 7.39 C
3327 24-05-2007 17:46:02 33.7 C 20 % 7.63 C
3328 24-05-2007 17:58:02 33.2 C 20 % 7.22 C
3329 24-05-2007 18:10:01 33.3 C 20 % 7.3 C
3330 24-05-2007 18:22:02 33.4 C 20 % 7.39 C
3331 24-05-2007 18:34:01 33.8 C 20 % 7.71 C
3332 24-05-2007 18:46:01 33.7 C 20 % 7.63 C
3333 24-05-2007 18:58:01 33.6 C 20 % 7.55 C
3334 24-05-2007 19:10:02 33.2 C 20 % 7.22 C
3335 24-05-2007 19:22:02 33.1 C 21 % 7.85 C
3336 24-05-2007 19:34:01 32.8 C 24 % 9.58 C
3337 24-05-2007 19:46:02 32.3 C 25 % 9.77 C
3338 24-05-2007 19:58:03 31.8 C 28 % 11.04 C
3339 24-05-2007 20:10:02 31.4 C 28 % 10.7 C
3340 24-05-2007 20:22:01 30.6 C 32 % 12.03 C
3341 24-05-2007 20:34:02 29.9 C 35 % 12.78 C
3342 24-05-2007 20:46:01 28.6 C 36 % 12.07 C
3343 24-05-2007 20:58:01 27.5 C 38 % 11.92 C
3344 24-05-2007 21:10:02 26.7 C 40 % 11.99 C
3345 24-05-2007 21:22:02 26.2 C 42 % 12.28 C
3346 24-05-2007 21:34:02 25.8 C 44 % 12.63 C
3347 24-05-2007 21:46:02 25.6 C 44 % 12.45 C
3348 24-05-2007 21:58:02 25.2 C 45 % 12.43 C
3349 24-05-2007 22:10:03 25.1 C 45 % 12.34 C
3350 24-05-2007 22:22:02 24.8 C 47 % 12.73 C
Sensor: Nr:Datum:Temp:Feuchte:Taupunkt:
Aussen-T/F 3351 24-05-2007 22:34:02 24.5 C 48 % 12.77 C
3352 24-05-2007 22:46:03 24.4 C 49 % 13 C
3353 24-05-2007 22:58:03 24.2 C 50 % 13.12 C
3354 24-05-2007 23:10:02 23.9 C 52 % 13.45 C
3355 24-05-2007 23:22:02 23.4 C 54 % 13.57 C
3356 24-05-2007 23:34:03 23.2 C 55 % 13.66 C
3357 24-05-2007 23:46:02 23 C 56 % 13.75 C
3358 24-05-2007 23:58:02 22.8 C 57 % 13.84 C
3359 25-05-2007 00:10:03 22.9 C 58 % 14.2 C
3360 25-05-2007 00:22:03 23 C 58 % 14.29 C
3361 25-05-2007 00:34:02 22.6 C 58 % 13.92 C
3362 25-05-2007 00:46:02 22.5 C 59 % 14.09 C
3363 25-05-2007 00:58:02 22.2 C 61 % 14.32 C
3364 25-05-2007 01:10:02 21.9 C 63 % 14.54 C
3365 25-05-2007 01:22:03 21.7 C 63 % 14.35 C
3366 25-05-2007 01:34:03 21.6 C 64 % 14.5 C
3367 25-05-2007 01:46:02 21.6 C 64 % 14.5 C
3368 25-05-2007 01:58:02 21.3 C 65 % 14.46 C
3369 25-05-2007 02:10:01 21.1 C 66 % 14.5 C
3370 25-05-2007 02:22:02 20.8 C 67 % 14.45 C
3371 25-05-2007 02:34:02 20.4 C 68 % 14.3 C
3372 25-05-2007 02:47:03 20.3 C 69 % 14.43 C
3373 25-05-2007 02:59:03 20 C 69 % 14.14 C
3374 25-05-2007 03:11:03 20 C 70 % 14.36 C
3375 25-05-2007 03:23:03 19.7 C 71 % 14.3 C
Sensor: Nr:Datum:Temp:Feuchte:Taupunkt:
Aussen-T/F 3376 25-05-2007 03:35:02 19.5 C 72 % 14.32 C
3377 25-05-2007 03:47:02 19.4 C 72 % 14.22 C
3378 25-05-2007 03:59:02 19.1 C 72 % 13.94 C
3379 25-05-2007 04:11:01 19 C 73 % 14.05 C
3380 25-05-2007 04:23:02 18.9 C 74 % 14.17 C
3381 25-05-2007 04:35:02 18.9 C 75 % 14.37 C
3382 25-05-2007 04:47:01 18.6 C 76 % 14.29 C
3383 25-05-2007 04:59:01 18.6 C 75 % 14.08 C
3384 25-05-2007 05:11:02 18.4 C 75 % 13.89 C
3385 25-05-2007 05:23:02 18.3 C 75 % 13.79 C
3386 25-05-2007 05:35:01 18.2 C 76 % 13.9 C
3387 25-05-2007 05:47:03 18.1 C 76 % 13.81 C
3388 25-05-2007 05:59:03 18 C 76 % 13.71 C
3389 25-05-2007 06:11:02 18 C 77 % 13.91 C
3390 25-05-2007 06:23:03 18.1 C 77 % 14.01 C
3391 25-05-2007 06:35:03 18 C 78 % 14.11 C
3392 25-05-2007 06:47:03 18 C 78 % 14.11 C
3393 25-05-2007 06:59:03 18.1 C 77 % 14.01 C
3394 25-05-2007 07:11:02 18.3 C 77 % 14.2 C
3395 25-05-2007 07:23:03 18.3 C 77 % 14.2 C
3396 25-05-2007 07:35:03 18.5 C 77 % 14.39 C
3397 25-05-2007 07:47:02 18.7 C 76 % 14.39 C
3398 25-05-2007 07:59:02 18.9 C 76 % 14.58 C
3399 25-05-2007 08:11:02 19.3 C 74 % 14.55 C
3400 25-05-2007 08:23:02 19.7 C 73 % 14.73 C
Sensor: Nr:Datum:Temp:Feuchte:Taupunkt:
Aussen-T/F 3401 25-05-2007 08:35:02 20.1 C 70 % 14.46 C
3402 25-05-2007 08:47:02 20.5 C 69 % 14.62 C
3403 25-05-2007 08:59:02 21 C 67 % 14.64 C
3404 25-05-2007 09:11:02 21.6 C 66 % 14.98 C
3405 25-05-2007 09:23:03 22.2 C 62 % 14.58 C
3406 25-05-2007 09:35:02 22.9 C 61 % 14.98 C
3407 25-05-2007 09:47:02 23.4 C 59 % 14.93 C
3408 25-05-2007 09:59:02 23.9 C 58 % 15.14 C
3409 25-05-2007 10:11:02 24.3 C 52 % 13.82 C
3410 25-05-2007 10:23:01 24.6 C 50 % 13.49 C
3411 25-05-2007 10:35:02 25 C 45 % 12.25 C
3412 25-05-2007 10:47:02 25.5 C 44 % 12.36 C
3413 25-05-2007 10:59:02 26.2 C 41 % 11.91 C
3414 25-05-2007 11:11:01 26.6 C 42 % 12.64 C
3415 25-05-2007 11:23:02 27.2 C 41 % 12.81 C
3416 25-05-2007 11:35:02 27.3 C 38 % 11.74 C
3417 25-05-2007 11:47:03 27.6 C 37 % 11.6 C
3418 25-05-2007 11:59:03 27.5 C 36 % 11.1 C
3419 25-05-2007 12:11:02 28.1 C 34 % 10.77 C
3420 25-05-2007 12:23:02 28.7 C 33 % 10.84 C
3421 25-05-2007 12:35:02 28.9 C 33 % 11.02 C
3422 25-05-2007 12:47:02 29.9 C 32 % 11.42 C
3423 25-05-2007 12:59:02 29.5 C 31 % 10.6 C
3424 25-05-2007 13:11:02 30 C 30 % 10.54 C
3425 25-05-2007 13:23:02 30.1 C 30 % 10.62 C
Sensor: Nr:Datum:Temp:Feuchte:Taupunkt:
Aussen-T/F 3426 25-05-2007 13:35:03 30.3 C 29 % 10.29 C
3427 25-05-2007 13:47:01 30.1 C 29 % 10.12 C
3428 25-05-2007 13:59:01 30 C 28 % 9.51 C
3429 25-05-2007 14:11:01 30.1 C 28 % 9.59 C
3430 25-05-2007 14:23:02 30.4 C 27 % 9.31 C
3431 25-05-2007 14:35:01 30.6 C 26 % 8.92 C
3432 25-05-2007 14:47:02 30.6 C 25 % 8.34 C
3433 25-05-2007 14:59:02 30.7 C 25 % 8.42 C
3434 25-05-2007 15:11:02 31.3 C 27 % 10.07 C
3435 25-05-2007 15:23:02 30.8 C 26 % 9.09 C
3436 25-05-2007 15:35:01 31.2 C 25 % 8.84 C
3437 25-05-2007 15:47:02 31.3 C 24 % 8.32 C
3438 25-05-2007 15:59:02 31.8 C 24 % 8.74 C
3439 25-05-2007 16:11:02 31.7 C 22 % 7.38 C
3440 25-05-2007 16:23:03 31.7 C 21 % 6.7 C
3441 25-05-2007 16:35:03 31.7 C 23 % 8.03 C
3442 25-05-2007 16:47:03 31.9 C 22 % 7.55 C
3443 25-05-2007 16:59:03 31.2 C 24 % 8.24 C
3444 25-05-2007 17:11:03 31.3 C 24 % 8.32 C
3445 25-05-2007 17:23:03 30.8 C 26 % 9.09 C
3446 25-05-2007 17:35:03 28.8 C 39 % 13.47 C
3447 25-05-2007 17:47:03 27.4 C 42 % 13.35 C
3448 25-05-2007 17:59:03 27.3 C 45 % 14.33 C
3449 25-05-2007 18:11:02 29.6 C 37 % 13.37 C
3450 25-05-2007 18:23:02 29.7 C 35 % 12.61 C
Sensor: Nr:Datum:Temp:Feuchte:Taupunkt:
Aussen-T/F 3451 25-05-2007 18:35:03 29.7 C 35 % 12.61 C
3452 25-05-2007 18:47:02 30.1 C 32 % 11.59 C
3453 25-05-2007 18:59:02 30 C 32 % 11.51 C
3454 25-05-2007 19:11:02 29.8 C 33 % 11.8 C
3455 25-05-2007 19:23:02 29.2 C 33 % 11.28 C
3456 25-05-2007 19:35:02 29.4 C 33 % 11.45 C
3457 25-05-2007 19:47:02 29.4 C 35 % 12.34 C
3458 25-05-2007 19:59:02 28.6 C 37 % 12.49 C
3459 25-05-2007 20:11:02 28 C 39 % 12.76 C
3460 25-05-2007 20:23:02 27.1 C 42 % 13.09 C
3461 25-05-2007 20:35:02 26.4 C 45 % 13.51 C
3462 25-05-2007 20:47:02 25.5 C 48 % 13.69 C
3463 25-05-2007 20:59:02 24.6 C 52 % 14.09 C
3464 25-05-2007 21:11:02 24.4 C 54 % 14.49 C
3465 25-05-2007 21:23:02 24 C 56 % 14.68 C
3466 25-05-2007 21:35:02 24.1 C 57 % 15.05 C
3467 25-05-2007 21:47:01 24.2 C 56 % 14.87 C
3468 25-05-2007 21:59:01 23.9 C 58 % 15.14 C
3469 25-05-2007 22:11:02 23.6 C 59 % 15.12 C
3470 25-05-2007 22:23:01 23.5 C 59 % 15.03 C
3471 25-05-2007 22:36:11 23.5 C 60 % 15.29 C
3472 25-05-2007 22:48:11 23.4 C 61 % 15.45 C
3473 25-05-2007 23:00:11 22.7 C 69 % 16.72 C
3474 25-05-2007 23:12:11 21.6 C 77 % 17.39 C
3475 25-05-2007 23:24:11 21.6 C 80 % 18 C
Sensor: Nr:Datum:Temp:Feuchte:Taupunkt:
Aussen-T/F 3476 25-05-2007 23:36:11 21 C 79 % 17.22 C
3477 25-05-2007 23:48:11 21.2 C 78 % 17.21 C
3478 26-05-2007 00:00:11 21.3 C 77 % 17.1 C
3479 26-05-2007 00:12:11 21.4 C 76 % 16.99 C
3480 26-05-2007 00:24:11 21.5 C 75 % 16.88 C
3481 26-05-2007 00:36:11 21.4 C 75 % 16.79 C
3482 26-05-2007 00:48:11 21.5 C 75 % 16.88 C
3483 26-05-2007 01:00:11 20.8 C 79 % 17.02 C
3484 26-05-2007 01:12:11 19.4 C 83 % 16.44 C
3485 26-05-2007 01:24:11 17.9 C 87 % 15.71 C
3486 26-05-2007 01:36:11 18 C 89 % 16.16 C
3487 26-05-2007 01:48:11 17.6 C 91 % 16.11 C
3488 26-05-2007 02:00:12 17.8 C 89 % 15.96 C
3489 26-05-2007 02:12:12 17.8 C 89 % 15.96 C
3490 26-05-2007 02:24:12 17.8 C 89 % 15.96 C
3491 26-05-2007 02:36:12 17.5 C 89 % 15.67 C
3492 26-05-2007 02:48:12 17.3 C 89 % 15.47 C
3493 26-05-2007 03:00:12 17.2 C 90 % 15.55 C
3494 26-05-2007 03:12:12 17 C 90 % 15.35 C
3495 26-05-2007 03:24:12 17 C 90 % 15.35 C
3496 26-05-2007 03:36:12 17 C 90 % 15.35 C
3497 26-05-2007 03:48:12 16.9 C 91 % 15.42 C
3498 26-05-2007 04:00:12 16.7 C 91 % 15.22 C
3499 26-05-2007 04:12:12 16.6 C 91 % 15.13 C
3500 26-05-2007 04:24:12 16.5 C 91 % 15.03 C
Sensor: Nr:Datum:Temp:Feuchte:Taupunkt:
Aussen-T/F 3501 26-05-2007 04:36:12 16.4 C 91 % 14.93 C
3502 26-05-2007 04:48:12 16.2 C 91 % 14.73 C
3503 26-05-2007 05:00:12 16.1 C 91 % 14.63 C
3504 26-05-2007 05:12:12 15.9 C 92 % 14.6 C
3505 26-05-2007 05:24:12 15.9 C 92 % 14.6 C
3506 26-05-2007 05:36:13 15.8 C 92 % 14.5 C
3507 26-05-2007 05:48:13 15.8 C 92 % 14.5 C
3508 26-05-2007 06:00:13 15.8 C 92 % 14.5 C
3509 26-05-2007 06:12:13 15.9 C 92 % 14.6 C
3510 26-05-2007 06:24:13 15.9 C 92 % 14.6 C
3511 26-05-2007 06:36:13 16 C 92 % 14.7 C
3512 26-05-2007 06:48:13 15.9 C 92 % 14.6 C
3513 26-05-2007 07:00:13 16 C 91 % 14.53 C
3514 26-05-2007 07:12:13 16.1 C 92 % 14.8 C
3515 26-05-2007 07:24:13 16.2 C 91 % 14.73 C
3516 26-05-2007 07:36:13 16.5 C 92 % 15.2 C
3517 26-05-2007 07:48:13 17.1 C 91 % 15.62 C
3518 26-05-2007 08:00:13 17.8 C 90 % 16.14 C
3519 26-05-2007 08:12:13 18 C 86 % 15.62 C
3520 26-05-2007 08:24:13 17.7 C 84 % 14.96 C
3521 26-05-2007 08:36:13 17.7 C 85 % 15.15 C
3522 26-05-2007 08:48:13 17.7 C 82 % 14.59 C
3523 26-05-2007 09:00:13 18 C 79 % 14.31 C
3524 26-05-2007 09:12:13 18.7 C 77 % 14.59 C
3525 26-05-2007 09:24:14 18.8 C 76 % 14.48 C
Sensor: Nr:Datum:Temp:Feuchte:Taupunkt:
Aussen-T/F 3526 26-05-2007 09:36:14 19.3 C 75 % 14.76 C
3527 26-05-2007 09:48:14 19.6 C 73 % 14.63 C
3528 26-05-2007 10:00:14 20.3 C 71 % 14.87 C
3529 26-05-2007 10:12:14 21 C 68 % 14.87 C
3530 26-05-2007 10:24:14 21.7 C 63 % 14.35 C
3531 26-05-2007 10:36:02 22.5 C 62 % 14.86 C
3532 26-05-2007 10:48:02 22.5 C 59 % 14.09 C
3533 26-05-2007 11:00:02 23.5 C 59 % 15.03 C
3534 26-05-2007 11:12:02 22.9 C 59 % 14.47 C
3535 26-05-2007 11:24:02 23.1 C 59 % 14.65 C
3536 26-05-2007 11:36:02 23.9 C 57 % 14.87 C
3537 26-05-2007 11:48:02 24.2 C 53 % 14.02 C
3538 26-05-2007 12:00:03 24.6 C 51 % 13.79 C
3539 26-05-2007 12:12:02 25.6 C 49 % 14.1 C
3540 26-05-2007 12:24:02 25.3 C 49 % 13.82 C
3541 26-05-2007 12:36:02 27.1 C 42 % 13.09 C
3542 26-05-2007 12:48:02 28.2 C 39 % 12.93 C
3543 26-05-2007 13:00:02 28.7 C 37 % 12.57 C
3544 26-05-2007 13:12:01 29.3 C 36 % 12.68 C
3545 26-05-2007 13:24:01 29.2 C 34 % 11.73 C
3546 26-05-2007 13:36:02 29 C 31 % 10.17 C
3547 26-05-2007 13:48:02 29.4 C 32 % 10.99 C
3548 26-05-2007 14:00:02 28.6 C 30 % 9.33 C
3549 26-05-2007 14:12:03 27.9 C 33 % 10.15 C
3550 26-05-2007 14:24:02 28.9 C 32 % 10.55 C
Sensor: Nr:Datum:Temp:Feuchte:Taupunkt:
Aussen-T/F 3551 26-05-2007 14:36:02 29.3 C 31 % 10.43 C
3552 26-05-2007 14:48:02 29.7 C 31 % 10.77 C
3553 26-05-2007 15:00:03 29.5 C 32 % 11.07 C
3554 26-05-2007 15:12:02 30.1 C 29 % 10.12 C
3555 26-05-2007 15:24:03 30.1 C 29 % 10.12 C
3556 26-05-2007 15:36:03 30.3 C 29 % 10.29 C
3557 26-05-2007 15:48:03 30.4 C 27 % 9.31 C
3558 26-05-2007 16:00:03 30.9 C 25 % 8.59 C
3559 26-05-2007 16:12:02 31.2 C 23 % 7.62 C
3560 26-05-2007 16:24:03 30.7 C 24 % 7.82 C
3561 26-05-2007 16:36:02 30.6 C 23 % 7.12 C
3562 26-05-2007 16:48:02 31 C 27 % 9.82 C
3563 26-05-2007 17:00:02 30.8 C 27 % 9.65 C
3564 26-05-2007 17:12:02 31.3 C 23 % 7.7 C
3565 26-05-2007 17:24:02 31.3 C 22 % 7.05 C
3566 26-05-2007 17:36:03 31.7 C 21 % 6.7 C
3567 26-05-2007 17:48:02 32.1 C 22 % 7.71 C
3568 26-05-2007 18:00:02 31.8 C 25 % 9.35 C
3569 26-05-2007 18:12:02 31.7 C 25 % 9.26 C
3570 26-05-2007 18:24:02 31.4 C 26 % 9.59 C
3571 26-05-2007 18:36:01 30.4 C 30 % 10.88 C
3572 26-05-2007 18:48:02 28.6 C 36 % 12.07 C
3573 26-05-2007 19:00:02 27.2 C 41 % 12.81 C
3574 26-05-2007 19:12:02 26.9 C 42 % 12.91 C
3575 26-05-2007 19:24:02 25.9 C 45 % 13.06 C
Sensor: Nr:Datum:Temp:Feuchte:Taupunkt:
Aussen-T/F 3576 26-05-2007 19:36:02 25.4 C 46 % 12.94 C
3577 26-05-2007 19:48:02 24.9 C 48 % 13.14 C
3578 26-05-2007 20:00:02 24.6 C 49 % 13.18 C
3579 26-05-2007 20:13:11 24.2 C 51 % 13.43 C
3580 26-05-2007 20:25:11 17.2 C 48 % 6.11 C
3581 26-05-2007 20:37:12 15.7 C 87 % 13.54 C
3582 26-05-2007 20:49:12 15.9 C 90 % 14.26 C
3583 26-05-2007 21:01:12 16 C 90 % 14.36 C
3584 26-05-2007 21:13:12 16.2 C 91 % 14.73 C
3585 26-05-2007 21:25:12 16.2 C 92 % 14.9 C
3586 26-05-2007 21:37:12 16.2 C 92 % 14.9 C
3587 26-05-2007 21:49:12 15.8 C 93 % 14.67 C
3588 26-05-2007 22:01:12 15.8 C 93 % 14.67 C
3589 26-05-2007 22:13:12 15.5 C 93 % 14.37 C
3590 26-05-2007 22:25:12 15.8 C 94 % 14.84 C
3591 26-05-2007 22:37:12 15.6 C 94 % 14.64 C
3592 26-05-2007 22:49:12 15.8 C 94 % 14.84 C
3593 26-05-2007 23:01:12 15.9 C 94 % 14.94 C
3594 26-05-2007 23:13:12 15.8 C 94 % 14.84 C
3595 26-05-2007 23:25:12 15.9 C 94 % 14.94 C
3596 26-05-2007 23:37:12 16 C 93 % 14.87 C
3597 26-05-2007 23:49:12 16 C 93 % 14.87 C
3598 27-05-2007 00:01:13 15.6 C 92 % 14.31 C
3599 27-05-2007 00:13:13 15.4 C 92 % 14.11 C
3600 27-05-2007 00:25:13 15.4 C 92 % 14.11 C
Sensor: Nr:Datum:Temp:Feuchte:Taupunkt:
Aussen-T/F 3601 27-05-2007 00:37:13 15.3 C 91 % 13.84 C
3602 27-05-2007 00:49:13 15.1 C 91 % 13.64 C
3603 27-05-2007 01:01:13 15.1 C 91 % 13.64 C
3604 27-05-2007 01:13:13 15 C 91 % 13.54 C
3605 27-05-2007 01:25:13 15.1 C 91 % 13.64 C
3606 27-05-2007 01:37:13 15.5 C 92 % 14.21 C
3607 27-05-2007 01:49:13 15.4 C 91 % 13.94 C
3608 27-05-2007 02:01:13 15.4 C 91 % 13.94 C
3609 27-05-2007 02:13:13 15.2 C 91 % 13.74 C
3610 27-05-2007 02:25:13 15.2 C 90 % 13.57 C
3611 27-05-2007 02:37:13 15 C 90 % 13.37 C
3612 27-05-2007 02:49:13 14.8 C 91 % 13.35 C
3613 27-05-2007 03:01:13 14.7 C 91 % 13.25 C
3614 27-05-2007 03:13:13 14.7 C 91 % 13.25 C
3615 27-05-2007 03:25:14 14.6 C 91 % 13.15 C
3616 27-05-2007 03:37:14 14.5 C 91 % 13.05 C
3617 27-05-2007 03:49:14 14.4 C 91 % 12.95 C
3618 27-05-2007 04:01:14 14.4 C 92 % 13.12 C
3619 27-05-2007 04:13:14 14.5 C 92 % 13.22 C
3620 27-05-2007 04:25:14 14.5 C 92 % 13.22 C
3621 27-05-2007 04:37:14 14.5 C 92 % 13.22 C
3622 27-05-2007 04:49:14 14.5 C 92 % 13.22 C
3623 27-05-2007 05:01:14 14.6 C 92 % 13.32 C
3624 27-05-2007 05:13:14 14.7 C 93 % 13.58 C
3625 27-05-2007 05:25:14 14.7 C 92 % 13.41 C
Sensor: Nr:Datum:Temp:Feuchte:Taupunkt:
Aussen-T/F 3626 27-05-2007 05:37:14 14.8 C 92 % 13.51 C
3627 27-05-2007 05:49:14 14.8 C 92 % 13.51 C
3628 27-05-2007 06:01:14 14.9 C 93 % 13.78 C
3629 27-05-2007 06:13:14 14.9 C 92 % 13.61 C
3630 27-05-2007 06:25:14 15 C 92 % 13.71 C
3631 27-05-2007 06:37:14 15 C 92 % 13.71 C
3632 27-05-2007 06:49:15 15.2 C 92 % 13.91 C
3633 27-05-2007 07:01:15 15.2 C 92 % 13.91 C
3634 27-05-2007 07:13:15 15.3 C 92 % 14.01 C
3635 27-05-2007 07:25:15 15.4 C 92 % 14.11 C
3636 27-05-2007 07:37:15 15.6 C 92 % 14.31 C
3637 27-05-2007 07:49:15 15.8 C 92 % 14.5 C
3638 27-05-2007 08:01:15 16.2 C 91 % 14.73 C
3639 27-05-2007 08:13:15 16.5 C 91 % 15.03 C
3640 27-05-2007 08:25:15 16.8 C 90 % 15.15 C
3641 27-05-2007 08:37:01 17 C 87 % 14.82 C
3642 27-05-2007 08:49:02 17.5 C 87 % 15.31 C
3643 27-05-2007 09:01:01 17.7 C 86 % 15.33 C
3644 27-05-2007 09:13:01 18 C 84 % 15.26 C
3645 27-05-2007 09:25:01 18.6 C 82 % 15.47 C
3646 27-05-2007 09:37:02 19.3 C 75 % 14.76 C
3647 27-05-2007 09:49:03 19.5 C 72 % 14.32 C
3648 27-05-2007 10:01:03 19.5 C 69 % 13.66 C
3649 27-05-2007 10:13:03 20.3 C 63 % 13.03 C
3650 27-05-2007 10:25:03 21.6 C 59 % 13.25 C
Sensor: Nr:Datum:Temp:Feuchte:Taupunkt:
Aussen-T/F 3651 27-05-2007 10:37:04 21.4 C 57 % 12.53 C
3652 27-05-2007 10:49:02 20.8 C 56 % 11.71 C
3653 27-05-2007 11:01:02 20.4 C 58 % 11.86 C
3654 27-05-2007 11:13:02 19.8 C 60 % 11.82 C
3655 27-05-2007 11:25:02 18.8 C 64 % 11.85 C
3656 27-05-2007 11:37:02 19.7 C 64 % 12.7 C
3657 27-05-2007 11:49:02 19.6 C 60 % 11.63 C
3658 27-05-2007 12:01:02 20.4 C 58 % 11.86 C
3659 27-05-2007 12:13:02 20.3 C 57 % 11.51 C
3660 27-05-2007 12:25:02 20.7 C 56 % 11.61 C
3661 27-05-2007 12:37:02 19.9 C 59 % 11.66 C
3662 27-05-2007 12:49:02 19.6 C 59 % 11.37 C
3663 27-05-2007 13:01:02 18.7 C 62 % 11.28 C
3664 27-05-2007 13:13:02 18.2 C 65 % 11.52 C
3665 27-05-2007 13:25:02 19.9 C 56 % 10.87 C
3666 27-05-2007 13:37:03 19.6 C 54 % 10.05 C
3667 27-05-2007 13:49:02 19.9 C 55 % 10.6 C
3668 27-05-2007 14:01:02 19.4 C 55 % 10.13 C
3669 27-05-2007 14:13:02 19 C 56 % 10.03 C
3670 27-05-2007 14:25:02 18.4 C 57 % 9.74 C
3671 27-05-2007 14:37:02 18.4 C 55 % 9.2 C
3672 27-05-2007 14:49:03 19.1 C 52 % 9.02 C
3673 27-05-2007 15:01:02 20 C 48 % 8.67 C
3674 27-05-2007 15:13:02 19 C 47 % 7.44 C
3675 27-05-2007 15:25:02 19 C 48 % 7.75 C
Sensor: Nr:Datum:Temp:Feuchte:Taupunkt:
Aussen-T/F 3676 27-05-2007 15:37:03 19 C 45 % 6.81 C
3677 27-05-2007 15:49:02 18.6 C 46 % 6.77 C
3678 27-05-2007 16:01:03 19.5 C 42 % 6.26 C
3679 27-05-2007 16:13:03 20.5 C 38 % 5.71 C
3680 27-05-2007 16:25:02 21.2 C 37 % 5.94 C
3681 27-05-2007 16:37:02 20.8 C 37 % 5.59 C
3682 27-05-2007 16:49:02 20.8 C 36 % 5.2 C
3683 27-05-2007 17:01:01 20.2 C 36 % 4.67 C
3684 27-05-2007 17:13:01 21.4 C 34 % 4.91 C
3685 27-05-2007 17:25:01 20.8 C 35 % 4.79 C
3686 27-05-2007 17:37:02 20 C 38 % 5.26 C
3687 27-05-2007 17:49:02 19.7 C 38 % 5 C
3688 27-05-2007 18:01:03 19.1 C 38 % 4.46 C
3689 27-05-2007 18:13:03 19.2 C 38 % 4.55 C
3690 27-05-2007 18:25:02 19.8 C 36 % 4.31 C
3691 27-05-2007 18:37:02 20 C 33 % 3.26 C
3692 27-05-2007 18:49:02 20.4 C 34 % 4.03 C
3693 27-05-2007 19:01:02 20.2 C 33 % 3.43 C
3694 27-05-2007 19:13:02 20.5 C 34 % 4.12 C
3695 27-05-2007 19:25:01 20.8 C 32 % 3.52 C
3696 27-05-2007 19:37:02 20.8 C 32 % 3.52 C
3697 27-05-2007 19:49:01 21.3 C 32 % 3.95 C
3698 27-05-2007 20:01:02 20.4 C 32 % 3.17 C
3699 27-05-2007 20:13:02 19.8 C 34 % 3.5 C
3700 27-05-2007 20:25:02 20 C 35 % 4.09 C
Sensor: Nr:Datum:Temp:Feuchte:Taupunkt:
Aussen-T/F 3701 27-05-2007 20:37:01 18.9 C 40 % 5.02 C
3702 27-05-2007 20:49:02 18.2 C 43 % 5.43 C
3703 27-05-2007 21:01:01 17.5 C 45 % 5.45 C
3704 27-05-2007 21:13:01 16.8 C 47 % 5.44 C
3705 27-05-2007 21:25:01 16.2 C 48 % 5.19 C
3706 27-05-2007 21:37:02 15.8 C 51 % 5.69 C
3707 27-05-2007 21:49:02 15.5 C 51 % 5.42 C
3708 27-05-2007 22:01:02 15.3 C 51 % 5.23 C
3709 27-05-2007 22:13:02 15.3 C 54 % 6.06 C
3710 27-05-2007 22:25:02 15 C 57 % 6.56 C
3711 27-05-2007 22:37:02 14.9 C 57 % 6.47 C
3712 27-05-2007 22:49:02 14.7 C 58 % 6.53 C
3713 27-05-2007 23:01:03 14.6 C 58 % 6.44 C
3714 27-05-2007 23:13:03 14.8 C 58 % 6.63 C
3715 27-05-2007 23:25:02 14.9 C 60 % 7.21 C
3716 27-05-2007 23:37:02 15.1 C 60 % 7.4 C
3717 27-05-2007 23:49:02 15 C 60 % 7.31 C
3718 28-05-2007 00:01:02 15.1 C 59 % 7.16 C
3719 28-05-2007 00:13:02 14.9 C 61 % 7.45 C
3720 28-05-2007 00:25:02 15 C 61 % 7.55 C
3721 28-05-2007 00:37:02 14.8 C 62 % 7.6 C
3722 28-05-2007 00:49:03 15 C 61 % 7.55 C
3723 28-05-2007 01:01:02 14.9 C 63 % 7.93 C
3724 28-05-2007 01:13:02 15 C 62 % 7.79 C
3725 28-05-2007 01:25:03 14.9 C 60 % 7.21 C
Sensor: Nr:Datum:Temp:Feuchte:Taupunkt:
Aussen-T/F 3726 28-05-2007 01:37:03 14.9 C 60 % 7.21 C
3727 28-05-2007 01:49:02 14.9 C 64 % 8.16 C
3728 28-05-2007 02:01:03 14.8 C 65 % 8.29 C
3729 28-05-2007 02:13:03 14.3 C 66 % 8.04 C
3730 28-05-2007 02:25:03 14 C 70 % 8.62 C
3731 28-05-2007 02:37:02 14 C 69 % 8.41 C
3732 28-05-2007 02:49:02 14.1 C 67 % 8.07 C
3733 28-05-2007 03:01:02 14.2 C 66 % 7.95 C
3734 28-05-2007 03:13:02 14.2 C 65 % 7.72 C
3735 28-05-2007 03:25:02 14.2 C 65 % 7.72 C
3736 28-05-2007 03:37:02 14.1 C 65 % 7.63 C
3737 28-05-2007 03:49:02 14 C 66 % 7.76 C
3738 28-05-2007 04:01:02 14 C 67 % 7.98 C
3739 28-05-2007 04:13:02 13.9 C 67 % 7.88 C
3740 28-05-2007 04:25:02 13.9 C 67 % 7.88 C
3741 28-05-2007 04:37:02 13.9 C 68 % 8.1 C
3742 28-05-2007 04:49:01 13.7 C 67 % 7.69 C
3743 28-05-2007 05:01:01 13.7 C 66 % 7.47 C
3744 28-05-2007 05:13:01 13.6 C 66 % 7.38 C
3745 28-05-2007 05:25:02 13.5 C 66 % 7.28 C
3746 28-05-2007 05:37:02 13.5 C 66 % 7.28 C
3747 28-05-2007 05:49:01 13.5 C 66 % 7.28 C
3748 28-05-2007 06:01:02 13.5 C 67 % 7.5 C
3749 28-05-2007 06:13:02 13.4 C 68 % 7.62 C
3750 28-05-2007 06:25:02 13.5 C 69 % 7.93 C
Sensor: Nr:Datum:Temp:Feuchte:Taupunkt:
Aussen-T/F 3751 28-05-2007 06:37:01 13.5 C 68 % 7.72 C
3752 28-05-2007 06:49:02 13.5 C 70 % 8.14 C
3753 28-05-2007 07:01:01 13.4 C 71 % 8.26 C
3754 28-05-2007 07:13:01 13.4 C 71 % 8.26 C
3755 28-05-2007 07:25:01 13.4 C 72 % 8.46 C
3756 28-05-2007 07:37:02 13.2 C 74 % 8.67 C
3757 28-05-2007 07:49:01 13.2 C 74 % 8.67 C
3758 28-05-2007 08:01:02 13.2 C 72 % 8.27 C
3759 28-05-2007 08:13:02 13.2 C 71 % 8.06 C
3760 28-05-2007 08:25:02 13.1 C 70 % 7.76 C
3761 28-05-2007 08:37:01 12.9 C 71 % 7.78 C
3762 28-05-2007 08:49:01 12.9 C 71 % 7.78 C
3763 28-05-2007 09:01:01 12.6 C 74 % 8.09 C
3764 28-05-2007 09:13:01 12.5 C 75 % 8.19 C
3765 28-05-2007 09:25:01 12.6 C 74 % 8.09 C
3766 28-05-2007 09:37:02 12.6 C 71 % 7.49 C
3767 28-05-2007 09:49:02 12.5 C 71 % 7.39 C
3768 28-05-2007 10:01:02 11.5 C 75 % 7.23 C
3769 28-05-2007 10:13:02 11.2 C 80 % 7.88 C
3770 28-05-2007 10:25:01 11.1 C 81 % 7.97 C
3771 28-05-2007 10:37:02 11 C 81 % 7.87 C
3772 28-05-2007 10:49:01 11 C 81 % 7.87 C
3773 28-05-2007 11:01:01 11.1 C 82 % 8.15 C
3774 28-05-2007 11:13:01 11 C 83 % 8.23 C
3775 28-05-2007 11:25:02 11 C 84 % 8.4 C
Sensor: Nr:Datum:Temp:Feuchte:Taupunkt:
Aussen-T/F 3776 28-05-2007 11:37:01 11 C 85 % 8.58 C
3777 28-05-2007 11:49:02 10.8 C 86 % 8.56 C
3778 28-05-2007 12:01:01 10.6 C 86 % 8.36 C
3779 28-05-2007 12:13:01 10.7 C 86 % 8.46 C
3780 28-05-2007 12:25:01 10.9 C 86 % 8.65 C
3781 28-05-2007 12:37:02 10.9 C 86 % 8.65 C
3782 28-05-2007 12:49:02 11.4 C 85 % 8.97 C
3783 28-05-2007 13:01:02 11.3 C 84 % 8.7 C
3784 28-05-2007 13:13:02 11.5 C 84 % 8.89 C
3785 28-05-2007 13:25:01 11.7 C 84 % 9.09 C
3786 28-05-2007 13:37:01 11.7 C 82 % 8.73 C
3787 28-05-2007 13:49:02 11.8 C 80 % 8.47 C
3788 28-05-2007 14:01:01 11.8 C 80 % 8.47 C
3789 28-05-2007 14:13:01 11.9 C 81 % 8.75 C
3790 28-05-2007 14:25:01 11.8 C 82 % 8.83 C
3791 28-05-2007 14:37:02 11.7 C 83 % 8.91 C
3792 28-05-2007 14:49:01 11.9 C 85 % 9.46 C
3793 28-05-2007 15:01:01 11.8 C 86 % 9.54 C
3794 28-05-2007 15:13:01 11.8 C 86 % 9.54 C
3795 28-05-2007 15:25:02 11.5 C 87 % 9.41 C
3796 28-05-2007 15:37:01 11.3 C 88 % 9.39 C
3797 28-05-2007 15:49:02 11.3 C 88 % 9.39 C
3798 28-05-2007 16:01:01 11.1 C 88 % 9.19 C
3799 28-05-2007 16:13:02 11.1 C 88 % 9.19 C
3800 28-05-2007 16:25:01 11.4 C 88 % 9.49 C
Sensor: Nr:Datum:Temp:Feuchte:Taupunkt:
Aussen-T/F 3801 28-05-2007 16:37:02 11.3 C 87 % 9.22 C
3802 28-05-2007 16:49:02 11.4 C 87 % 9.32 C
3803 28-05-2007 17:01:02 11.5 C 87 % 9.41 C
3804 28-05-2007 17:13:02 11.4 C 87 % 9.32 C
3805 28-05-2007 17:25:01 11.4 C 86 % 9.14 C
3806 28-05-2007 17:37:01 11.3 C 87 % 9.22 C
3807 28-05-2007 17:49:01 11.2 C 87 % 9.12 C
3808 28-05-2007 18:01:01 11.3 C 88 % 9.39 C
3809 28-05-2007 18:13:01 11.2 C 88 % 9.29 C
3810 28-05-2007 18:25:02 11.2 C 88 % 9.29 C
3811 28-05-2007 18:37:02 11.4 C 89 % 9.65 C
3812 28-05-2007 18:49:02 11.6 C 88 % 9.68 C
3813 28-05-2007 19:01:01 11.5 C 88 % 9.58 C
3814 28-05-2007 19:13:01 11.5 C 88 % 9.58 C
3815 28-05-2007 19:25:02 11.4 C 88 % 9.49 C
3816 28-05-2007 19:37:02 11.2 C 89 % 9.46 C
3817 28-05-2007 19:49:02 11.2 C 89 % 9.46 C
3818 28-05-2007 20:01:02 11.1 C 89 % 9.36 C
3819 28-05-2007 20:13:02 11 C 89 % 9.26 C
3820 28-05-2007 20:25:02 10.9 C 90 % 9.33 C
3821 28-05-2007 20:37:01 10.8 C 90 % 9.23 C
3822 28-05-2007 20:49:02 10.8 C 90 % 9.23 C
3823 28-05-2007 21:01:01 10.7 C 90 % 9.13 C
3824 28-05-2007 21:13:01 10.7 C 90 % 9.13 C
3825 28-05-2007 21:25:01 10.7 C 90 % 9.13 C
Sensor: Nr:Datum:Temp:Feuchte:Taupunkt:
Aussen-T/F 3826 28-05-2007 21:37:02 10.6 C 90 % 9.03 C
3827 28-05-2007 21:49:01 10.5 C 90 % 8.93 C
3828 28-05-2007 22:01:02 10.4 C 91 % 9 C
3829 28-05-2007 22:13:02 10.3 C 91 % 8.9 C
3830 28-05-2007 22:25:02 10.4 C 91 % 9 C
3831 28-05-2007 22:37:01 10.5 C 91 % 9.09 C
3832 28-05-2007 22:49:02 10.6 C 91 % 9.19 C
3833 28-05-2007 23:01:01 10.6 C 91 % 9.19 C
3834 28-05-2007 23:13:01 10.6 C 91 % 9.19 C
3835 28-05-2007 23:25:01 10.5 C 91 % 9.09 C
3836 28-05-2007 23:37:02 10.5 C 90 % 8.93 C
3837 28-05-2007 23:49:01 10.5 C 90 % 8.93 C
3838 29-05-2007 00:01:01 10.5 C 89 % 8.77 C
3839 29-05-2007 00:13:01 10.5 C 89 % 8.77 C
3840 29-05-2007 00:25:02 10.4 C 89 % 8.67 C
3841 29-05-2007 00:37:02 10.3 C 90 % 8.73 C
3842 29-05-2007 00:49:02 10.3 C 90 % 8.73 C
3843 29-05-2007 01:01:02 10.3 C 90 % 8.73 C
3844 29-05-2007 01:13:02 10.2 C 91 % 8.8 C
3845 29-05-2007 01:25:02 10.2 C 91 % 8.8 C
3846 29-05-2007 01:37:02 10.2 C 91 % 8.8 C
3847 29-05-2007 01:49:02 10.2 C 92 % 8.96 C
3848 29-05-2007 02:01:01 10.1 C 92 % 8.86 C
3849 29-05-2007 02:13:01 10.1 C 92 % 8.86 C
3850 29-05-2007 02:25:01 10.1 C 92 % 8.86 C
Sensor: Nr:Datum:Temp:Feuchte:Taupunkt:
Aussen-T/F 3851 29-05-2007 02:37:01 10.2 C 93 % 9.12 C
3852 29-05-2007 02:50:05 10.2 C 93 % 9.12 C
3853 29-05-2007 03:02:05 10.2 C 93 % 9.12 C
3854 29-05-2007 03:14:06 10.1 C 93 % 9.02 C
3855 29-05-2007 03:26:06 10.2 C 93 % 9.12 C
3856 29-05-2007 03:38:03 10.2 C 93 % 9.12 C
3857 29-05-2007 03:50:03 10.2 C 93 % 9.12 C
3858 29-05-2007 04:02:02 10.2 C 94 % 9.28 C
3859 29-05-2007 04:14:02 10.2 C 94 % 9.28 C
3860 29-05-2007 04:26:02 10.2 C 94 % 9.28 C
3861 29-05-2007 04:38:02 10.1 C 94 % 9.18 C
3862 29-05-2007 04:50:02 10.2 C 94 % 9.28 C
3863 29-05-2007 05:02:01 10 C 94 % 9.08 C
3864 29-05-2007 05:14:01 10 C 94 % 9.08 C
3865 29-05-2007 05:26:02 10 C 94 % 9.08 C
3866 29-05-2007 05:38:01 9.9 C 95 % 9.14 C
3867 29-05-2007 05:50:03 9.9 C 94 % 8.98 C
3868 29-05-2007 06:02:02 9.9 C 94 % 8.98 C
3869 29-05-2007 06:14:02 9.9 C 94 % 8.98 C
3870 29-05-2007 06:26:02 9.8 C 94 % 8.88 C
3871 29-05-2007 06:38:02 9.8 C 94 % 8.88 C
3872 29-05-2007 06:50:02 9.8 C 93 % 8.72 C
3873 29-05-2007 07:02:02 9.8 C 93 % 8.72 C
3874 29-05-2007 07:14:02 10 C 92 % 8.76 C
3875 29-05-2007 07:26:02 10.2 C 92 % 8.96 C
Sensor: Nr:Datum:Temp:Feuchte:Taupunkt:
Aussen-T/F 3876 29-05-2007 07:38:02 10.2 C 91 % 8.8 C
3877 29-05-2007 07:50:03 10.3 C 90 % 8.73 C
3878 29-05-2007 08:02:02 10.3 C 90 % 8.73 C
3879 29-05-2007 08:14:02 10.4 C 91 % 9 C
3880 29-05-2007 08:26:02 10.6 C 90 % 9.03 C
3881 29-05-2007 08:38:03 10.6 C 91 % 9.19 C
3882 29-05-2007 08:50:02 10.7 C 91 % 9.29 C
3883 29-05-2007 09:02:02 10.9 C 91 % 9.49 C
3884 29-05-2007 09:14:02 11.1 C 90 % 9.52 C
3885 29-05-2007 09:26:02 11.4 C 91 % 9.98 C
3886 29-05-2007 09:38:02 11.6 C 90 % 10.02 C
3887 29-05-2007 09:50:03 11.8 C 90 % 10.21 C
3888 29-05-2007 10:02:02 11.9 C 88 % 9.98 C
3889 29-05-2007 10:14:02 11.7 C